<?xml version="1.0" encoding="UTF-8" standalone="no" ?>
<gpx xmlns="http://www.topografix.com/GPX/1/1" xmlns:xsi="http://www.w3.org/2001/XMLSchema-instance" xsi:schemaLocation="http://www.topografix.com/GPX/1/1 http://www.topografix.com/GPX/1/1/gpx.xsd" version="1.1" creator="VisuGPX - https://www.visugpx.com">
  <metadata>
    <name>Sortie_cyclo_11_05_2013 (Lannion  - Plounérin - Plouaret)</name>
    <desc><![CDATA[Circuit de 66 kms.
Petite difficulté pour atteindre Plounevez.]]></desc>
  </metadata>
  <trk>
    <name><![CDATA[11-MAI-13 12:09:23]]></name>
    <trkseg>
      <trkpt lat="48.74696" lon="-3.455">
        <ele>63.1</ele>
        <time>2013-05-11T07:19:14Z</time>
      </trkpt>
      <trkpt lat="48.74697" lon="-3.455">
        <ele>63.58</ele>
        <time>2013-05-11T07:19:16Z</time>
      </trkpt>
      <trkpt lat="48.74696" lon="-3.455">
        <ele>66.95</ele>
        <time>2013-05-11T07:19:22Z</time>
      </trkpt>
      <trkpt lat="48.74696" lon="-3.455">
        <ele>66.95</ele>
        <time>2013-05-11T07:19:23Z</time>
      </trkpt>
      <trkpt lat="48.74699" lon="-3.45499">
        <ele>69.83</ele>
        <time>2013-05-11T07:19:31Z</time>
      </trkpt>
      <trkpt lat="48.74685" lon="-3.45485">
        <ele>23.69</ele>
        <time>2013-05-11T07:21:00Z</time>
      </trkpt>
      <trkpt lat="48.74685" lon="-3.45485">
        <ele>23.69</ele>
        <time>2013-05-11T07:21:01Z</time>
      </trkpt>
      <trkpt lat="48.74685" lon="-3.45504">
        <ele>23.69</ele>
        <time>2013-05-11T07:21:18Z</time>
      </trkpt>
      <trkpt lat="48.74686" lon="-3.45504">
        <ele>26.57</ele>
        <time>2013-05-11T07:21:20Z</time>
      </trkpt>
      <trkpt lat="48.74688" lon="-3.45504">
        <ele>29.94</ele>
        <time>2013-05-11T07:21:22Z</time>
      </trkpt>
      <trkpt lat="48.74694" lon="-3.45504">
        <ele>34.26</ele>
        <time>2013-05-11T07:21:26Z</time>
      </trkpt>
      <trkpt lat="48.74693" lon="-3.45499">
        <ele>39.07</ele>
        <time>2013-05-11T07:21:30Z</time>
      </trkpt>
      <trkpt lat="48.74693" lon="-3.45498">
        <ele>42.44</ele>
        <time>2013-05-11T07:21:34Z</time>
      </trkpt>
      <trkpt lat="48.74693" lon="-3.45498">
        <ele>45.8</ele>
        <time>2013-05-11T07:21:38Z</time>
      </trkpt>
      <trkpt lat="48.74695" lon="-3.45497">
        <ele>49.16</ele>
        <time>2013-05-11T07:21:42Z</time>
      </trkpt>
      <trkpt lat="48.74696" lon="-3.45497">
        <ele>52.53</ele>
        <time>2013-05-11T07:21:47Z</time>
      </trkpt>
      <trkpt lat="48.74698" lon="-3.45496">
        <ele>55.89</ele>
        <time>2013-05-11T07:21:53Z</time>
      </trkpt>
      <trkpt lat="48.747" lon="-3.45498">
        <ele>58.3</ele>
        <time>2013-05-11T07:21:59Z</time>
      </trkpt>
      <trkpt lat="48.747" lon="-3.45498">
        <ele>60.22</ele>
        <time>2013-05-11T07:22:03Z</time>
      </trkpt>
      <trkpt lat="48.74699" lon="-3.45501">
        <ele>63.1</ele>
        <time>2013-05-11T07:22:12Z</time>
      </trkpt>
      <trkpt lat="48.74695" lon="-3.45507">
        <ele>67.43</ele>
        <time>2013-05-11T07:22:30Z</time>
      </trkpt>
      <trkpt lat="48.74693" lon="-3.45507">
        <ele>70.79</ele>
        <time>2013-05-11T07:22:48Z</time>
      </trkpt>
      <trkpt lat="48.74692" lon="-3.45506">
        <ele>70.31</ele>
        <time>2013-05-11T07:22:59Z</time>
      </trkpt>
      <trkpt lat="48.74691" lon="-3.45506">
        <ele>71.76</ele>
        <time>2013-05-11T07:23:01Z</time>
      </trkpt>
      <trkpt lat="48.7469" lon="-3.45505">
        <ele>70.31</ele>
        <time>2013-05-11T07:23:03Z</time>
      </trkpt>
      <trkpt lat="48.74691" lon="-3.45504">
        <ele>72.72</ele>
        <time>2013-05-11T07:23:04Z</time>
      </trkpt>
      <trkpt lat="48.74693" lon="-3.45501">
        <ele>72.72</ele>
        <time>2013-05-11T07:23:12Z</time>
      </trkpt>
      <trkpt lat="48.74694" lon="-3.455">
        <ele>72.24</ele>
        <time>2013-05-11T07:23:20Z</time>
      </trkpt>
      <trkpt lat="48.74707" lon="-3.45511">
        <ele>73.2</ele>
        <time>2013-05-11T07:23:39Z</time>
      </trkpt>
      <trkpt lat="48.74708" lon="-3.45511">
        <ele>72.72</ele>
        <time>2013-05-11T07:23:40Z</time>
      </trkpt>
      <trkpt lat="48.74705" lon="-3.455">
        <ele>72.24</ele>
        <time>2013-05-11T07:23:51Z</time>
      </trkpt>
      <trkpt lat="48.74699" lon="-3.45502">
        <ele>72.72</ele>
        <time>2013-05-11T07:23:56Z</time>
      </trkpt>
      <trkpt lat="48.74679" lon="-3.45515">
        <ele>71.76</ele>
        <time>2013-05-11T07:24:02Z</time>
      </trkpt>
      <trkpt lat="48.74672" lon="-3.45512">
        <ele>71.76</ele>
        <time>2013-05-11T07:24:03Z</time>
      </trkpt>
      <trkpt lat="48.74666" lon="-3.45509">
        <ele>71.76</ele>
        <time>2013-05-11T07:24:04Z</time>
      </trkpt>
      <trkpt lat="48.74662" lon="-3.45505">
        <ele>71.76</ele>
        <time>2013-05-11T07:24:05Z</time>
      </trkpt>
      <trkpt lat="48.74636" lon="-3.45484">
        <ele>70.31</ele>
        <time>2013-05-11T07:24:10Z</time>
      </trkpt>
      <trkpt lat="48.74626" lon="-3.45477">
        <ele>68.87</ele>
        <time>2013-05-11T07:24:12Z</time>
      </trkpt>
      <trkpt lat="48.7462" lon="-3.45477">
        <ele>68.39</ele>
        <time>2013-05-11T07:24:13Z</time>
      </trkpt>
      <trkpt lat="48.74614" lon="-3.45479">
        <ele>67.43</ele>
        <time>2013-05-11T07:24:14Z</time>
      </trkpt>
      <trkpt lat="48.74586" lon="-3.45504">
        <ele>64.07</ele>
        <time>2013-05-11T07:24:19Z</time>
      </trkpt>
      <trkpt lat="48.74583" lon="-3.45506">
        <ele>63.58</ele>
        <time>2013-05-11T07:24:20Z</time>
      </trkpt>
      <trkpt lat="48.74572" lon="-3.45509">
        <ele>63.1</ele>
        <time>2013-05-11T07:24:24Z</time>
      </trkpt>
      <trkpt lat="48.74569" lon="-3.45506">
        <ele>63.1</ele>
        <time>2013-05-11T07:24:25Z</time>
      </trkpt>
      <trkpt lat="48.74549" lon="-3.45479">
        <ele>61.66</ele>
        <time>2013-05-11T07:24:30Z</time>
      </trkpt>
      <trkpt lat="48.74515" lon="-3.45427">
        <ele>58.3</ele>
        <time>2013-05-11T07:24:36Z</time>
      </trkpt>
      <trkpt lat="48.74509" lon="-3.45417">
        <ele>57.82</ele>
        <time>2013-05-11T07:24:37Z</time>
      </trkpt>
      <trkpt lat="48.74472" lon="-3.4536">
        <ele>61.18</ele>
        <time>2013-05-11T07:24:46Z</time>
      </trkpt>
      <trkpt lat="48.74451" lon="-3.45337">
        <ele>64.07</ele>
        <time>2013-05-11T07:24:53Z</time>
      </trkpt>
      <trkpt lat="48.74448" lon="-3.45332">
        <ele>64.07</ele>
        <time>2013-05-11T07:24:54Z</time>
      </trkpt>
      <trkpt lat="48.74412" lon="-3.4528">
        <ele>67.43</ele>
        <time>2013-05-11T07:25:08Z</time>
      </trkpt>
      <trkpt lat="48.74406" lon="-3.45266">
        <ele>67.43</ele>
        <time>2013-05-11T07:25:20Z</time>
      </trkpt>
      <trkpt lat="48.74407" lon="-3.45266">
        <ele>66.95</ele>
        <time>2013-05-11T07:25:28Z</time>
      </trkpt>
      <trkpt lat="48.74403" lon="-3.45261">
        <ele>67.91</ele>
        <time>2013-05-11T07:25:31Z</time>
      </trkpt>
      <trkpt lat="48.74401" lon="-3.45258">
        <ele>67.91</ele>
        <time>2013-05-11T07:25:32Z</time>
      </trkpt>
      <trkpt lat="48.7436" lon="-3.45228">
        <ele>68.39</ele>
        <time>2013-05-11T07:25:44Z</time>
      </trkpt>
      <trkpt lat="48.7433" lon="-3.45211">
        <ele>67.43</ele>
        <time>2013-05-11T07:25:50Z</time>
      </trkpt>
      <trkpt lat="48.74302" lon="-3.4518">
        <ele>65.51</ele>
        <time>2013-05-11T07:25:55Z</time>
      </trkpt>
      <trkpt lat="48.74296" lon="-3.45172">
        <ele>65.03</ele>
        <time>2013-05-11T07:25:56Z</time>
      </trkpt>
      <trkpt lat="48.74291" lon="-3.45163">
        <ele>65.03</ele>
        <time>2013-05-11T07:25:57Z</time>
      </trkpt>
      <trkpt lat="48.74269" lon="-3.45109">
        <ele>62.14</ele>
        <time>2013-05-11T07:26:02Z</time>
      </trkpt>
      <trkpt lat="48.74266" lon="-3.45095">
        <ele>62.14</ele>
        <time>2013-05-11T07:26:03Z</time>
      </trkpt>
      <trkpt lat="48.74265" lon="-3.45081">
        <ele>61.66</ele>
        <time>2013-05-11T07:26:04Z</time>
      </trkpt>
      <trkpt lat="48.74264" lon="-3.45066">
        <ele>61.18</ele>
        <time>2013-05-11T07:26:05Z</time>
      </trkpt>
      <trkpt lat="48.74263" lon="-3.45052">
        <ele>60.22</ele>
        <time>2013-05-11T07:26:06Z</time>
      </trkpt>
      <trkpt lat="48.74263" lon="-3.45038">
        <ele>59.74</ele>
        <time>2013-05-11T07:26:07Z</time>
      </trkpt>
      <trkpt lat="48.74262" lon="-3.44994">
        <ele>58.78</ele>
        <time>2013-05-11T07:26:10Z</time>
      </trkpt>
      <trkpt lat="48.74264" lon="-3.44893">
        <ele>55.41</ele>
        <time>2013-05-11T07:26:16Z</time>
      </trkpt>
      <trkpt lat="48.74264" lon="-3.44843">
        <ele>53.97</ele>
        <time>2013-05-11T07:26:19Z</time>
      </trkpt>
      <trkpt lat="48.74266" lon="-3.44753">
        <ele>51.09</ele>
        <time>2013-05-11T07:26:24Z</time>
      </trkpt>
      <trkpt lat="48.7426" lon="-3.44687">
        <ele>48.2</ele>
        <time>2013-05-11T07:26:28Z</time>
      </trkpt>
      <trkpt lat="48.74255" lon="-3.44655">
        <ele>47.24</ele>
        <time>2013-05-11T07:26:30Z</time>
      </trkpt>
      <trkpt lat="48.74251" lon="-3.4464">
        <ele>47.24</ele>
        <time>2013-05-11T07:26:31Z</time>
      </trkpt>
      <trkpt lat="48.74244" lon="-3.44628">
        <ele>48.2</ele>
        <time>2013-05-11T07:26:32Z</time>
      </trkpt>
      <trkpt lat="48.7423" lon="-3.44606">
        <ele>46.28</ele>
        <time>2013-05-11T07:26:34Z</time>
      </trkpt>
      <trkpt lat="48.74222" lon="-3.44598">
        <ele>46.28</ele>
        <time>2013-05-11T07:26:35Z</time>
      </trkpt>
      <trkpt lat="48.74214" lon="-3.44591">
        <ele>45.32</ele>
        <time>2013-05-11T07:26:36Z</time>
      </trkpt>
      <trkpt lat="48.74125" lon="-3.44548">
        <ele>41.47</ele>
        <time>2013-05-11T07:26:46Z</time>
      </trkpt>
      <trkpt lat="48.74116" lon="-3.44544">
        <ele>41.47</ele>
        <time>2013-05-11T07:26:47Z</time>
      </trkpt>
      <trkpt lat="48.74021" lon="-3.44503">
        <ele>38.11</ele>
        <time>2013-05-11T07:26:58Z</time>
      </trkpt>
      <trkpt lat="48.73989" lon="-3.44495">
        <ele>38.11</ele>
        <time>2013-05-11T07:27:02Z</time>
      </trkpt>
      <trkpt lat="48.73981" lon="-3.44498">
        <ele>38.11</ele>
        <time>2013-05-11T07:27:03Z</time>
      </trkpt>
      <trkpt lat="48.73974" lon="-3.44501">
        <ele>37.63</ele>
        <time>2013-05-11T07:27:04Z</time>
      </trkpt>
      <trkpt lat="48.73967" lon="-3.44503">
        <ele>37.15</ele>
        <time>2013-05-11T07:27:05Z</time>
      </trkpt>
      <trkpt lat="48.73959" lon="-3.44502">
        <ele>37.15</ele>
        <time>2013-05-11T07:27:06Z</time>
      </trkpt>
      <trkpt lat="48.73953" lon="-3.44499">
        <ele>36.67</ele>
        <time>2013-05-11T07:27:07Z</time>
      </trkpt>
      <trkpt lat="48.73947" lon="-3.44494">
        <ele>36.67</ele>
        <time>2013-05-11T07:27:08Z</time>
      </trkpt>
      <trkpt lat="48.73942" lon="-3.44488">
        <ele>36.67</ele>
        <time>2013-05-11T07:27:09Z</time>
      </trkpt>
      <trkpt lat="48.73936" lon="-3.44483">
        <ele>36.67</ele>
        <time>2013-05-11T07:27:10Z</time>
      </trkpt>
      <trkpt lat="48.7393" lon="-3.44478">
        <ele>36.67</ele>
        <time>2013-05-11T07:27:11Z</time>
      </trkpt>
      <trkpt lat="48.73923" lon="-3.44475">
        <ele>36.19</ele>
        <time>2013-05-11T07:27:12Z</time>
      </trkpt>
      <trkpt lat="48.73894" lon="-3.44462">
        <ele>34.74</ele>
        <time>2013-05-11T07:27:16Z</time>
      </trkpt>
      <trkpt lat="48.73845" lon="-3.44445">
        <ele>32.82</ele>
        <time>2013-05-11T07:27:22Z</time>
      </trkpt>
      <trkpt lat="48.73836" lon="-3.44445">
        <ele>31.86</ele>
        <time>2013-05-11T07:27:23Z</time>
      </trkpt>
      <trkpt lat="48.73827" lon="-3.44446">
        <ele>31.38</ele>
        <time>2013-05-11T07:27:24Z</time>
      </trkpt>
      <trkpt lat="48.73817" lon="-3.44448">
        <ele>31.38</ele>
        <time>2013-05-11T07:27:25Z</time>
      </trkpt>
      <trkpt lat="48.73808" lon="-3.44452">
        <ele>30.9</ele>
        <time>2013-05-11T07:27:26Z</time>
      </trkpt>
      <trkpt lat="48.73798" lon="-3.44456">
        <ele>29.94</ele>
        <time>2013-05-11T07:27:27Z</time>
      </trkpt>
      <trkpt lat="48.7374" lon="-3.44489">
        <ele>26.57</ele>
        <time>2013-05-11T07:27:33Z</time>
      </trkpt>
      <trkpt lat="48.73731" lon="-3.4449">
        <ele>25.61</ele>
        <time>2013-05-11T07:27:34Z</time>
      </trkpt>
      <trkpt lat="48.73722" lon="-3.44489">
        <ele>25.13</ele>
        <time>2013-05-11T07:27:35Z</time>
      </trkpt>
      <trkpt lat="48.73714" lon="-3.44484">
        <ele>24.65</ele>
        <time>2013-05-11T07:27:36Z</time>
      </trkpt>
      <trkpt lat="48.73704" lon="-3.44477">
        <ele>25.13</ele>
        <time>2013-05-11T07:27:37Z</time>
      </trkpt>
      <trkpt lat="48.73651" lon="-3.44436">
        <ele>24.17</ele>
        <time>2013-05-11T07:27:44Z</time>
      </trkpt>
      <trkpt lat="48.73612" lon="-3.44418">
        <ele>26.57</ele>
        <time>2013-05-11T07:27:51Z</time>
      </trkpt>
      <trkpt lat="48.73608" lon="-3.44416">
        <ele>26.57</ele>
        <time>2013-05-11T07:27:52Z</time>
      </trkpt>
      <trkpt lat="48.73604" lon="-3.44415">
        <ele>27.05</ele>
        <time>2013-05-11T07:27:53Z</time>
      </trkpt>
      <trkpt lat="48.73599" lon="-3.44413">
        <ele>28.02</ele>
        <time>2013-05-11T07:27:54Z</time>
      </trkpt>
      <trkpt lat="48.73595" lon="-3.44412">
        <ele>28.5</ele>
        <time>2013-05-11T07:27:55Z</time>
      </trkpt>
      <trkpt lat="48.73592" lon="-3.4441">
        <ele>28.5</ele>
        <time>2013-05-11T07:27:56Z</time>
      </trkpt>
      <trkpt lat="48.73573" lon="-3.44407">
        <ele>29.46</ele>
        <time>2013-05-11T07:28:01Z</time>
      </trkpt>
      <trkpt lat="48.73523" lon="-3.44412">
        <ele>31.38</ele>
        <time>2013-05-11T07:28:13Z</time>
      </trkpt>
      <trkpt lat="48.73474" lon="-3.44431">
        <ele>34.26</ele>
        <time>2013-05-11T07:28:25Z</time>
      </trkpt>
      <trkpt lat="48.73447" lon="-3.4448">
        <ele>36.19</ele>
        <time>2013-05-11T07:28:37Z</time>
      </trkpt>
      <trkpt lat="48.73419" lon="-3.44493">
        <ele>37.15</ele>
        <time>2013-05-11T07:28:45Z</time>
      </trkpt>
      <trkpt lat="48.73415" lon="-3.44495">
        <ele>36.67</ele>
        <time>2013-05-11T07:28:46Z</time>
      </trkpt>
      <trkpt lat="48.73383" lon="-3.44517">
        <ele>38.59</ele>
        <time>2013-05-11T07:28:55Z</time>
      </trkpt>
      <trkpt lat="48.73379" lon="-3.44519">
        <ele>38.11</ele>
        <time>2013-05-11T07:28:56Z</time>
      </trkpt>
      <trkpt lat="48.73375" lon="-3.44521">
        <ele>37.63</ele>
        <time>2013-05-11T07:28:57Z</time>
      </trkpt>
      <trkpt lat="48.7335" lon="-3.44523">
        <ele>38.11</ele>
        <time>2013-05-11T07:29:03Z</time>
      </trkpt>
      <trkpt lat="48.73346" lon="-3.44521">
        <ele>38.11</ele>
        <time>2013-05-11T07:29:04Z</time>
      </trkpt>
      <trkpt lat="48.73342" lon="-3.4452">
        <ele>38.11</ele>
        <time>2013-05-11T07:29:05Z</time>
      </trkpt>
      <trkpt lat="48.73301" lon="-3.44484">
        <ele>39.55</ele>
        <time>2013-05-11T07:29:17Z</time>
      </trkpt>
      <trkpt lat="48.73265" lon="-3.4444">
        <ele>40.99</ele>
        <time>2013-05-11T07:29:28Z</time>
      </trkpt>
      <trkpt lat="48.73261" lon="-3.44436">
        <ele>40.51</ele>
        <time>2013-05-11T07:29:29Z</time>
      </trkpt>
      <trkpt lat="48.73232" lon="-3.44409">
        <ele>42.44</ele>
        <time>2013-05-11T07:29:37Z</time>
      </trkpt>
      <trkpt lat="48.73228" lon="-3.44406">
        <ele>42.44</ele>
        <time>2013-05-11T07:29:38Z</time>
      </trkpt>
      <trkpt lat="48.73206" lon="-3.44392">
        <ele>43.4</ele>
        <time>2013-05-11T07:29:44Z</time>
      </trkpt>
      <trkpt lat="48.73202" lon="-3.4439">
        <ele>43.4</ele>
        <time>2013-05-11T07:29:45Z</time>
      </trkpt>
      <trkpt lat="48.73198" lon="-3.4439">
        <ele>43.88</ele>
        <time>2013-05-11T07:29:46Z</time>
      </trkpt>
      <trkpt lat="48.73186" lon="-3.44393">
        <ele>44.84</ele>
        <time>2013-05-11T07:29:49Z</time>
      </trkpt>
      <trkpt lat="48.73183" lon="-3.44396">
        <ele>44.84</ele>
        <time>2013-05-11T07:29:50Z</time>
      </trkpt>
      <trkpt lat="48.7318" lon="-3.444">
        <ele>44.84</ele>
        <time>2013-05-11T07:29:51Z</time>
      </trkpt>
      <trkpt lat="48.73177" lon="-3.44405">
        <ele>44.84</ele>
        <time>2013-05-11T07:29:52Z</time>
      </trkpt>
      <trkpt lat="48.73175" lon="-3.4441">
        <ele>44.84</ele>
        <time>2013-05-11T07:29:53Z</time>
      </trkpt>
      <trkpt lat="48.73173" lon="-3.44415">
        <ele>45.32</ele>
        <time>2013-05-11T07:29:54Z</time>
      </trkpt>
      <trkpt lat="48.73171" lon="-3.44421">
        <ele>45.8</ele>
        <time>2013-05-11T07:29:55Z</time>
      </trkpt>
      <trkpt lat="48.73158" lon="-3.44473">
        <ele>44.84</ele>
        <time>2013-05-11T07:30:03Z</time>
      </trkpt>
      <trkpt lat="48.73139" lon="-3.44571">
        <ele>44.36</ele>
        <time>2013-05-11T07:30:17Z</time>
      </trkpt>
      <trkpt lat="48.73118" lon="-3.44651">
        <ele>44.84</ele>
        <time>2013-05-11T07:30:29Z</time>
      </trkpt>
      <trkpt lat="48.73115" lon="-3.44656">
        <ele>44.84</ele>
        <time>2013-05-11T07:30:30Z</time>
      </trkpt>
      <trkpt lat="48.73112" lon="-3.4466">
        <ele>44.84</ele>
        <time>2013-05-11T07:30:31Z</time>
      </trkpt>
      <trkpt lat="48.73107" lon="-3.44662">
        <ele>44.84</ele>
        <time>2013-05-11T07:30:32Z</time>
      </trkpt>
      <trkpt lat="48.73102" lon="-3.44662">
        <ele>45.8</ele>
        <time>2013-05-11T07:30:33Z</time>
      </trkpt>
      <trkpt lat="48.73097" lon="-3.44661">
        <ele>44.36</ele>
        <time>2013-05-11T07:30:34Z</time>
      </trkpt>
      <trkpt lat="48.73092" lon="-3.44659">
        <ele>43.88</ele>
        <time>2013-05-11T07:30:35Z</time>
      </trkpt>
      <trkpt lat="48.73015" lon="-3.44623">
        <ele>42.92</ele>
        <time>2013-05-11T07:30:49Z</time>
      </trkpt>
      <trkpt lat="48.7301" lon="-3.44623">
        <ele>43.4</ele>
        <time>2013-05-11T07:30:50Z</time>
      </trkpt>
      <trkpt lat="48.73006" lon="-3.44626">
        <ele>43.4</ele>
        <time>2013-05-11T07:30:51Z</time>
      </trkpt>
      <trkpt lat="48.73001" lon="-3.44631">
        <ele>42.92</ele>
        <time>2013-05-11T07:30:52Z</time>
      </trkpt>
      <trkpt lat="48.72998" lon="-3.44637">
        <ele>42.92</ele>
        <time>2013-05-11T07:30:53Z</time>
      </trkpt>
      <trkpt lat="48.72996" lon="-3.44645">
        <ele>42.92</ele>
        <time>2013-05-11T07:30:54Z</time>
      </trkpt>
      <trkpt lat="48.72995" lon="-3.44653">
        <ele>42.44</ele>
        <time>2013-05-11T07:30:55Z</time>
      </trkpt>
      <trkpt lat="48.72985" lon="-3.44792">
        <ele>40.99</ele>
        <time>2013-05-11T07:31:12Z</time>
      </trkpt>
      <trkpt lat="48.7297" lon="-3.44946">
        <ele>39.07</ele>
        <time>2013-05-11T07:31:30Z</time>
      </trkpt>
      <trkpt lat="48.72958" lon="-3.45102">
        <ele>37.15</ele>
        <time>2013-05-11T07:31:47Z</time>
      </trkpt>
      <trkpt lat="48.72957" lon="-3.45161">
        <ele>36.19</ele>
        <time>2013-05-11T07:31:54Z</time>
      </trkpt>
      <trkpt lat="48.72954" lon="-3.45176">
        <ele>36.19</ele>
        <time>2013-05-11T07:31:56Z</time>
      </trkpt>
      <trkpt lat="48.72953" lon="-3.45183">
        <ele>35.71</ele>
        <time>2013-05-11T07:31:57Z</time>
      </trkpt>
      <trkpt lat="48.72953" lon="-3.45206">
        <ele>35.71</ele>
        <time>2013-05-11T07:32:00Z</time>
      </trkpt>
      <trkpt lat="48.72932" lon="-3.45314">
        <ele>33.3</ele>
        <time>2013-05-11T07:32:13Z</time>
      </trkpt>
      <trkpt lat="48.7291" lon="-3.45426">
        <ele>29.94</ele>
        <time>2013-05-11T07:32:24Z</time>
      </trkpt>
      <trkpt lat="48.72907" lon="-3.45437">
        <ele>29.94</ele>
        <time>2013-05-11T07:32:25Z</time>
      </trkpt>
      <trkpt lat="48.72895" lon="-3.45506">
        <ele>26.57</ele>
        <time>2013-05-11T07:32:31Z</time>
      </trkpt>
      <trkpt lat="48.72884" lon="-3.45572">
        <ele>22.73</ele>
        <time>2013-05-11T07:32:36Z</time>
      </trkpt>
      <trkpt lat="48.7288" lon="-3.45614">
        <ele>18.4</ele>
        <time>2013-05-11T07:32:39Z</time>
      </trkpt>
      <trkpt lat="48.72874" lon="-3.45651">
        <ele>15.04</ele>
        <time>2013-05-11T07:32:42Z</time>
      </trkpt>
      <trkpt lat="48.72872" lon="-3.45662">
        <ele>12.63</ele>
        <time>2013-05-11T07:32:43Z</time>
      </trkpt>
      <trkpt lat="48.72869" lon="-3.45671">
        <ele>11.67</ele>
        <time>2013-05-11T07:32:44Z</time>
      </trkpt>
      <trkpt lat="48.72863" lon="-3.45677">
        <ele>11.67</ele>
        <time>2013-05-11T07:32:45Z</time>
      </trkpt>
      <trkpt lat="48.72857" lon="-3.45683">
        <ele>11.19</ele>
        <time>2013-05-11T07:32:46Z</time>
      </trkpt>
      <trkpt lat="48.72851" lon="-3.4569">
        <ele>10.23</ele>
        <time>2013-05-11T07:32:47Z</time>
      </trkpt>
      <trkpt lat="48.72844" lon="-3.45697">
        <ele>9.75</ele>
        <time>2013-05-11T07:32:48Z</time>
      </trkpt>
      <trkpt lat="48.72823" lon="-3.45724">
        <ele>7.35</ele>
        <time>2013-05-11T07:32:52Z</time>
      </trkpt>
      <trkpt lat="48.7282" lon="-3.4573">
        <ele>6.87</ele>
        <time>2013-05-11T07:32:53Z</time>
      </trkpt>
      <trkpt lat="48.72818" lon="-3.45736">
        <ele>6.87</ele>
        <time>2013-05-11T07:32:54Z</time>
      </trkpt>
      <trkpt lat="48.7281" lon="-3.45778">
        <ele>6.39</ele>
        <time>2013-05-11T07:33:01Z</time>
      </trkpt>
      <trkpt lat="48.72808" lon="-3.45784">
        <ele>6.87</ele>
        <time>2013-05-11T07:33:02Z</time>
      </trkpt>
      <trkpt lat="48.72806" lon="-3.45791">
        <ele>6.39</ele>
        <time>2013-05-11T07:33:03Z</time>
      </trkpt>
      <trkpt lat="48.72805" lon="-3.45799">
        <ele>6.87</ele>
        <time>2013-05-11T07:33:04Z</time>
      </trkpt>
      <trkpt lat="48.72804" lon="-3.45806">
        <ele>6.87</ele>
        <time>2013-05-11T07:33:05Z</time>
      </trkpt>
      <trkpt lat="48.72777" lon="-3.4591">
        <ele>6.39</ele>
        <time>2013-05-11T07:33:18Z</time>
      </trkpt>
      <trkpt lat="48.72775" lon="-3.45917">
        <ele>6.87</ele>
        <time>2013-05-11T07:33:19Z</time>
      </trkpt>
      <trkpt lat="48.72775" lon="-3.45924">
        <ele>6.87</ele>
        <time>2013-05-11T07:33:20Z</time>
      </trkpt>
      <trkpt lat="48.72774" lon="-3.45932">
        <ele>6.87</ele>
        <time>2013-05-11T07:33:21Z</time>
      </trkpt>
      <trkpt lat="48.72774" lon="-3.4594">
        <ele>6.39</ele>
        <time>2013-05-11T07:33:22Z</time>
      </trkpt>
      <trkpt lat="48.72774" lon="-3.45948">
        <ele>6.87</ele>
        <time>2013-05-11T07:33:23Z</time>
      </trkpt>
      <trkpt lat="48.72781" lon="-3.45979">
        <ele>5.91</ele>
        <time>2013-05-11T07:33:31Z</time>
      </trkpt>
      <trkpt lat="48.72782" lon="-3.45981">
        <ele>5.91</ele>
        <time>2013-05-11T07:33:32Z</time>
      </trkpt>
      <trkpt lat="48.72781" lon="-3.45984">
        <ele>5.42</ele>
        <time>2013-05-11T07:33:33Z</time>
      </trkpt>
      <trkpt lat="48.72779" lon="-3.45987">
        <ele>5.91</ele>
        <time>2013-05-11T07:33:34Z</time>
      </trkpt>
      <trkpt lat="48.72777" lon="-3.45988">
        <ele>5.91</ele>
        <time>2013-05-11T07:33:35Z</time>
      </trkpt>
      <trkpt lat="48.72773" lon="-3.4599">
        <ele>6.39</ele>
        <time>2013-05-11T07:33:36Z</time>
      </trkpt>
      <trkpt lat="48.7277" lon="-3.45991">
        <ele>6.39</ele>
        <time>2013-05-11T07:33:37Z</time>
      </trkpt>
      <trkpt lat="48.72767" lon="-3.45993">
        <ele>6.39</ele>
        <time>2013-05-11T07:33:38Z</time>
      </trkpt>
      <trkpt lat="48.72762" lon="-3.45994">
        <ele>6.39</ele>
        <time>2013-05-11T07:33:39Z</time>
      </trkpt>
      <trkpt lat="48.72752" lon="-3.45997">
        <ele>7.35</ele>
        <time>2013-05-11T07:33:41Z</time>
      </trkpt>
      <trkpt lat="48.7273" lon="-3.45999">
        <ele>6.87</ele>
        <time>2013-05-11T07:33:45Z</time>
      </trkpt>
      <trkpt lat="48.72715" lon="-3.46004">
        <ele>7.35</ele>
        <time>2013-05-11T07:33:48Z</time>
      </trkpt>
      <trkpt lat="48.72656" lon="-3.46018">
        <ele>9.75</ele>
        <time>2013-05-11T07:34:02Z</time>
      </trkpt>
      <trkpt lat="48.72638" lon="-3.46021">
        <ele>10.71</ele>
        <time>2013-05-11T07:34:06Z</time>
      </trkpt>
      <trkpt lat="48.72576" lon="-3.46036">
        <ele>13.6</ele>
        <time>2013-05-11T07:34:21Z</time>
      </trkpt>
      <trkpt lat="48.72533" lon="-3.46043">
        <ele>15.52</ele>
        <time>2013-05-11T07:34:31Z</time>
      </trkpt>
      <trkpt lat="48.72466" lon="-3.46024">
        <ele>17.92</ele>
        <time>2013-05-11T07:34:47Z</time>
      </trkpt>
      <trkpt lat="48.72404" lon="-3.45998">
        <ele>20.32</ele>
        <time>2013-05-11T07:35:02Z</time>
      </trkpt>
      <trkpt lat="48.72339" lon="-3.46011">
        <ele>23.21</ele>
        <time>2013-05-11T07:35:17Z</time>
      </trkpt>
      <trkpt lat="48.7231" lon="-3.46017">
        <ele>24.65</ele>
        <time>2013-05-11T07:35:24Z</time>
      </trkpt>
      <trkpt lat="48.72289" lon="-3.46015">
        <ele>25.13</ele>
        <time>2013-05-11T07:35:29Z</time>
      </trkpt>
      <trkpt lat="48.72225" lon="-3.45988">
        <ele>27.53</ele>
        <time>2013-05-11T07:35:45Z</time>
      </trkpt>
      <trkpt lat="48.72166" lon="-3.45959">
        <ele>29.46</ele>
        <time>2013-05-11T07:36:00Z</time>
      </trkpt>
      <trkpt lat="48.72162" lon="-3.45959">
        <ele>29.94</ele>
        <time>2013-05-11T07:36:01Z</time>
      </trkpt>
      <trkpt lat="48.72157" lon="-3.45959">
        <ele>29.94</ele>
        <time>2013-05-11T07:36:02Z</time>
      </trkpt>
      <trkpt lat="48.72153" lon="-3.45959">
        <ele>30.42</ele>
        <time>2013-05-11T07:36:03Z</time>
      </trkpt>
      <trkpt lat="48.72149" lon="-3.4596">
        <ele>30.9</ele>
        <time>2013-05-11T07:36:04Z</time>
      </trkpt>
      <trkpt lat="48.72145" lon="-3.45961">
        <ele>30.9</ele>
        <time>2013-05-11T07:36:05Z</time>
      </trkpt>
      <trkpt lat="48.72141" lon="-3.45963">
        <ele>30.9</ele>
        <time>2013-05-11T07:36:06Z</time>
      </trkpt>
      <trkpt lat="48.72137" lon="-3.45965">
        <ele>31.38</ele>
        <time>2013-05-11T07:36:07Z</time>
      </trkpt>
      <trkpt lat="48.72075" lon="-3.46009">
        <ele>34.26</ele>
        <time>2013-05-11T07:36:23Z</time>
      </trkpt>
      <trkpt lat="48.72068" lon="-3.46014">
        <ele>34.26</ele>
        <time>2013-05-11T07:36:25Z</time>
      </trkpt>
      <trkpt lat="48.72036" lon="-3.46025">
        <ele>36.19</ele>
        <time>2013-05-11T07:36:33Z</time>
      </trkpt>
      <trkpt lat="48.72032" lon="-3.46026">
        <ele>35.71</ele>
        <time>2013-05-11T07:36:34Z</time>
      </trkpt>
      <trkpt lat="48.72028" lon="-3.46025">
        <ele>35.71</ele>
        <time>2013-05-11T07:36:35Z</time>
      </trkpt>
      <trkpt lat="48.72015" lon="-3.46024">
        <ele>36.19</ele>
        <time>2013-05-11T07:36:38Z</time>
      </trkpt>
      <trkpt lat="48.7197" lon="-3.45992">
        <ele>38.11</ele>
        <time>2013-05-11T07:36:50Z</time>
      </trkpt>
      <trkpt lat="48.71943" lon="-3.45936">
        <ele>39.55</ele>
        <time>2013-05-11T07:37:01Z</time>
      </trkpt>
      <trkpt lat="48.71941" lon="-3.45929">
        <ele>39.55</ele>
        <time>2013-05-11T07:37:02Z</time>
      </trkpt>
      <trkpt lat="48.71926" lon="-3.45856">
        <ele>41.95</ele>
        <time>2013-05-11T07:37:13Z</time>
      </trkpt>
      <trkpt lat="48.71924" lon="-3.45849">
        <ele>41.95</ele>
        <time>2013-05-11T07:37:14Z</time>
      </trkpt>
      <trkpt lat="48.71922" lon="-3.45843">
        <ele>41.95</ele>
        <time>2013-05-11T07:37:15Z</time>
      </trkpt>
      <trkpt lat="48.71917" lon="-3.45831">
        <ele>41.95</ele>
        <time>2013-05-11T07:37:17Z</time>
      </trkpt>
      <trkpt lat="48.71913" lon="-3.45826">
        <ele>41.95</ele>
        <time>2013-05-11T07:37:18Z</time>
      </trkpt>
      <trkpt lat="48.7186" lon="-3.45768">
        <ele>44.84</ele>
        <time>2013-05-11T07:37:33Z</time>
      </trkpt>
      <trkpt lat="48.71806" lon="-3.45716">
        <ele>47.72</ele>
        <time>2013-05-11T07:37:48Z</time>
      </trkpt>
      <trkpt lat="48.71744" lon="-3.45656">
        <ele>50.61</ele>
        <time>2013-05-11T07:38:05Z</time>
      </trkpt>
      <trkpt lat="48.71716" lon="-3.45626">
        <ele>51.57</ele>
        <time>2013-05-11T07:38:13Z</time>
      </trkpt>
      <trkpt lat="48.71694" lon="-3.45594">
        <ele>53.01</ele>
        <time>2013-05-11T07:38:20Z</time>
      </trkpt>
      <trkpt lat="48.7166" lon="-3.45513">
        <ele>55.41</ele>
        <time>2013-05-11T07:38:35Z</time>
      </trkpt>
      <trkpt lat="48.71655" lon="-3.45502">
        <ele>55.89</ele>
        <time>2013-05-11T07:38:37Z</time>
      </trkpt>
      <trkpt lat="48.71653" lon="-3.45496">
        <ele>55.89</ele>
        <time>2013-05-11T07:38:38Z</time>
      </trkpt>
      <trkpt lat="48.71616" lon="-3.45396">
        <ele>57.82</ele>
        <time>2013-05-11T07:38:55Z</time>
      </trkpt>
      <trkpt lat="48.7161" lon="-3.4538">
        <ele>57.82</ele>
        <time>2013-05-11T07:38:58Z</time>
      </trkpt>
      <trkpt lat="48.71607" lon="-3.45375">
        <ele>57.82</ele>
        <time>2013-05-11T07:38:59Z</time>
      </trkpt>
      <trkpt lat="48.71604" lon="-3.4537">
        <ele>58.3</ele>
        <time>2013-05-11T07:39:00Z</time>
      </trkpt>
      <trkpt lat="48.71602" lon="-3.45364">
        <ele>58.3</ele>
        <time>2013-05-11T07:39:01Z</time>
      </trkpt>
      <trkpt lat="48.716" lon="-3.45358">
        <ele>58.78</ele>
        <time>2013-05-11T07:39:02Z</time>
      </trkpt>
      <trkpt lat="48.71586" lon="-3.45315">
        <ele>59.74</ele>
        <time>2013-05-11T07:39:09Z</time>
      </trkpt>
      <trkpt lat="48.71567" lon="-3.4527">
        <ele>60.7</ele>
        <time>2013-05-11T07:39:17Z</time>
      </trkpt>
      <trkpt lat="48.71564" lon="-3.45265">
        <ele>60.7</ele>
        <time>2013-05-11T07:39:18Z</time>
      </trkpt>
      <trkpt lat="48.71561" lon="-3.45261">
        <ele>61.18</ele>
        <time>2013-05-11T07:39:19Z</time>
      </trkpt>
      <trkpt lat="48.71544" lon="-3.45241">
        <ele>63.1</ele>
        <time>2013-05-11T07:39:24Z</time>
      </trkpt>
      <trkpt lat="48.71532" lon="-3.45231">
        <ele>61.66</ele>
        <time>2013-05-11T07:39:27Z</time>
      </trkpt>
      <trkpt lat="48.71528" lon="-3.45228">
        <ele>61.66</ele>
        <time>2013-05-11T07:39:28Z</time>
      </trkpt>
      <trkpt lat="48.7152" lon="-3.45222">
        <ele>61.66</ele>
        <time>2013-05-11T07:39:30Z</time>
      </trkpt>
      <trkpt lat="48.71516" lon="-3.45218">
        <ele>61.18</ele>
        <time>2013-05-11T07:39:31Z</time>
      </trkpt>
      <trkpt lat="48.71512" lon="-3.45215">
        <ele>61.18</ele>
        <time>2013-05-11T07:39:32Z</time>
      </trkpt>
      <trkpt lat="48.71504" lon="-3.45209">
        <ele>61.18</ele>
        <time>2013-05-11T07:39:34Z</time>
      </trkpt>
      <trkpt lat="48.715" lon="-3.45206">
        <ele>61.66</ele>
        <time>2013-05-11T07:39:35Z</time>
      </trkpt>
      <trkpt lat="48.7141" lon="-3.4514">
        <ele>62.14</ele>
        <time>2013-05-11T07:39:54Z</time>
      </trkpt>
      <trkpt lat="48.71316" lon="-3.45085">
        <ele>61.66</ele>
        <time>2013-05-11T07:40:13Z</time>
      </trkpt>
      <trkpt lat="48.71225" lon="-3.4504">
        <ele>62.14</ele>
        <time>2013-05-11T07:40:30Z</time>
      </trkpt>
      <trkpt lat="48.71143" lon="-3.45009">
        <ele>63.1</ele>
        <time>2013-05-11T07:40:45Z</time>
      </trkpt>
      <trkpt lat="48.71074" lon="-3.45004">
        <ele>64.07</ele>
        <time>2013-05-11T07:40:58Z</time>
      </trkpt>
      <trkpt lat="48.71009" lon="-3.45003">
        <ele>65.99</ele>
        <time>2013-05-11T07:41:10Z</time>
      </trkpt>
      <trkpt lat="48.71004" lon="-3.45001">
        <ele>66.95</ele>
        <time>2013-05-11T07:41:11Z</time>
      </trkpt>
      <trkpt lat="48.70999" lon="-3.44998">
        <ele>65.99</ele>
        <time>2013-05-11T07:41:12Z</time>
      </trkpt>
      <trkpt lat="48.70995" lon="-3.44995">
        <ele>65.51</ele>
        <time>2013-05-11T07:41:13Z</time>
      </trkpt>
      <trkpt lat="48.7099" lon="-3.44992">
        <ele>65.03</ele>
        <time>2013-05-11T07:41:14Z</time>
      </trkpt>
      <trkpt lat="48.7092" lon="-3.44939">
        <ele>65.51</ele>
        <time>2013-05-11T07:41:28Z</time>
      </trkpt>
      <trkpt lat="48.70905" lon="-3.44927">
        <ele>65.99</ele>
        <time>2013-05-11T07:41:31Z</time>
      </trkpt>
      <trkpt lat="48.70901" lon="-3.44923">
        <ele>65.99</ele>
        <time>2013-05-11T07:41:32Z</time>
      </trkpt>
      <trkpt lat="48.70811" lon="-3.4486">
        <ele>66.95</ele>
        <time>2013-05-11T07:41:50Z</time>
      </trkpt>
      <trkpt lat="48.70745" lon="-3.44826">
        <ele>70.31</ele>
        <time>2013-05-11T07:42:04Z</time>
      </trkpt>
      <trkpt lat="48.70741" lon="-3.44824">
        <ele>70.31</ele>
        <time>2013-05-11T07:42:05Z</time>
      </trkpt>
      <trkpt lat="48.70737" lon="-3.44822">
        <ele>70.79</ele>
        <time>2013-05-11T07:42:06Z</time>
      </trkpt>
      <trkpt lat="48.7073" lon="-3.44819">
        <ele>71.76</ele>
        <time>2013-05-11T07:42:08Z</time>
      </trkpt>
      <trkpt lat="48.7069" lon="-3.44808">
        <ele>74.64</ele>
        <time>2013-05-11T07:42:17Z</time>
      </trkpt>
      <trkpt lat="48.70677" lon="-3.44807">
        <ele>75.6</ele>
        <time>2013-05-11T07:42:20Z</time>
      </trkpt>
      <trkpt lat="48.70655" lon="-3.44807">
        <ele>78</ele>
        <time>2013-05-11T07:42:25Z</time>
      </trkpt>
      <trkpt lat="48.70651" lon="-3.44809">
        <ele>78.48</ele>
        <time>2013-05-11T07:42:26Z</time>
      </trkpt>
      <trkpt lat="48.70648" lon="-3.44811">
        <ele>79.45</ele>
        <time>2013-05-11T07:42:27Z</time>
      </trkpt>
      <trkpt lat="48.70644" lon="-3.44812">
        <ele>80.41</ele>
        <time>2013-05-11T07:42:28Z</time>
      </trkpt>
      <trkpt lat="48.7064" lon="-3.44813">
        <ele>80.89</ele>
        <time>2013-05-11T07:42:29Z</time>
      </trkpt>
      <trkpt lat="48.70636" lon="-3.44814">
        <ele>81.37</ele>
        <time>2013-05-11T07:42:30Z</time>
      </trkpt>
      <trkpt lat="48.70632" lon="-3.44814">
        <ele>81.37</ele>
        <time>2013-05-11T07:42:31Z</time>
      </trkpt>
      <trkpt lat="48.70628" lon="-3.44815">
        <ele>80.41</ele>
        <time>2013-05-11T07:42:32Z</time>
      </trkpt>
      <trkpt lat="48.7062" lon="-3.44816">
        <ele>79.93</ele>
        <time>2013-05-11T07:42:34Z</time>
      </trkpt>
      <trkpt lat="48.70616" lon="-3.44816">
        <ele>79.45</ele>
        <time>2013-05-11T07:42:35Z</time>
      </trkpt>
      <trkpt lat="48.70612" lon="-3.44816">
        <ele>79.93</ele>
        <time>2013-05-11T07:42:36Z</time>
      </trkpt>
      <trkpt lat="48.70537" lon="-3.44826">
        <ele>80.89</ele>
        <time>2013-05-11T07:42:52Z</time>
      </trkpt>
      <trkpt lat="48.7049" lon="-3.44825">
        <ele>80.89</ele>
        <time>2013-05-11T07:43:01Z</time>
      </trkpt>
      <trkpt lat="48.70485" lon="-3.44827">
        <ele>80.41</ele>
        <time>2013-05-11T07:43:02Z</time>
      </trkpt>
      <trkpt lat="48.7048" lon="-3.44829">
        <ele>81.37</ele>
        <time>2013-05-11T07:43:03Z</time>
      </trkpt>
      <trkpt lat="48.70475" lon="-3.4483">
        <ele>80.89</ele>
        <time>2013-05-11T07:43:04Z</time>
      </trkpt>
      <trkpt lat="48.7047" lon="-3.44832">
        <ele>80.89</ele>
        <time>2013-05-11T07:43:05Z</time>
      </trkpt>
      <trkpt lat="48.70437" lon="-3.44846">
        <ele>80.89</ele>
        <time>2013-05-11T07:43:13Z</time>
      </trkpt>
      <trkpt lat="48.70432" lon="-3.44847">
        <ele>80.41</ele>
        <time>2013-05-11T07:43:14Z</time>
      </trkpt>
      <trkpt lat="48.70407" lon="-3.44851">
        <ele>80.89</ele>
        <time>2013-05-11T07:43:18Z</time>
      </trkpt>
      <trkpt lat="48.7039" lon="-3.44855">
        <ele>80.41</ele>
        <time>2013-05-11T07:43:21Z</time>
      </trkpt>
      <trkpt lat="48.70362" lon="-3.44851">
        <ele>79.93</ele>
        <time>2013-05-11T07:43:26Z</time>
      </trkpt>
      <trkpt lat="48.70312" lon="-3.44831">
        <ele>79.93</ele>
        <time>2013-05-11T07:43:35Z</time>
      </trkpt>
      <trkpt lat="48.70238" lon="-3.44822">
        <ele>79.45</ele>
        <time>2013-05-11T07:43:48Z</time>
      </trkpt>
      <trkpt lat="48.70211" lon="-3.44821">
        <ele>80.89</ele>
        <time>2013-05-11T07:43:53Z</time>
      </trkpt>
      <trkpt lat="48.70132" lon="-3.44817">
        <ele>80.41</ele>
        <time>2013-05-11T07:44:07Z</time>
      </trkpt>
      <trkpt lat="48.70045" lon="-3.448">
        <ele>79.93</ele>
        <time>2013-05-11T07:44:22Z</time>
      </trkpt>
      <trkpt lat="48.69964" lon="-3.44791">
        <ele>81.85</ele>
        <time>2013-05-11T07:44:37Z</time>
      </trkpt>
      <trkpt lat="48.69873" lon="-3.44769">
        <ele>82.81</ele>
        <time>2013-05-11T07:44:54Z</time>
      </trkpt>
      <trkpt lat="48.69782" lon="-3.44745">
        <ele>85.69</ele>
        <time>2013-05-11T07:45:11Z</time>
      </trkpt>
      <trkpt lat="48.69696" lon="-3.44708">
        <ele>86.18</ele>
        <time>2013-05-11T07:45:28Z</time>
      </trkpt>
      <trkpt lat="48.69609" lon="-3.44655">
        <ele>87.62</ele>
        <time>2013-05-11T07:45:46Z</time>
      </trkpt>
      <trkpt lat="48.69563" lon="-3.44624">
        <ele>89.06</ele>
        <time>2013-05-11T07:45:56Z</time>
      </trkpt>
      <trkpt lat="48.69497" lon="-3.44567">
        <ele>91.94</ele>
        <time>2013-05-11T07:46:11Z</time>
      </trkpt>
      <trkpt lat="48.69424" lon="-3.44522">
        <ele>94.83</ele>
        <time>2013-05-11T07:46:27Z</time>
      </trkpt>
      <trkpt lat="48.69337" lon="-3.44486">
        <ele>95.79</ele>
        <time>2013-05-11T07:46:43Z</time>
      </trkpt>
      <trkpt lat="48.69247" lon="-3.44484">
        <ele>94.83</ele>
        <time>2013-05-11T07:46:57Z</time>
      </trkpt>
      <trkpt lat="48.69136" lon="-3.44519">
        <ele>94.83</ele>
        <time>2013-05-11T07:47:15Z</time>
      </trkpt>
      <trkpt lat="48.69043" lon="-3.44545">
        <ele>93.87</ele>
        <time>2013-05-11T07:47:29Z</time>
      </trkpt>
      <trkpt lat="48.68967" lon="-3.44558">
        <ele>91.94</ele>
        <time>2013-05-11T07:47:39Z</time>
      </trkpt>
      <trkpt lat="48.68959" lon="-3.44559">
        <ele>91.94</ele>
        <time>2013-05-11T07:47:40Z</time>
      </trkpt>
      <trkpt lat="48.68951" lon="-3.4456">
        <ele>91.94</ele>
        <time>2013-05-11T07:47:41Z</time>
      </trkpt>
      <trkpt lat="48.68914" lon="-3.44569">
        <ele>90.02</ele>
        <time>2013-05-11T07:47:46Z</time>
      </trkpt>
      <trkpt lat="48.68789" lon="-3.4459">
        <ele>90.02</ele>
        <time>2013-05-11T07:48:03Z</time>
      </trkpt>
      <trkpt lat="48.6869" lon="-3.44573">
        <ele>90.02</ele>
        <time>2013-05-11T07:48:17Z</time>
      </trkpt>
      <trkpt lat="48.68584" lon="-3.44542">
        <ele>90.02</ele>
        <time>2013-05-11T07:48:33Z</time>
      </trkpt>
      <trkpt lat="48.68494" lon="-3.4452">
        <ele>91.46</ele>
        <time>2013-05-11T07:48:47Z</time>
      </trkpt>
      <trkpt lat="48.68367" lon="-3.44504">
        <ele>91.94</ele>
        <time>2013-05-11T07:49:07Z</time>
      </trkpt>
      <trkpt lat="48.68254" lon="-3.44468">
        <ele>91.46</ele>
        <time>2013-05-11T07:49:25Z</time>
      </trkpt>
      <trkpt lat="48.68144" lon="-3.44435">
        <ele>90.98</ele>
        <time>2013-05-11T07:49:43Z</time>
      </trkpt>
      <trkpt lat="48.68056" lon="-3.44414">
        <ele>91.94</ele>
        <time>2013-05-11T07:49:58Z</time>
      </trkpt>
      <trkpt lat="48.68028" lon="-3.44404">
        <ele>91.94</ele>
        <time>2013-05-11T07:50:05Z</time>
      </trkpt>
      <trkpt lat="48.68019" lon="-3.444">
        <ele>91.94</ele>
        <time>2013-05-11T07:50:07Z</time>
      </trkpt>
      <trkpt lat="48.67962" lon="-3.44385">
        <ele>93.39</ele>
        <time>2013-05-11T07:50:18Z</time>
      </trkpt>
      <trkpt lat="48.67903" lon="-3.44379">
        <ele>94.35</ele>
        <time>2013-05-11T07:50:28Z</time>
      </trkpt>
      <trkpt lat="48.67811" lon="-3.44408">
        <ele>94.35</ele>
        <time>2013-05-11T07:50:43Z</time>
      </trkpt>
      <trkpt lat="48.67792" lon="-3.44418">
        <ele>94.35</ele>
        <time>2013-05-11T07:50:46Z</time>
      </trkpt>
      <trkpt lat="48.67715" lon="-3.4447">
        <ele>95.31</ele>
        <time>2013-05-11T07:51:00Z</time>
      </trkpt>
      <trkpt lat="48.6762" lon="-3.44506">
        <ele>96.75</ele>
        <time>2013-05-11T07:51:16Z</time>
      </trkpt>
      <trkpt lat="48.67528" lon="-3.44513">
        <ele>95.79</ele>
        <time>2013-05-11T07:51:30Z</time>
      </trkpt>
      <trkpt lat="48.67451" lon="-3.44508">
        <ele>95.31</ele>
        <time>2013-05-11T07:51:42Z</time>
      </trkpt>
      <trkpt lat="48.67363" lon="-3.44486">
        <ele>95.31</ele>
        <time>2013-05-11T07:51:56Z</time>
      </trkpt>
      <trkpt lat="48.67263" lon="-3.44456">
        <ele>94.35</ele>
        <time>2013-05-11T07:52:12Z</time>
      </trkpt>
      <trkpt lat="48.67154" lon="-3.44444">
        <ele>93.87</ele>
        <time>2013-05-11T07:52:27Z</time>
      </trkpt>
      <trkpt lat="48.67057" lon="-3.44459">
        <ele>95.79</ele>
        <time>2013-05-11T07:52:41Z</time>
      </trkpt>
      <trkpt lat="48.66947" lon="-3.44483">
        <ele>96.27</ele>
        <time>2013-05-11T07:52:59Z</time>
      </trkpt>
      <trkpt lat="48.66844" lon="-3.44474">
        <ele>98.19</ele>
        <time>2013-05-11T07:53:16Z</time>
      </trkpt>
      <trkpt lat="48.66731" lon="-3.44461">
        <ele>98.19</ele>
        <time>2013-05-11T07:53:35Z</time>
      </trkpt>
      <trkpt lat="48.66614" lon="-3.44451">
        <ele>99.63</ele>
        <time>2013-05-11T07:53:54Z</time>
      </trkpt>
      <trkpt lat="48.66582" lon="-3.44449">
        <ele>100.11</ele>
        <time>2013-05-11T07:53:59Z</time>
      </trkpt>
      <trkpt lat="48.66476" lon="-3.44453">
        <ele>99.63</ele>
        <time>2013-05-11T07:54:16Z</time>
      </trkpt>
      <trkpt lat="48.66369" lon="-3.44452">
        <ele>99.63</ele>
        <time>2013-05-11T07:54:33Z</time>
      </trkpt>
      <trkpt lat="48.66254" lon="-3.44424">
        <ele>97.23</ele>
        <time>2013-05-11T07:54:50Z</time>
      </trkpt>
      <trkpt lat="48.66116" lon="-3.44391">
        <ele>94.83</ele>
        <time>2013-05-11T07:55:09Z</time>
      </trkpt>
      <trkpt lat="48.66" lon="-3.44363">
        <ele>94.83</ele>
        <time>2013-05-11T07:55:26Z</time>
      </trkpt>
      <trkpt lat="48.65899" lon="-3.44353">
        <ele>96.75</ele>
        <time>2013-05-11T07:55:43Z</time>
      </trkpt>
      <trkpt lat="48.65804" lon="-3.44368">
        <ele>98.19</ele>
        <time>2013-05-11T07:56:00Z</time>
      </trkpt>
      <trkpt lat="48.65703" lon="-3.44406">
        <ele>101.08</ele>
        <time>2013-05-11T07:56:19Z</time>
      </trkpt>
      <trkpt lat="48.65611" lon="-3.44444">
        <ele>102.52</ele>
        <time>2013-05-11T07:56:37Z</time>
      </trkpt>
      <trkpt lat="48.65591" lon="-3.44452">
        <ele>103.48</ele>
        <time>2013-05-11T07:56:41Z</time>
      </trkpt>
      <trkpt lat="48.65587" lon="-3.44455">
        <ele>103.96</ele>
        <time>2013-05-11T07:56:42Z</time>
      </trkpt>
      <trkpt lat="48.65584" lon="-3.4446">
        <ele>104.92</ele>
        <time>2013-05-11T07:56:43Z</time>
      </trkpt>
      <trkpt lat="48.65582" lon="-3.44467">
        <ele>105.4</ele>
        <time>2013-05-11T07:56:44Z</time>
      </trkpt>
      <trkpt lat="48.6558" lon="-3.44475">
        <ele>103.48</ele>
        <time>2013-05-11T07:56:45Z</time>
      </trkpt>
      <trkpt lat="48.6558" lon="-3.44483">
        <ele>103.48</ele>
        <time>2013-05-11T07:56:46Z</time>
      </trkpt>
      <trkpt lat="48.65582" lon="-3.44491">
        <ele>103.48</ele>
        <time>2013-05-11T07:56:47Z</time>
      </trkpt>
      <trkpt lat="48.65584" lon="-3.44498">
        <ele>103.48</ele>
        <time>2013-05-11T07:56:48Z</time>
      </trkpt>
      <trkpt lat="48.65588" lon="-3.44504">
        <ele>103</ele>
        <time>2013-05-11T07:56:49Z</time>
      </trkpt>
      <trkpt lat="48.65593" lon="-3.44507">
        <ele>103.48</ele>
        <time>2013-05-11T07:56:50Z</time>
      </trkpt>
      <trkpt lat="48.65599" lon="-3.44507">
        <ele>102.52</ele>
        <time>2013-05-11T07:56:51Z</time>
      </trkpt>
      <trkpt lat="48.65605" lon="-3.44507">
        <ele>102.52</ele>
        <time>2013-05-11T07:56:52Z</time>
      </trkpt>
      <trkpt lat="48.65702" lon="-3.44491">
        <ele>101.56</ele>
        <time>2013-05-11T07:57:08Z</time>
      </trkpt>
      <trkpt lat="48.65811" lon="-3.44483">
        <ele>100.11</ele>
        <time>2013-05-11T07:57:25Z</time>
      </trkpt>
      <trkpt lat="48.65902" lon="-3.44492">
        <ele>98.67</ele>
        <time>2013-05-11T07:57:39Z</time>
      </trkpt>
      <trkpt lat="48.65908" lon="-3.44492">
        <ele>98.67</ele>
        <time>2013-05-11T07:57:40Z</time>
      </trkpt>
      <trkpt lat="48.65915" lon="-3.44493">
        <ele>98.67</ele>
        <time>2013-05-11T07:57:41Z</time>
      </trkpt>
      <trkpt lat="48.65921" lon="-3.44495">
        <ele>98.67</ele>
        <time>2013-05-11T07:57:42Z</time>
      </trkpt>
      <trkpt lat="48.65927" lon="-3.44499">
        <ele>98.67</ele>
        <time>2013-05-11T07:57:43Z</time>
      </trkpt>
      <trkpt lat="48.65931" lon="-3.44504">
        <ele>98.67</ele>
        <time>2013-05-11T07:57:44Z</time>
      </trkpt>
      <trkpt lat="48.65933" lon="-3.44511">
        <ele>99.15</ele>
        <time>2013-05-11T07:57:45Z</time>
      </trkpt>
      <trkpt lat="48.65934" lon="-3.4452">
        <ele>99.15</ele>
        <time>2013-05-11T07:57:46Z</time>
      </trkpt>
      <trkpt lat="48.65934" lon="-3.44529">
        <ele>99.15</ele>
        <time>2013-05-11T07:57:47Z</time>
      </trkpt>
      <trkpt lat="48.65934" lon="-3.44538">
        <ele>99.15</ele>
        <time>2013-05-11T07:57:48Z</time>
      </trkpt>
      <trkpt lat="48.65934" lon="-3.44546">
        <ele>99.15</ele>
        <time>2013-05-11T07:57:49Z</time>
      </trkpt>
      <trkpt lat="48.65934" lon="-3.44554">
        <ele>99.15</ele>
        <time>2013-05-11T07:57:50Z</time>
      </trkpt>
      <trkpt lat="48.65934" lon="-3.44562">
        <ele>99.15</ele>
        <time>2013-05-11T07:57:51Z</time>
      </trkpt>
      <trkpt lat="48.65934" lon="-3.44571">
        <ele>99.15</ele>
        <time>2013-05-11T07:57:52Z</time>
      </trkpt>
      <trkpt lat="48.65928" lon="-3.4468">
        <ele>99.15</ele>
        <time>2013-05-11T07:58:05Z</time>
      </trkpt>
      <trkpt lat="48.65936" lon="-3.44829">
        <ele>96.75</ele>
        <time>2013-05-11T07:58:21Z</time>
      </trkpt>
      <trkpt lat="48.65929" lon="-3.44959">
        <ele>93.87</ele>
        <time>2013-05-11T07:58:32Z</time>
      </trkpt>
      <trkpt lat="48.6593" lon="-3.45024">
        <ele>92.9</ele>
        <time>2013-05-11T07:58:38Z</time>
      </trkpt>
      <trkpt lat="48.65931" lon="-3.45035">
        <ele>93.39</ele>
        <time>2013-05-11T07:58:39Z</time>
      </trkpt>
      <trkpt lat="48.65934" lon="-3.45045">
        <ele>92.9</ele>
        <time>2013-05-11T07:58:40Z</time>
      </trkpt>
      <trkpt lat="48.65938" lon="-3.45055">
        <ele>92.9</ele>
        <time>2013-05-11T07:58:41Z</time>
      </trkpt>
      <trkpt lat="48.65943" lon="-3.45064">
        <ele>92.9</ele>
        <time>2013-05-11T07:58:42Z</time>
      </trkpt>
      <trkpt lat="48.65948" lon="-3.4507">
        <ele>92.9</ele>
        <time>2013-05-11T07:58:43Z</time>
      </trkpt>
      <trkpt lat="48.65954" lon="-3.45076">
        <ele>93.87</ele>
        <time>2013-05-11T07:58:44Z</time>
      </trkpt>
      <trkpt lat="48.6596" lon="-3.45081">
        <ele>93.39</ele>
        <time>2013-05-11T07:58:45Z</time>
      </trkpt>
      <trkpt lat="48.66047" lon="-3.45128">
        <ele>93.87</ele>
        <time>2013-05-11T07:59:00Z</time>
      </trkpt>
      <trkpt lat="48.66068" lon="-3.45143">
        <ele>92.9</ele>
        <time>2013-05-11T07:59:04Z</time>
      </trkpt>
      <trkpt lat="48.66073" lon="-3.45148">
        <ele>92.9</ele>
        <time>2013-05-11T07:59:05Z</time>
      </trkpt>
      <trkpt lat="48.66138" lon="-3.45229">
        <ele>93.87</ele>
        <time>2013-05-11T07:59:19Z</time>
      </trkpt>
      <trkpt lat="48.66141" lon="-3.45235">
        <ele>93.87</ele>
        <time>2013-05-11T07:59:20Z</time>
      </trkpt>
      <trkpt lat="48.66144" lon="-3.45243">
        <ele>93.87</ele>
        <time>2013-05-11T07:59:21Z</time>
      </trkpt>
      <trkpt lat="48.66146" lon="-3.45251">
        <ele>94.35</ele>
        <time>2013-05-11T07:59:22Z</time>
      </trkpt>
      <trkpt lat="48.66148" lon="-3.4526">
        <ele>94.35</ele>
        <time>2013-05-11T07:59:23Z</time>
      </trkpt>
      <trkpt lat="48.66148" lon="-3.45268">
        <ele>94.35</ele>
        <time>2013-05-11T07:59:24Z</time>
      </trkpt>
      <trkpt lat="48.66149" lon="-3.45276">
        <ele>94.35</ele>
        <time>2013-05-11T07:59:25Z</time>
      </trkpt>
      <trkpt lat="48.66148" lon="-3.45285">
        <ele>94.35</ele>
        <time>2013-05-11T07:59:26Z</time>
      </trkpt>
      <trkpt lat="48.66147" lon="-3.45293">
        <ele>94.83</ele>
        <time>2013-05-11T07:59:27Z</time>
      </trkpt>
      <trkpt lat="48.66144" lon="-3.45307">
        <ele>95.31</ele>
        <time>2013-05-11T07:59:29Z</time>
      </trkpt>
      <trkpt lat="48.66107" lon="-3.4542">
        <ele>97.71</ele>
        <time>2013-05-11T07:59:45Z</time>
      </trkpt>
      <trkpt lat="48.66091" lon="-3.4547">
        <ele>98.67</ele>
        <time>2013-05-11T07:59:52Z</time>
      </trkpt>
      <trkpt lat="48.66067" lon="-3.4551">
        <ele>99.63</ele>
        <time>2013-05-11T07:59:59Z</time>
      </trkpt>
      <trkpt lat="48.66062" lon="-3.45514">
        <ele>99.63</ele>
        <time>2013-05-11T08:00:00Z</time>
      </trkpt>
      <trkpt lat="48.66008" lon="-3.45565">
        <ele>100.6</ele>
        <time>2013-05-11T08:00:12Z</time>
      </trkpt>
      <trkpt lat="48.65997" lon="-3.45581">
        <ele>101.08</ele>
        <time>2013-05-11T08:00:15Z</time>
      </trkpt>
      <trkpt lat="48.65994" lon="-3.45587">
        <ele>101.56</ele>
        <time>2013-05-11T08:00:16Z</time>
      </trkpt>
      <trkpt lat="48.65985" lon="-3.45605">
        <ele>100.6</ele>
        <time>2013-05-11T08:00:19Z</time>
      </trkpt>
      <trkpt lat="48.65941" lon="-3.4571">
        <ele>100.6</ele>
        <time>2013-05-11T08:00:35Z</time>
      </trkpt>
      <trkpt lat="48.65923" lon="-3.45757">
        <ele>100.11</ele>
        <time>2013-05-11T08:00:42Z</time>
      </trkpt>
      <trkpt lat="48.65914" lon="-3.45787">
        <ele>99.63</ele>
        <time>2013-05-11T08:00:46Z</time>
      </trkpt>
      <trkpt lat="48.65913" lon="-3.45903">
        <ele>99.15</ele>
        <time>2013-05-11T08:01:00Z</time>
      </trkpt>
      <trkpt lat="48.65919" lon="-3.45949">
        <ele>97.71</ele>
        <time>2013-05-11T08:01:05Z</time>
      </trkpt>
      <trkpt lat="48.65966" lon="-3.46058">
        <ele>97.23</ele>
        <time>2013-05-11T08:01:18Z</time>
      </trkpt>
      <trkpt lat="48.66037" lon="-3.46154">
        <ele>96.27</ele>
        <time>2013-05-11T08:01:33Z</time>
      </trkpt>
      <trkpt lat="48.66062" lon="-3.46197">
        <ele>98.19</ele>
        <time>2013-05-11T08:01:40Z</time>
      </trkpt>
      <trkpt lat="48.66065" lon="-3.46204">
        <ele>98.19</ele>
        <time>2013-05-11T08:01:41Z</time>
      </trkpt>
      <trkpt lat="48.66121" lon="-3.46339">
        <ele>100.11</ele>
        <time>2013-05-11T08:01:59Z</time>
      </trkpt>
      <trkpt lat="48.66144" lon="-3.46402">
        <ele>100.6</ele>
        <time>2013-05-11T08:02:08Z</time>
      </trkpt>
      <trkpt lat="48.66153" lon="-3.46483">
        <ele>102.04</ele>
        <time>2013-05-11T08:02:19Z</time>
      </trkpt>
      <trkpt lat="48.66156" lon="-3.46581">
        <ele>102.52</ele>
        <time>2013-05-11T08:02:31Z</time>
      </trkpt>
      <trkpt lat="48.66162" lon="-3.46713">
        <ele>103</ele>
        <time>2013-05-11T08:02:45Z</time>
      </trkpt>
      <trkpt lat="48.66166" lon="-3.46848">
        <ele>104.44</ele>
        <time>2013-05-11T08:03:01Z</time>
      </trkpt>
      <trkpt lat="48.66165" lon="-3.47008">
        <ele>106.84</ele>
        <time>2013-05-11T08:03:20Z</time>
      </trkpt>
      <trkpt lat="48.66162" lon="-3.47152">
        <ele>104.92</ele>
        <time>2013-05-11T08:03:36Z</time>
      </trkpt>
      <trkpt lat="48.66158" lon="-3.47304">
        <ele>101.08</ele>
        <time>2013-05-11T08:03:50Z</time>
      </trkpt>
      <trkpt lat="48.66158" lon="-3.47315">
        <ele>101.08</ele>
        <time>2013-05-11T08:03:51Z</time>
      </trkpt>
      <trkpt lat="48.66159" lon="-3.47326">
        <ele>100.6</ele>
        <time>2013-05-11T08:03:52Z</time>
      </trkpt>
      <trkpt lat="48.66166" lon="-3.47372">
        <ele>99.15</ele>
        <time>2013-05-11T08:03:56Z</time>
      </trkpt>
      <trkpt lat="48.66169" lon="-3.47383">
        <ele>99.15</ele>
        <time>2013-05-11T08:03:57Z</time>
      </trkpt>
      <trkpt lat="48.66198" lon="-3.47447">
        <ele>96.27</ele>
        <time>2013-05-11T08:04:03Z</time>
      </trkpt>
      <trkpt lat="48.66222" lon="-3.4749">
        <ele>93.87</ele>
        <time>2013-05-11T08:04:07Z</time>
      </trkpt>
      <trkpt lat="48.66272" lon="-3.47594">
        <ele>93.39</ele>
        <time>2013-05-11T08:04:18Z</time>
      </trkpt>
      <trkpt lat="48.6628" lon="-3.47627">
        <ele>93.87</ele>
        <time>2013-05-11T08:04:23Z</time>
      </trkpt>
      <trkpt lat="48.66285" lon="-3.47657">
        <ele>95.79</ele>
        <time>2013-05-11T08:04:28Z</time>
      </trkpt>
      <trkpt lat="48.66292" lon="-3.47703">
        <ele>96.75</ele>
        <time>2013-05-11T08:04:36Z</time>
      </trkpt>
      <trkpt lat="48.66294" lon="-3.47706">
        <ele>97.23</ele>
        <time>2013-05-11T08:04:37Z</time>
      </trkpt>
      <trkpt lat="48.66296" lon="-3.47708">
        <ele>96.27</ele>
        <time>2013-05-11T08:04:38Z</time>
      </trkpt>
      <trkpt lat="48.66298" lon="-3.47708">
        <ele>95.79</ele>
        <time>2013-05-11T08:04:39Z</time>
      </trkpt>
      <trkpt lat="48.66305" lon="-3.47707">
        <ele>94.83</ele>
        <time>2013-05-11T08:04:49Z</time>
      </trkpt>
      <trkpt lat="48.66304" lon="-3.47707">
        <ele>94.35</ele>
        <time>2013-05-11T08:05:11Z</time>
      </trkpt>
      <trkpt lat="48.66304" lon="-3.47708">
        <ele>93.87</ele>
        <time>2013-05-11T08:05:24Z</time>
      </trkpt>
      <trkpt lat="48.66304" lon="-3.47708">
        <ele>94.35</ele>
        <time>2013-05-11T08:05:53Z</time>
      </trkpt>
      <trkpt lat="48.66304" lon="-3.47707">
        <ele>95.31</ele>
        <time>2013-05-11T08:06:21Z</time>
      </trkpt>
      <trkpt lat="48.66303" lon="-3.47708">
        <ele>95.31</ele>
        <time>2013-05-11T08:06:53Z</time>
      </trkpt>
      <trkpt lat="48.66303" lon="-3.47707">
        <ele>95.31</ele>
        <time>2013-05-11T08:07:22Z</time>
      </trkpt>
      <trkpt lat="48.66303" lon="-3.47707">
        <ele>94.83</ele>
        <time>2013-05-11T08:07:47Z</time>
      </trkpt>
      <trkpt lat="48.66303" lon="-3.47707">
        <ele>95.31</ele>
        <time>2013-05-11T08:08:18Z</time>
      </trkpt>
      <trkpt lat="48.66303" lon="-3.47707">
        <ele>94.83</ele>
        <time>2013-05-11T08:08:51Z</time>
      </trkpt>
      <trkpt lat="48.66303" lon="-3.47707">
        <ele>94.83</ele>
        <time>2013-05-11T08:09:21Z</time>
      </trkpt>
      <trkpt lat="48.66303" lon="-3.47707">
        <ele>95.31</ele>
        <time>2013-05-11T08:09:40Z</time>
      </trkpt>
      <trkpt lat="48.66304" lon="-3.47707">
        <ele>94.83</ele>
        <time>2013-05-11T08:10:03Z</time>
      </trkpt>
      <trkpt lat="48.66304" lon="-3.47708">
        <ele>94.83</ele>
        <time>2013-05-11T08:10:29Z</time>
      </trkpt>
      <trkpt lat="48.66303" lon="-3.47708">
        <ele>95.31</ele>
        <time>2013-05-11T08:10:54Z</time>
      </trkpt>
      <trkpt lat="48.66303" lon="-3.47708">
        <ele>94.83</ele>
        <time>2013-05-11T08:11:12Z</time>
      </trkpt>
      <trkpt lat="48.66303" lon="-3.47706">
        <ele>95.79</ele>
        <time>2013-05-11T08:11:31Z</time>
      </trkpt>
      <trkpt lat="48.66304" lon="-3.47705">
        <ele>95.79</ele>
        <time>2013-05-11T08:11:49Z</time>
      </trkpt>
      <trkpt lat="48.66303" lon="-3.47706">
        <ele>96.27</ele>
        <time>2013-05-11T08:12:15Z</time>
      </trkpt>
      <trkpt lat="48.66303" lon="-3.47707">
        <ele>96.27</ele>
        <time>2013-05-11T08:12:39Z</time>
      </trkpt>
      <trkpt lat="48.66304" lon="-3.47708">
        <ele>96.27</ele>
        <time>2013-05-11T08:12:45Z</time>
      </trkpt>
      <trkpt lat="48.66303" lon="-3.47709">
        <ele>96.27</ele>
        <time>2013-05-11T08:12:46Z</time>
      </trkpt>
      <trkpt lat="48.66302" lon="-3.4771">
        <ele>96.75</ele>
        <time>2013-05-11T08:12:47Z</time>
      </trkpt>
      <trkpt lat="48.663" lon="-3.47713">
        <ele>97.23</ele>
        <time>2013-05-11T08:12:49Z</time>
      </trkpt>
      <trkpt lat="48.663" lon="-3.47736">
        <ele>98.19</ele>
        <time>2013-05-11T08:12:54Z</time>
      </trkpt>
      <trkpt lat="48.66301" lon="-3.47741">
        <ele>98.19</ele>
        <time>2013-05-11T08:12:55Z</time>
      </trkpt>
      <trkpt lat="48.66303" lon="-3.47747">
        <ele>98.67</ele>
        <time>2013-05-11T08:12:56Z</time>
      </trkpt>
      <trkpt lat="48.66305" lon="-3.47753">
        <ele>98.19</ele>
        <time>2013-05-11T08:12:57Z</time>
      </trkpt>
      <trkpt lat="48.66333" lon="-3.47844">
        <ele>101.08</ele>
        <time>2013-05-11T08:13:12Z</time>
      </trkpt>
      <trkpt lat="48.66378" lon="-3.47965">
        <ele>103.48</ele>
        <time>2013-05-11T08:13:32Z</time>
      </trkpt>
      <trkpt lat="48.664" lon="-3.48024">
        <ele>106.36</ele>
        <time>2013-05-11T08:13:42Z</time>
      </trkpt>
      <trkpt lat="48.66441" lon="-3.48135">
        <ele>107.81</ele>
        <time>2013-05-11T08:14:02Z</time>
      </trkpt>
      <trkpt lat="48.66458" lon="-3.48249">
        <ele>109.73</ele>
        <time>2013-05-11T08:14:19Z</time>
      </trkpt>
      <trkpt lat="48.66467" lon="-3.48375">
        <ele>110.69</ele>
        <time>2013-05-11T08:14:37Z</time>
      </trkpt>
      <trkpt lat="48.66489" lon="-3.48513">
        <ele>112.13</ele>
        <time>2013-05-11T08:14:57Z</time>
      </trkpt>
      <trkpt lat="48.66533" lon="-3.48608">
        <ele>113.57</ele>
        <time>2013-05-11T08:15:14Z</time>
      </trkpt>
      <trkpt lat="48.66587" lon="-3.48713">
        <ele>115.5</ele>
        <time>2013-05-11T08:15:34Z</time>
      </trkpt>
      <trkpt lat="48.66632" lon="-3.48812">
        <ele>116.94</ele>
        <time>2013-05-11T08:15:52Z</time>
      </trkpt>
      <trkpt lat="48.66654" lon="-3.48869">
        <ele>118.38</ele>
        <time>2013-05-11T08:16:01Z</time>
      </trkpt>
      <trkpt lat="48.66698" lon="-3.48965">
        <ele>119.34</ele>
        <time>2013-05-11T08:16:17Z</time>
      </trkpt>
      <trkpt lat="48.6674" lon="-3.49029">
        <ele>118.86</ele>
        <time>2013-05-11T08:16:30Z</time>
      </trkpt>
      <trkpt lat="48.66744" lon="-3.49034">
        <ele>119.34</ele>
        <time>2013-05-11T08:16:31Z</time>
      </trkpt>
      <trkpt lat="48.66802" lon="-3.49121">
        <ele>120.78</ele>
        <time>2013-05-11T08:16:47Z</time>
      </trkpt>
      <trkpt lat="48.66862" lon="-3.49208">
        <ele>121.74</ele>
        <time>2013-05-11T08:17:04Z</time>
      </trkpt>
      <trkpt lat="48.66926" lon="-3.49278">
        <ele>123.19</ele>
        <time>2013-05-11T08:17:20Z</time>
      </trkpt>
      <trkpt lat="48.66979" lon="-3.49342">
        <ele>124.63</ele>
        <time>2013-05-11T08:17:34Z</time>
      </trkpt>
      <trkpt lat="48.67018" lon="-3.49442">
        <ele>124.63</ele>
        <time>2013-05-11T08:17:49Z</time>
      </trkpt>
      <trkpt lat="48.67067" lon="-3.4959">
        <ele>121.74</ele>
        <time>2013-05-11T08:18:06Z</time>
      </trkpt>
      <trkpt lat="48.67107" lon="-3.49751">
        <ele>118.86</ele>
        <time>2013-05-11T08:18:24Z</time>
      </trkpt>
      <trkpt lat="48.67123" lon="-3.49879">
        <ele>118.38</ele>
        <time>2013-05-11T08:18:38Z</time>
      </trkpt>
      <trkpt lat="48.67134" lon="-3.49959">
        <ele>117.9</ele>
        <time>2013-05-11T08:18:47Z</time>
      </trkpt>
      <trkpt lat="48.67147" lon="-3.50034">
        <ele>117.9</ele>
        <time>2013-05-11T08:18:56Z</time>
      </trkpt>
      <trkpt lat="48.67176" lon="-3.50157">
        <ele>117.9</ele>
        <time>2013-05-11T08:19:11Z</time>
      </trkpt>
      <trkpt lat="48.67216" lon="-3.50311">
        <ele>117.9</ele>
        <time>2013-05-11T08:19:30Z</time>
      </trkpt>
      <trkpt lat="48.67263" lon="-3.50436">
        <ele>116.46</ele>
        <time>2013-05-11T08:19:46Z</time>
      </trkpt>
      <trkpt lat="48.67338" lon="-3.50519">
        <ele>115.01</ele>
        <time>2013-05-11T08:20:01Z</time>
      </trkpt>
      <trkpt lat="48.67343" lon="-3.50525">
        <ele>114.53</ele>
        <time>2013-05-11T08:20:02Z</time>
      </trkpt>
      <trkpt lat="48.67435" lon="-3.50622">
        <ele>112.61</ele>
        <time>2013-05-11T08:20:19Z</time>
      </trkpt>
      <trkpt lat="48.67483" lon="-3.50682">
        <ele>113.09</ele>
        <time>2013-05-11T08:20:29Z</time>
      </trkpt>
      <trkpt lat="48.67488" lon="-3.50687">
        <ele>113.09</ele>
        <time>2013-05-11T08:20:30Z</time>
      </trkpt>
      <trkpt lat="48.67493" lon="-3.50691">
        <ele>112.61</ele>
        <time>2013-05-11T08:20:31Z</time>
      </trkpt>
      <trkpt lat="48.67498" lon="-3.50695">
        <ele>112.61</ele>
        <time>2013-05-11T08:20:32Z</time>
      </trkpt>
      <trkpt lat="48.67503" lon="-3.50699">
        <ele>112.61</ele>
        <time>2013-05-11T08:20:33Z</time>
      </trkpt>
      <trkpt lat="48.67507" lon="-3.50704">
        <ele>112.61</ele>
        <time>2013-05-11T08:20:34Z</time>
      </trkpt>
      <trkpt lat="48.6751" lon="-3.5071">
        <ele>112.61</ele>
        <time>2013-05-11T08:20:35Z</time>
      </trkpt>
      <trkpt lat="48.67512" lon="-3.50717">
        <ele>112.61</ele>
        <time>2013-05-11T08:20:36Z</time>
      </trkpt>
      <trkpt lat="48.67511" lon="-3.50725">
        <ele>112.61</ele>
        <time>2013-05-11T08:20:37Z</time>
      </trkpt>
      <trkpt lat="48.67508" lon="-3.5073">
        <ele>112.13</ele>
        <time>2013-05-11T08:20:38Z</time>
      </trkpt>
      <trkpt lat="48.67502" lon="-3.50733">
        <ele>112.13</ele>
        <time>2013-05-11T08:20:39Z</time>
      </trkpt>
      <trkpt lat="48.67496" lon="-3.50732">
        <ele>112.13</ele>
        <time>2013-05-11T08:20:40Z</time>
      </trkpt>
      <trkpt lat="48.6749" lon="-3.5073">
        <ele>112.13</ele>
        <time>2013-05-11T08:20:41Z</time>
      </trkpt>
      <trkpt lat="48.67484" lon="-3.50728">
        <ele>111.65</ele>
        <time>2013-05-11T08:20:42Z</time>
      </trkpt>
      <trkpt lat="48.67478" lon="-3.50725">
        <ele>111.65</ele>
        <time>2013-05-11T08:20:43Z</time>
      </trkpt>
      <trkpt lat="48.67472" lon="-3.50724">
        <ele>112.13</ele>
        <time>2013-05-11T08:20:44Z</time>
      </trkpt>
      <trkpt lat="48.67459" lon="-3.50724">
        <ele>112.13</ele>
        <time>2013-05-11T08:20:46Z</time>
      </trkpt>
      <trkpt lat="48.67383" lon="-3.50728">
        <ele>112.61</ele>
        <time>2013-05-11T08:20:59Z</time>
      </trkpt>
      <trkpt lat="48.67377" lon="-3.50728">
        <ele>113.09</ele>
        <time>2013-05-11T08:21:00Z</time>
      </trkpt>
      <trkpt lat="48.67272" lon="-3.50724">
        <ele>113.09</ele>
        <time>2013-05-11T08:21:18Z</time>
      </trkpt>
      <trkpt lat="48.67182" lon="-3.50729">
        <ele>113.09</ele>
        <time>2013-05-11T08:21:33Z</time>
      </trkpt>
      <trkpt lat="48.67081" lon="-3.50746">
        <ele>112.61</ele>
        <time>2013-05-11T08:21:49Z</time>
      </trkpt>
      <trkpt lat="48.66959" lon="-3.50809">
        <ele>112.61</ele>
        <time>2013-05-11T08:22:09Z</time>
      </trkpt>
      <trkpt lat="48.66856" lon="-3.50893">
        <ele>110.21</ele>
        <time>2013-05-11T08:22:27Z</time>
      </trkpt>
      <trkpt lat="48.66761" lon="-3.51009">
        <ele>108.29</ele>
        <time>2013-05-11T08:22:45Z</time>
      </trkpt>
      <trkpt lat="48.66688" lon="-3.51121">
        <ele>106.36</ele>
        <time>2013-05-11T08:23:00Z</time>
      </trkpt>
      <trkpt lat="48.66617" lon="-3.51165">
        <ele>104.44</ele>
        <time>2013-05-11T08:23:10Z</time>
      </trkpt>
      <trkpt lat="48.66611" lon="-3.5117">
        <ele>104.44</ele>
        <time>2013-05-11T08:23:11Z</time>
      </trkpt>
      <trkpt lat="48.66607" lon="-3.51177">
        <ele>104.44</ele>
        <time>2013-05-11T08:23:12Z</time>
      </trkpt>
      <trkpt lat="48.66603" lon="-3.51186">
        <ele>104.92</ele>
        <time>2013-05-11T08:23:13Z</time>
      </trkpt>
      <trkpt lat="48.666" lon="-3.51195">
        <ele>104.44</ele>
        <time>2013-05-11T08:23:14Z</time>
      </trkpt>
      <trkpt lat="48.66557" lon="-3.51323">
        <ele>105.4</ele>
        <time>2013-05-11T08:23:30Z</time>
      </trkpt>
      <trkpt lat="48.66514" lon="-3.51453">
        <ele>104.44</ele>
        <time>2013-05-11T08:23:46Z</time>
      </trkpt>
      <trkpt lat="48.66458" lon="-3.51604">
        <ele>103.96</ele>
        <time>2013-05-11T08:24:05Z</time>
      </trkpt>
      <trkpt lat="48.66399" lon="-3.51695">
        <ele>101.08</ele>
        <time>2013-05-11T08:24:18Z</time>
      </trkpt>
      <trkpt lat="48.66348" lon="-3.51744">
        <ele>99.63</ele>
        <time>2013-05-11T08:24:26Z</time>
      </trkpt>
      <trkpt lat="48.66272" lon="-3.51789">
        <ele>102.52</ele>
        <time>2013-05-11T08:24:40Z</time>
      </trkpt>
      <trkpt lat="48.66252" lon="-3.51798">
        <ele>103</ele>
        <time>2013-05-11T08:24:44Z</time>
      </trkpt>
      <trkpt lat="48.66247" lon="-3.51801">
        <ele>103</ele>
        <time>2013-05-11T08:24:45Z</time>
      </trkpt>
      <trkpt lat="48.66162" lon="-3.51846">
        <ele>105.4</ele>
        <time>2013-05-11T08:25:02Z</time>
      </trkpt>
      <trkpt lat="48.6607" lon="-3.51895">
        <ele>106.36</ele>
        <time>2013-05-11T08:25:20Z</time>
      </trkpt>
      <trkpt lat="48.65981" lon="-3.51927">
        <ele>109.25</ele>
        <time>2013-05-11T08:25:37Z</time>
      </trkpt>
      <trkpt lat="48.65876" lon="-3.51941">
        <ele>109.73</ele>
        <time>2013-05-11T08:25:56Z</time>
      </trkpt>
      <trkpt lat="48.65782" lon="-3.51947">
        <ele>111.65</ele>
        <time>2013-05-11T08:26:13Z</time>
      </trkpt>
      <trkpt lat="48.65693" lon="-3.51992">
        <ele>112.61</ele>
        <time>2013-05-11T08:26:30Z</time>
      </trkpt>
      <trkpt lat="48.65595" lon="-3.52062">
        <ele>112.61</ele>
        <time>2013-05-11T08:26:49Z</time>
      </trkpt>
      <trkpt lat="48.65502" lon="-3.52112">
        <ele>112.61</ele>
        <time>2013-05-11T08:27:06Z</time>
      </trkpt>
      <trkpt lat="48.65398" lon="-3.52166">
        <ele>113.09</ele>
        <time>2013-05-11T08:27:25Z</time>
      </trkpt>
      <trkpt lat="48.65306" lon="-3.522">
        <ele>112.61</ele>
        <time>2013-05-11T08:27:40Z</time>
      </trkpt>
      <trkpt lat="48.65225" lon="-3.52223">
        <ele>111.65</ele>
        <time>2013-05-11T08:27:53Z</time>
      </trkpt>
      <trkpt lat="48.6517" lon="-3.52251">
        <ele>111.17</ele>
        <time>2013-05-11T08:28:02Z</time>
      </trkpt>
      <trkpt lat="48.65092" lon="-3.52334">
        <ele>112.61</ele>
        <time>2013-05-11T08:28:18Z</time>
      </trkpt>
      <trkpt lat="48.65008" lon="-3.52425">
        <ele>112.13</ele>
        <time>2013-05-11T08:28:36Z</time>
      </trkpt>
      <trkpt lat="48.64973" lon="-3.52444">
        <ele>111.65</ele>
        <time>2013-05-11T08:28:42Z</time>
      </trkpt>
      <trkpt lat="48.64892" lon="-3.52448">
        <ele>111.17</ele>
        <time>2013-05-11T08:28:55Z</time>
      </trkpt>
      <trkpt lat="48.64886" lon="-3.52446">
        <ele>111.17</ele>
        <time>2013-05-11T08:28:56Z</time>
      </trkpt>
      <trkpt lat="48.64852" lon="-3.5243">
        <ele>111.17</ele>
        <time>2013-05-11T08:29:02Z</time>
      </trkpt>
      <trkpt lat="48.64758" lon="-3.52394">
        <ele>111.65</ele>
        <time>2013-05-11T08:29:18Z</time>
      </trkpt>
      <trkpt lat="48.64654" lon="-3.52383">
        <ele>109.73</ele>
        <time>2013-05-11T08:29:33Z</time>
      </trkpt>
      <trkpt lat="48.64577" lon="-3.5234">
        <ele>111.65</ele>
        <time>2013-05-11T08:29:46Z</time>
      </trkpt>
      <trkpt lat="48.64482" lon="-3.5228">
        <ele>115.01</ele>
        <time>2013-05-11T08:30:04Z</time>
      </trkpt>
      <trkpt lat="48.64396" lon="-3.52215">
        <ele>117.42</ele>
        <time>2013-05-11T08:30:21Z</time>
      </trkpt>
      <trkpt lat="48.6432" lon="-3.52159">
        <ele>120.78</ele>
        <time>2013-05-11T08:30:36Z</time>
      </trkpt>
      <trkpt lat="48.64297" lon="-3.52141">
        <ele>122.71</ele>
        <time>2013-05-11T08:30:41Z</time>
      </trkpt>
      <trkpt lat="48.64232" lon="-3.52101">
        <ele>125.11</ele>
        <time>2013-05-11T08:30:55Z</time>
      </trkpt>
      <trkpt lat="48.64163" lon="-3.52084">
        <ele>122.71</ele>
        <time>2013-05-11T08:31:06Z</time>
      </trkpt>
      <trkpt lat="48.64079" lon="-3.52078">
        <ele>119.34</ele>
        <time>2013-05-11T08:31:17Z</time>
      </trkpt>
      <trkpt lat="48.6407" lon="-3.52077">
        <ele>119.34</ele>
        <time>2013-05-11T08:31:18Z</time>
      </trkpt>
      <trkpt lat="48.63999" lon="-3.52076">
        <ele>115.98</ele>
        <time>2013-05-11T08:31:26Z</time>
      </trkpt>
      <trkpt lat="48.63911" lon="-3.52058">
        <ele>112.61</ele>
        <time>2013-05-11T08:31:37Z</time>
      </trkpt>
      <trkpt lat="48.63795" lon="-3.52036">
        <ele>111.65</ele>
        <time>2013-05-11T08:31:53Z</time>
      </trkpt>
      <trkpt lat="48.63749" lon="-3.52036">
        <ele>108.29</ele>
        <time>2013-05-11T08:31:58Z</time>
      </trkpt>
      <trkpt lat="48.63739" lon="-3.52039">
        <ele>107.81</ele>
        <time>2013-05-11T08:31:59Z</time>
      </trkpt>
      <trkpt lat="48.63729" lon="-3.52043">
        <ele>108.29</ele>
        <time>2013-05-11T08:32:00Z</time>
      </trkpt>
      <trkpt lat="48.63695" lon="-3.52067">
        <ele>105.4</ele>
        <time>2013-05-11T08:32:04Z</time>
      </trkpt>
      <trkpt lat="48.63635" lon="-3.52114">
        <ele>106.84</ele>
        <time>2013-05-11T08:32:14Z</time>
      </trkpt>
      <trkpt lat="48.63564" lon="-3.52177">
        <ele>110.21</ele>
        <time>2013-05-11T08:32:29Z</time>
      </trkpt>
      <trkpt lat="48.63463" lon="-3.52231">
        <ele>112.61</ele>
        <time>2013-05-11T08:32:48Z</time>
      </trkpt>
      <trkpt lat="48.63433" lon="-3.52258">
        <ele>112.13</ele>
        <time>2013-05-11T08:32:54Z</time>
      </trkpt>
      <trkpt lat="48.63429" lon="-3.52264">
        <ele>111.65</ele>
        <time>2013-05-11T08:32:55Z</time>
      </trkpt>
      <trkpt lat="48.63422" lon="-3.52278">
        <ele>111.65</ele>
        <time>2013-05-11T08:32:57Z</time>
      </trkpt>
      <trkpt lat="48.63419" lon="-3.52285">
        <ele>112.13</ele>
        <time>2013-05-11T08:32:58Z</time>
      </trkpt>
      <trkpt lat="48.63393" lon="-3.5241">
        <ele>113.09</ele>
        <time>2013-05-11T08:33:13Z</time>
      </trkpt>
      <trkpt lat="48.63368" lon="-3.52568">
        <ele>111.17</ele>
        <time>2013-05-11T08:33:31Z</time>
      </trkpt>
      <trkpt lat="48.6336" lon="-3.52665">
        <ele>108.77</ele>
        <time>2013-05-11T08:33:40Z</time>
      </trkpt>
      <trkpt lat="48.63348" lon="-3.52744">
        <ele>105.4</ele>
        <time>2013-05-11T08:33:47Z</time>
      </trkpt>
      <trkpt lat="48.63316" lon="-3.52844">
        <ele>102.04</ele>
        <time>2013-05-11T08:33:56Z</time>
      </trkpt>
      <trkpt lat="48.63279" lon="-3.52934">
        <ele>99.15</ele>
        <time>2013-05-11T08:34:05Z</time>
      </trkpt>
      <trkpt lat="48.63274" lon="-3.52942">
        <ele>99.15</ele>
        <time>2013-05-11T08:34:06Z</time>
      </trkpt>
      <trkpt lat="48.63238" lon="-3.5298">
        <ele>97.71</ele>
        <time>2013-05-11T08:34:12Z</time>
      </trkpt>
      <trkpt lat="48.63231" lon="-3.52983">
        <ele>97.71</ele>
        <time>2013-05-11T08:34:13Z</time>
      </trkpt>
      <trkpt lat="48.63223" lon="-3.52985">
        <ele>97.71</ele>
        <time>2013-05-11T08:34:14Z</time>
      </trkpt>
      <trkpt lat="48.63215" lon="-3.52985">
        <ele>97.23</ele>
        <time>2013-05-11T08:34:15Z</time>
      </trkpt>
      <trkpt lat="48.63207" lon="-3.52983">
        <ele>97.23</ele>
        <time>2013-05-11T08:34:16Z</time>
      </trkpt>
      <trkpt lat="48.63199" lon="-3.52981">
        <ele>97.23</ele>
        <time>2013-05-11T08:34:17Z</time>
      </trkpt>
      <trkpt lat="48.63191" lon="-3.52979">
        <ele>97.23</ele>
        <time>2013-05-11T08:34:18Z</time>
      </trkpt>
      <trkpt lat="48.63183" lon="-3.52975">
        <ele>97.23</ele>
        <time>2013-05-11T08:34:19Z</time>
      </trkpt>
      <trkpt lat="48.63126" lon="-3.52956">
        <ele>94.35</ele>
        <time>2013-05-11T08:34:26Z</time>
      </trkpt>
      <trkpt lat="48.63064" lon="-3.52961">
        <ele>90.5</ele>
        <time>2013-05-11T08:34:33Z</time>
      </trkpt>
      <trkpt lat="48.63014" lon="-3.52948">
        <ele>87.14</ele>
        <time>2013-05-11T08:34:39Z</time>
      </trkpt>
      <trkpt lat="48.62975" lon="-3.5293">
        <ele>84.73</ele>
        <time>2013-05-11T08:34:44Z</time>
      </trkpt>
      <trkpt lat="48.62941" lon="-3.52912">
        <ele>81.85</ele>
        <time>2013-05-11T08:34:49Z</time>
      </trkpt>
      <trkpt lat="48.62935" lon="-3.52909">
        <ele>81.37</ele>
        <time>2013-05-11T08:34:50Z</time>
      </trkpt>
      <trkpt lat="48.62928" lon="-3.52906">
        <ele>80.89</ele>
        <time>2013-05-11T08:34:51Z</time>
      </trkpt>
      <trkpt lat="48.62922" lon="-3.52904">
        <ele>80.41</ele>
        <time>2013-05-11T08:34:52Z</time>
      </trkpt>
      <trkpt lat="48.62916" lon="-3.52903">
        <ele>79.93</ele>
        <time>2013-05-11T08:34:53Z</time>
      </trkpt>
      <trkpt lat="48.62909" lon="-3.52902">
        <ele>80.41</ele>
        <time>2013-05-11T08:34:54Z</time>
      </trkpt>
      <trkpt lat="48.62903" lon="-3.52902">
        <ele>79.93</ele>
        <time>2013-05-11T08:34:55Z</time>
      </trkpt>
      <trkpt lat="48.62896" lon="-3.52903">
        <ele>79.45</ele>
        <time>2013-05-11T08:34:56Z</time>
      </trkpt>
      <trkpt lat="48.62889" lon="-3.52906">
        <ele>78.97</ele>
        <time>2013-05-11T08:34:57Z</time>
      </trkpt>
      <trkpt lat="48.62883" lon="-3.52909">
        <ele>78.48</ele>
        <time>2013-05-11T08:34:58Z</time>
      </trkpt>
      <trkpt lat="48.62877" lon="-3.52913">
        <ele>78.48</ele>
        <time>2013-05-11T08:34:59Z</time>
      </trkpt>
      <trkpt lat="48.62871" lon="-3.52918">
        <ele>78</ele>
        <time>2013-05-11T08:35:00Z</time>
      </trkpt>
      <trkpt lat="48.62867" lon="-3.52924">
        <ele>78</ele>
        <time>2013-05-11T08:35:01Z</time>
      </trkpt>
      <trkpt lat="48.62862" lon="-3.52931">
        <ele>78</ele>
        <time>2013-05-11T08:35:02Z</time>
      </trkpt>
      <trkpt lat="48.62858" lon="-3.52939">
        <ele>78.48</ele>
        <time>2013-05-11T08:35:03Z</time>
      </trkpt>
      <trkpt lat="48.62855" lon="-3.52948">
        <ele>78.48</ele>
        <time>2013-05-11T08:35:04Z</time>
      </trkpt>
      <trkpt lat="48.62852" lon="-3.52957">
        <ele>78.48</ele>
        <time>2013-05-11T08:35:05Z</time>
      </trkpt>
      <trkpt lat="48.62816" lon="-3.53076">
        <ele>80.89</ele>
        <time>2013-05-11T08:35:18Z</time>
      </trkpt>
      <trkpt lat="48.62788" lon="-3.53154">
        <ele>83.77</ele>
        <time>2013-05-11T08:35:29Z</time>
      </trkpt>
      <trkpt lat="48.62785" lon="-3.5316">
        <ele>84.25</ele>
        <time>2013-05-11T08:35:30Z</time>
      </trkpt>
      <trkpt lat="48.62748" lon="-3.53227">
        <ele>87.62</ele>
        <time>2013-05-11T08:35:42Z</time>
      </trkpt>
      <trkpt lat="48.62723" lon="-3.53264">
        <ele>89.54</ele>
        <time>2013-05-11T08:35:50Z</time>
      </trkpt>
      <trkpt lat="48.62695" lon="-3.53294">
        <ele>91.46</ele>
        <time>2013-05-11T08:35:58Z</time>
      </trkpt>
      <trkpt lat="48.62691" lon="-3.53296">
        <ele>91.94</ele>
        <time>2013-05-11T08:35:59Z</time>
      </trkpt>
      <trkpt lat="48.62655" lon="-3.53306">
        <ele>94.35</ele>
        <time>2013-05-11T08:36:08Z</time>
      </trkpt>
      <trkpt lat="48.62646" lon="-3.53304">
        <ele>94.35</ele>
        <time>2013-05-11T08:36:10Z</time>
      </trkpt>
      <trkpt lat="48.62641" lon="-3.53302">
        <ele>94.35</ele>
        <time>2013-05-11T08:36:11Z</time>
      </trkpt>
      <trkpt lat="48.62636" lon="-3.53298">
        <ele>93.87</ele>
        <time>2013-05-11T08:36:12Z</time>
      </trkpt>
      <trkpt lat="48.62631" lon="-3.53294">
        <ele>93.87</ele>
        <time>2013-05-11T08:36:13Z</time>
      </trkpt>
      <trkpt lat="48.62627" lon="-3.53289">
        <ele>94.35</ele>
        <time>2013-05-11T08:36:14Z</time>
      </trkpt>
      <trkpt lat="48.62622" lon="-3.53283">
        <ele>93.87</ele>
        <time>2013-05-11T08:36:15Z</time>
      </trkpt>
      <trkpt lat="48.62617" lon="-3.53277">
        <ele>93.87</ele>
        <time>2013-05-11T08:36:16Z</time>
      </trkpt>
      <trkpt lat="48.62573" lon="-3.53218">
        <ele>92.42</ele>
        <time>2013-05-11T08:36:25Z</time>
      </trkpt>
      <trkpt lat="48.62567" lon="-3.53213">
        <ele>92.42</ele>
        <time>2013-05-11T08:36:26Z</time>
      </trkpt>
      <trkpt lat="48.62561" lon="-3.53209">
        <ele>92.9</ele>
        <time>2013-05-11T08:36:27Z</time>
      </trkpt>
      <trkpt lat="48.62555" lon="-3.53207">
        <ele>92.9</ele>
        <time>2013-05-11T08:36:28Z</time>
      </trkpt>
      <trkpt lat="48.62548" lon="-3.53205">
        <ele>93.39</ele>
        <time>2013-05-11T08:36:29Z</time>
      </trkpt>
      <trkpt lat="48.62541" lon="-3.53204">
        <ele>93.39</ele>
        <time>2013-05-11T08:36:30Z</time>
      </trkpt>
      <trkpt lat="48.62534" lon="-3.53204">
        <ele>93.87</ele>
        <time>2013-05-11T08:36:31Z</time>
      </trkpt>
      <trkpt lat="48.62527" lon="-3.53204">
        <ele>93.87</ele>
        <time>2013-05-11T08:36:32Z</time>
      </trkpt>
      <trkpt lat="48.62486" lon="-3.53211">
        <ele>93.39</ele>
        <time>2013-05-11T08:36:38Z</time>
      </trkpt>
      <trkpt lat="48.62404" lon="-3.53212">
        <ele>95.31</ele>
        <time>2013-05-11T08:36:50Z</time>
      </trkpt>
      <trkpt lat="48.62337" lon="-3.53245">
        <ele>95.79</ele>
        <time>2013-05-11T08:37:00Z</time>
      </trkpt>
      <trkpt lat="48.62315" lon="-3.53261">
        <ele>95.79</ele>
        <time>2013-05-11T08:37:04Z</time>
      </trkpt>
      <trkpt lat="48.62269" lon="-3.53289">
        <ele>99.15</ele>
        <time>2013-05-11T08:37:13Z</time>
      </trkpt>
      <trkpt lat="48.62253" lon="-3.53308">
        <ele>100.11</ele>
        <time>2013-05-11T08:37:17Z</time>
      </trkpt>
      <trkpt lat="48.6225" lon="-3.53313">
        <ele>100.6</ele>
        <time>2013-05-11T08:37:18Z</time>
      </trkpt>
      <trkpt lat="48.62244" lon="-3.53326">
        <ele>101.56</ele>
        <time>2013-05-11T08:37:20Z</time>
      </trkpt>
      <trkpt lat="48.6224" lon="-3.53331">
        <ele>101.56</ele>
        <time>2013-05-11T08:37:21Z</time>
      </trkpt>
      <trkpt lat="48.6223" lon="-3.53346">
        <ele>103</ele>
        <time>2013-05-11T08:37:24Z</time>
      </trkpt>
      <trkpt lat="48.62188" lon="-3.53378">
        <ele>105.88</ele>
        <time>2013-05-11T08:37:34Z</time>
      </trkpt>
      <trkpt lat="48.62178" lon="-3.53391">
        <ele>106.36</ele>
        <time>2013-05-11T08:37:37Z</time>
      </trkpt>
      <trkpt lat="48.62155" lon="-3.53432">
        <ele>107.81</ele>
        <time>2013-05-11T08:37:45Z</time>
      </trkpt>
      <trkpt lat="48.62152" lon="-3.53438">
        <ele>107.81</ele>
        <time>2013-05-11T08:37:46Z</time>
      </trkpt>
      <trkpt lat="48.62148" lon="-3.53445">
        <ele>108.29</ele>
        <time>2013-05-11T08:37:47Z</time>
      </trkpt>
      <trkpt lat="48.62091" lon="-3.53569">
        <ele>109.25</ele>
        <time>2013-05-11T08:38:04Z</time>
      </trkpt>
      <trkpt lat="48.62083" lon="-3.5358">
        <ele>108.77</ele>
        <time>2013-05-11T08:38:06Z</time>
      </trkpt>
      <trkpt lat="48.62068" lon="-3.53602">
        <ele>108.29</ele>
        <time>2013-05-11T08:38:10Z</time>
      </trkpt>
      <trkpt lat="48.62051" lon="-3.53622">
        <ele>107.32</ele>
        <time>2013-05-11T08:38:14Z</time>
      </trkpt>
      <trkpt lat="48.62046" lon="-3.53626">
        <ele>106.84</ele>
        <time>2013-05-11T08:38:15Z</time>
      </trkpt>
      <trkpt lat="48.62021" lon="-3.53638">
        <ele>104.92</ele>
        <time>2013-05-11T08:38:20Z</time>
      </trkpt>
      <trkpt lat="48.62016" lon="-3.53643">
        <ele>105.4</ele>
        <time>2013-05-11T08:38:21Z</time>
      </trkpt>
      <trkpt lat="48.62012" lon="-3.53649">
        <ele>104.44</ele>
        <time>2013-05-11T08:38:22Z</time>
      </trkpt>
      <trkpt lat="48.62009" lon="-3.53657">
        <ele>104.44</ele>
        <time>2013-05-11T08:38:23Z</time>
      </trkpt>
      <trkpt lat="48.62006" lon="-3.53666">
        <ele>103.96</ele>
        <time>2013-05-11T08:38:24Z</time>
      </trkpt>
      <trkpt lat="48.61982" lon="-3.53743">
        <ele>106.36</ele>
        <time>2013-05-11T08:38:33Z</time>
      </trkpt>
      <trkpt lat="48.61973" lon="-3.53787">
        <ele>109.73</ele>
        <time>2013-05-11T08:38:43Z</time>
      </trkpt>
      <trkpt lat="48.61969" lon="-3.53794">
        <ele>109.73</ele>
        <time>2013-05-11T08:38:46Z</time>
      </trkpt>
      <trkpt lat="48.61966" lon="-3.53793">
        <ele>110.21</ele>
        <time>2013-05-11T08:38:47Z</time>
      </trkpt>
      <trkpt lat="48.61941" lon="-3.53809">
        <ele>110.69</ele>
        <time>2013-05-11T08:38:56Z</time>
      </trkpt>
      <trkpt lat="48.6193" lon="-3.53828">
        <ele>111.17</ele>
        <time>2013-05-11T08:39:00Z</time>
      </trkpt>
      <trkpt lat="48.61927" lon="-3.5383">
        <ele>111.17</ele>
        <time>2013-05-11T08:39:01Z</time>
      </trkpt>
      <trkpt lat="48.61922" lon="-3.53831">
        <ele>111.17</ele>
        <time>2013-05-11T08:39:02Z</time>
      </trkpt>
      <trkpt lat="48.61918" lon="-3.5383">
        <ele>111.17</ele>
        <time>2013-05-11T08:39:03Z</time>
      </trkpt>
      <trkpt lat="48.61914" lon="-3.53829">
        <ele>111.17</ele>
        <time>2013-05-11T08:39:04Z</time>
      </trkpt>
      <trkpt lat="48.6191" lon="-3.53828">
        <ele>111.65</ele>
        <time>2013-05-11T08:39:05Z</time>
      </trkpt>
      <trkpt lat="48.61847" lon="-3.53813">
        <ele>111.17</ele>
        <time>2013-05-11T08:39:16Z</time>
      </trkpt>
      <trkpt lat="48.61815" lon="-3.53804">
        <ele>112.13</ele>
        <time>2013-05-11T08:39:22Z</time>
      </trkpt>
      <trkpt lat="48.61809" lon="-3.53801">
        <ele>111.65</ele>
        <time>2013-05-11T08:39:23Z</time>
      </trkpt>
      <trkpt lat="48.61804" lon="-3.53797">
        <ele>111.65</ele>
        <time>2013-05-11T08:39:24Z</time>
      </trkpt>
      <trkpt lat="48.61743" lon="-3.53733">
        <ele>113.09</ele>
        <time>2013-05-11T08:39:35Z</time>
      </trkpt>
      <trkpt lat="48.61665" lon="-3.53686">
        <ele>115.98</ele>
        <time>2013-05-11T08:39:47Z</time>
      </trkpt>
      <trkpt lat="48.61632" lon="-3.53669">
        <ele>117.9</ele>
        <time>2013-05-11T08:39:53Z</time>
      </trkpt>
      <trkpt lat="48.61568" lon="-3.53632">
        <ele>121.26</ele>
        <time>2013-05-11T08:40:06Z</time>
      </trkpt>
      <trkpt lat="48.61558" lon="-3.5363">
        <ele>121.26</ele>
        <time>2013-05-11T08:40:08Z</time>
      </trkpt>
      <trkpt lat="48.61519" lon="-3.53619">
        <ele>124.63</ele>
        <time>2013-05-11T08:40:17Z</time>
      </trkpt>
      <trkpt lat="48.61488" lon="-3.53613">
        <ele>126.55</ele>
        <time>2013-05-11T08:40:24Z</time>
      </trkpt>
      <trkpt lat="48.61482" lon="-3.53613">
        <ele>126.07</ele>
        <time>2013-05-11T08:40:25Z</time>
      </trkpt>
      <trkpt lat="48.61393" lon="-3.53647">
        <ele>129.43</ele>
        <time>2013-05-11T08:40:41Z</time>
      </trkpt>
      <trkpt lat="48.61303" lon="-3.53688">
        <ele>132.8</ele>
        <time>2013-05-11T08:40:56Z</time>
      </trkpt>
      <trkpt lat="48.61259" lon="-3.53708">
        <ele>135.2</ele>
        <time>2013-05-11T08:41:04Z</time>
      </trkpt>
      <trkpt lat="48.61173" lon="-3.53748">
        <ele>137.61</ele>
        <time>2013-05-11T08:41:19Z</time>
      </trkpt>
      <trkpt lat="48.61063" lon="-3.53772">
        <ele>139.53</ele>
        <time>2013-05-11T08:41:35Z</time>
      </trkpt>
      <trkpt lat="48.60972" lon="-3.53772">
        <ele>141.45</ele>
        <time>2013-05-11T08:41:48Z</time>
      </trkpt>
      <trkpt lat="48.60875" lon="-3.53774">
        <ele>143.37</ele>
        <time>2013-05-11T08:42:02Z</time>
      </trkpt>
      <trkpt lat="48.60805" lon="-3.5379">
        <ele>146.74</ele>
        <time>2013-05-11T08:42:13Z</time>
      </trkpt>
      <trkpt lat="48.60793" lon="-3.53795">
        <ele>147.22</ele>
        <time>2013-05-11T08:42:15Z</time>
      </trkpt>
      <trkpt lat="48.60731" lon="-3.53808">
        <ele>150.58</ele>
        <time>2013-05-11T08:42:26Z</time>
      </trkpt>
      <trkpt lat="48.60658" lon="-3.5382">
        <ele>153.47</ele>
        <time>2013-05-11T08:42:39Z</time>
      </trkpt>
      <trkpt lat="48.60647" lon="-3.53822">
        <ele>153.95</ele>
        <time>2013-05-11T08:42:41Z</time>
      </trkpt>
      <trkpt lat="48.60637" lon="-3.53826">
        <ele>154.91</ele>
        <time>2013-05-11T08:42:43Z</time>
      </trkpt>
      <trkpt lat="48.60537" lon="-3.53843">
        <ele>156.83</ele>
        <time>2013-05-11T08:43:00Z</time>
      </trkpt>
      <trkpt lat="48.6044" lon="-3.53862">
        <ele>156.35</ele>
        <time>2013-05-11T08:43:13Z</time>
      </trkpt>
      <trkpt lat="48.60318" lon="-3.53869">
        <ele>154.91</ele>
        <time>2013-05-11T08:43:30Z</time>
      </trkpt>
      <trkpt lat="48.60312" lon="-3.53869">
        <ele>154.91</ele>
        <time>2013-05-11T08:43:31Z</time>
      </trkpt>
      <trkpt lat="48.60186" lon="-3.53856">
        <ele>155.39</ele>
        <time>2013-05-11T08:43:48Z</time>
      </trkpt>
      <trkpt lat="48.60062" lon="-3.53844">
        <ele>156.83</ele>
        <time>2013-05-11T08:44:05Z</time>
      </trkpt>
      <trkpt lat="48.59963" lon="-3.53876">
        <ele>157.79</ele>
        <time>2013-05-11T08:44:19Z</time>
      </trkpt>
      <trkpt lat="48.59882" lon="-3.53963">
        <ele>155.87</ele>
        <time>2013-05-11T08:44:32Z</time>
      </trkpt>
      <trkpt lat="48.59818" lon="-3.54048">
        <ele>152.51</ele>
        <time>2013-05-11T08:44:43Z</time>
      </trkpt>
      <trkpt lat="48.59725" lon="-3.54144">
        <ele>150.1</ele>
        <time>2013-05-11T08:44:58Z</time>
      </trkpt>
      <trkpt lat="48.59625" lon="-3.54236">
        <ele>147.22</ele>
        <time>2013-05-11T08:45:14Z</time>
      </trkpt>
      <trkpt lat="48.5956" lon="-3.54306">
        <ele>144.34</ele>
        <time>2013-05-11T08:45:25Z</time>
      </trkpt>
      <trkpt lat="48.59471" lon="-3.54406">
        <ele>141.45</ele>
        <time>2013-05-11T08:45:41Z</time>
      </trkpt>
      <trkpt lat="48.59404" lon="-3.54503">
        <ele>139.53</ele>
        <time>2013-05-11T08:45:54Z</time>
      </trkpt>
      <trkpt lat="48.59366" lon="-3.54634">
        <ele>138.09</ele>
        <time>2013-05-11T08:46:08Z</time>
      </trkpt>
      <trkpt lat="48.59366" lon="-3.54779">
        <ele>137.61</ele>
        <time>2013-05-11T08:46:21Z</time>
      </trkpt>
      <trkpt lat="48.59362" lon="-3.54866">
        <ele>137.61</ele>
        <time>2013-05-11T08:46:29Z</time>
      </trkpt>
      <trkpt lat="48.5936" lon="-3.54876">
        <ele>138.09</ele>
        <time>2013-05-11T08:46:30Z</time>
      </trkpt>
      <trkpt lat="48.59357" lon="-3.54886">
        <ele>138.09</ele>
        <time>2013-05-11T08:46:31Z</time>
      </trkpt>
      <trkpt lat="48.59354" lon="-3.54895">
        <ele>138.09</ele>
        <time>2013-05-11T08:46:32Z</time>
      </trkpt>
      <trkpt lat="48.59349" lon="-3.54903">
        <ele>138.57</ele>
        <time>2013-05-11T08:46:33Z</time>
      </trkpt>
      <trkpt lat="48.59344" lon="-3.54911">
        <ele>138.57</ele>
        <time>2013-05-11T08:46:34Z</time>
      </trkpt>
      <trkpt lat="48.59339" lon="-3.54917">
        <ele>139.05</ele>
        <time>2013-05-11T08:46:35Z</time>
      </trkpt>
      <trkpt lat="48.59333" lon="-3.54922">
        <ele>138.57</ele>
        <time>2013-05-11T08:46:36Z</time>
      </trkpt>
      <trkpt lat="48.59327" lon="-3.54926">
        <ele>139.05</ele>
        <time>2013-05-11T08:46:37Z</time>
      </trkpt>
      <trkpt lat="48.59321" lon="-3.5493">
        <ele>139.05</ele>
        <time>2013-05-11T08:46:38Z</time>
      </trkpt>
      <trkpt lat="48.59314" lon="-3.54933">
        <ele>139.53</ele>
        <time>2013-05-11T08:46:39Z</time>
      </trkpt>
      <trkpt lat="48.59308" lon="-3.54935">
        <ele>139.53</ele>
        <time>2013-05-11T08:46:40Z</time>
      </trkpt>
      <trkpt lat="48.59247" lon="-3.54958">
        <ele>141.45</ele>
        <time>2013-05-11T08:46:49Z</time>
      </trkpt>
      <trkpt lat="48.5924" lon="-3.54962">
        <ele>141.45</ele>
        <time>2013-05-11T08:46:50Z</time>
      </trkpt>
      <trkpt lat="48.5915" lon="-3.55046">
        <ele>141.93</ele>
        <time>2013-05-11T08:47:04Z</time>
      </trkpt>
      <trkpt lat="48.59082" lon="-3.55124">
        <ele>144.82</ele>
        <time>2013-05-11T08:47:17Z</time>
      </trkpt>
      <trkpt lat="48.59014" lon="-3.55196">
        <ele>148.18</ele>
        <time>2013-05-11T08:47:29Z</time>
      </trkpt>
      <trkpt lat="48.58963" lon="-3.55283">
        <ele>149.14</ele>
        <time>2013-05-11T08:47:41Z</time>
      </trkpt>
      <trkpt lat="48.58886" lon="-3.55445">
        <ele>150.1</ele>
        <time>2013-05-11T08:47:58Z</time>
      </trkpt>
      <trkpt lat="48.58847" lon="-3.55524">
        <ele>151.06</ele>
        <time>2013-05-11T08:48:07Z</time>
      </trkpt>
      <trkpt lat="48.58825" lon="-3.55551">
        <ele>151.54</ele>
        <time>2013-05-11T08:48:11Z</time>
      </trkpt>
      <trkpt lat="48.58732" lon="-3.55639">
        <ele>151.06</ele>
        <time>2013-05-11T08:48:26Z</time>
      </trkpt>
      <trkpt lat="48.58653" lon="-3.5575">
        <ele>151.54</ele>
        <time>2013-05-11T08:48:41Z</time>
      </trkpt>
      <trkpt lat="48.58591" lon="-3.55892">
        <ele>150.58</ele>
        <time>2013-05-11T08:48:57Z</time>
      </trkpt>
      <trkpt lat="48.58517" lon="-3.5607">
        <ele>151.06</ele>
        <time>2013-05-11T08:49:16Z</time>
      </trkpt>
      <trkpt lat="48.58436" lon="-3.5627">
        <ele>152.51</ele>
        <time>2013-05-11T08:49:38Z</time>
      </trkpt>
      <trkpt lat="48.5837" lon="-3.56424">
        <ele>155.39</ele>
        <time>2013-05-11T08:49:56Z</time>
      </trkpt>
      <trkpt lat="48.58323" lon="-3.5654">
        <ele>155.39</ele>
        <time>2013-05-11T08:50:09Z</time>
      </trkpt>
      <trkpt lat="48.58319" lon="-3.56548">
        <ele>155.87</ele>
        <time>2013-05-11T08:50:10Z</time>
      </trkpt>
      <trkpt lat="48.5829" lon="-3.56622">
        <ele>155.87</ele>
        <time>2013-05-11T08:50:22Z</time>
      </trkpt>
      <trkpt lat="48.58284" lon="-3.56643">
        <ele>154.91</ele>
        <time>2013-05-11T08:50:33Z</time>
      </trkpt>
      <trkpt lat="48.58284" lon="-3.56644">
        <ele>155.39</ele>
        <time>2013-05-11T08:50:34Z</time>
      </trkpt>
      <trkpt lat="48.58284" lon="-3.56647">
        <ele>155.39</ele>
        <time>2013-05-11T08:50:35Z</time>
      </trkpt>
      <trkpt lat="48.58284" lon="-3.56649">
        <ele>155.39</ele>
        <time>2013-05-11T08:50:36Z</time>
      </trkpt>
      <trkpt lat="48.58284" lon="-3.56652">
        <ele>155.39</ele>
        <time>2013-05-11T08:50:37Z</time>
      </trkpt>
      <trkpt lat="48.58283" lon="-3.56655">
        <ele>155.87</ele>
        <time>2013-05-11T08:50:38Z</time>
      </trkpt>
      <trkpt lat="48.58282" lon="-3.56659">
        <ele>155.87</ele>
        <time>2013-05-11T08:50:39Z</time>
      </trkpt>
      <trkpt lat="48.5828" lon="-3.56662">
        <ele>155.87</ele>
        <time>2013-05-11T08:50:40Z</time>
      </trkpt>
      <trkpt lat="48.58276" lon="-3.56664">
        <ele>155.87</ele>
        <time>2013-05-11T08:50:41Z</time>
      </trkpt>
      <trkpt lat="48.58272" lon="-3.56665">
        <ele>156.35</ele>
        <time>2013-05-11T08:50:42Z</time>
      </trkpt>
      <trkpt lat="48.58267" lon="-3.56667">
        <ele>156.35</ele>
        <time>2013-05-11T08:50:43Z</time>
      </trkpt>
      <trkpt lat="48.58189" lon="-3.56677">
        <ele>157.31</ele>
        <time>2013-05-11T08:50:57Z</time>
      </trkpt>
      <trkpt lat="48.58161" lon="-3.56689">
        <ele>157.79</ele>
        <time>2013-05-11T08:51:03Z</time>
      </trkpt>
      <trkpt lat="48.58139" lon="-3.56704">
        <ele>159.24</ele>
        <time>2013-05-11T08:51:08Z</time>
      </trkpt>
      <trkpt lat="48.5813" lon="-3.56711">
        <ele>159.72</ele>
        <time>2013-05-11T08:51:10Z</time>
      </trkpt>
      <trkpt lat="48.58126" lon="-3.56713">
        <ele>159.24</ele>
        <time>2013-05-11T08:51:11Z</time>
      </trkpt>
      <trkpt lat="48.58067" lon="-3.56745">
        <ele>161.16</ele>
        <time>2013-05-11T08:51:23Z</time>
      </trkpt>
      <trkpt lat="48.58003" lon="-3.56833">
        <ele>161.64</ele>
        <time>2013-05-11T08:51:39Z</time>
      </trkpt>
      <trkpt lat="48.57936" lon="-3.56913">
        <ele>161.64</ele>
        <time>2013-05-11T08:51:54Z</time>
      </trkpt>
      <trkpt lat="48.57862" lon="-3.56982">
        <ele>161.16</ele>
        <time>2013-05-11T08:52:08Z</time>
      </trkpt>
      <trkpt lat="48.57812" lon="-3.57027">
        <ele>161.64</ele>
        <time>2013-05-11T08:52:17Z</time>
      </trkpt>
      <trkpt lat="48.57741" lon="-3.57096">
        <ele>159.24</ele>
        <time>2013-05-11T08:52:30Z</time>
      </trkpt>
      <trkpt lat="48.57654" lon="-3.57179">
        <ele>158.27</ele>
        <time>2013-05-11T08:52:45Z</time>
      </trkpt>
      <trkpt lat="48.57601" lon="-3.57227">
        <ele>158.75</ele>
        <time>2013-05-11T08:52:54Z</time>
      </trkpt>
      <trkpt lat="48.57535" lon="-3.57282">
        <ele>159.72</ele>
        <time>2013-05-11T08:53:06Z</time>
      </trkpt>
      <trkpt lat="48.57482" lon="-3.57326">
        <ele>162.12</ele>
        <time>2013-05-11T08:53:17Z</time>
      </trkpt>
      <trkpt lat="48.57462" lon="-3.57335">
        <ele>163.08</ele>
        <time>2013-05-11T08:53:21Z</time>
      </trkpt>
      <trkpt lat="48.57458" lon="-3.57336">
        <ele>163.56</ele>
        <time>2013-05-11T08:53:22Z</time>
      </trkpt>
      <trkpt lat="48.57404" lon="-3.57327">
        <ele>165.48</ele>
        <time>2013-05-11T08:53:32Z</time>
      </trkpt>
      <trkpt lat="48.57344" lon="-3.5731">
        <ele>168.37</ele>
        <time>2013-05-11T08:53:44Z</time>
      </trkpt>
      <trkpt lat="48.5732" lon="-3.57304">
        <ele>169.33</ele>
        <time>2013-05-11T08:53:49Z</time>
      </trkpt>
      <trkpt lat="48.57286" lon="-3.5729">
        <ele>171.25</ele>
        <time>2013-05-11T08:53:57Z</time>
      </trkpt>
      <trkpt lat="48.57208" lon="-3.57271">
        <ele>173.66</ele>
        <time>2013-05-11T08:54:12Z</time>
      </trkpt>
      <trkpt lat="48.57142" lon="-3.57238">
        <ele>175.1</ele>
        <time>2013-05-11T08:54:26Z</time>
      </trkpt>
      <trkpt lat="48.57104" lon="-3.57211">
        <ele>175.58</ele>
        <time>2013-05-11T08:54:35Z</time>
      </trkpt>
      <trkpt lat="48.57069" lon="-3.57189">
        <ele>176.06</ele>
        <time>2013-05-11T08:54:42Z</time>
      </trkpt>
      <trkpt lat="48.57064" lon="-3.57186">
        <ele>177.02</ele>
        <time>2013-05-11T08:54:43Z</time>
      </trkpt>
      <trkpt lat="48.57046" lon="-3.57173">
        <ele>176.54</ele>
        <time>2013-05-11T08:54:47Z</time>
      </trkpt>
      <trkpt lat="48.5704" lon="-3.57169">
        <ele>177.5</ele>
        <time>2013-05-11T08:54:48Z</time>
      </trkpt>
      <trkpt lat="48.57029" lon="-3.5716">
        <ele>177.02</ele>
        <time>2013-05-11T08:54:50Z</time>
      </trkpt>
      <trkpt lat="48.56968" lon="-3.5708">
        <ele>176.54</ele>
        <time>2013-05-11T08:55:02Z</time>
      </trkpt>
      <trkpt lat="48.56901" lon="-3.56936">
        <ele>174.62</ele>
        <time>2013-05-11T08:55:18Z</time>
      </trkpt>
      <trkpt lat="48.56827" lon="-3.56858">
        <ele>174.14</ele>
        <time>2013-05-11T08:55:30Z</time>
      </trkpt>
      <trkpt lat="48.56748" lon="-3.56802">
        <ele>174.14</ele>
        <time>2013-05-11T08:55:43Z</time>
      </trkpt>
      <trkpt lat="48.56708" lon="-3.56773">
        <ele>175.1</ele>
        <time>2013-05-11T08:55:51Z</time>
      </trkpt>
      <trkpt lat="48.56663" lon="-3.56742">
        <ele>177.02</ele>
        <time>2013-05-11T08:56:02Z</time>
      </trkpt>
      <trkpt lat="48.56634" lon="-3.56734">
        <ele>178.46</ele>
        <time>2013-05-11T08:56:11Z</time>
      </trkpt>
      <trkpt lat="48.56632" lon="-3.56731">
        <ele>178.46</ele>
        <time>2013-05-11T08:56:12Z</time>
      </trkpt>
      <trkpt lat="48.5663" lon="-3.56726">
        <ele>178.46</ele>
        <time>2013-05-11T08:56:13Z</time>
      </trkpt>
      <trkpt lat="48.56629" lon="-3.5672">
        <ele>178.94</ele>
        <time>2013-05-11T08:56:14Z</time>
      </trkpt>
      <trkpt lat="48.56629" lon="-3.56714">
        <ele>178.94</ele>
        <time>2013-05-11T08:56:15Z</time>
      </trkpt>
      <trkpt lat="48.56629" lon="-3.56707">
        <ele>178.94</ele>
        <time>2013-05-11T08:56:16Z</time>
      </trkpt>
      <trkpt lat="48.56629" lon="-3.56701">
        <ele>179.42</ele>
        <time>2013-05-11T08:56:17Z</time>
      </trkpt>
      <trkpt lat="48.56629" lon="-3.56694">
        <ele>178.94</ele>
        <time>2013-05-11T08:56:18Z</time>
      </trkpt>
      <trkpt lat="48.56629" lon="-3.56687">
        <ele>179.42</ele>
        <time>2013-05-11T08:56:19Z</time>
      </trkpt>
      <trkpt lat="48.56653" lon="-3.56566">
        <ele>179.42</ele>
        <time>2013-05-11T08:56:34Z</time>
      </trkpt>
      <trkpt lat="48.56682" lon="-3.56456">
        <ele>180.38</ele>
        <time>2013-05-11T08:56:47Z</time>
      </trkpt>
      <trkpt lat="48.56685" lon="-3.56447">
        <ele>180.38</ele>
        <time>2013-05-11T08:56:48Z</time>
      </trkpt>
      <trkpt lat="48.56703" lon="-3.56307">
        <ele>180.87</ele>
        <time>2013-05-11T08:57:02Z</time>
      </trkpt>
      <trkpt lat="48.56724" lon="-3.56124">
        <ele>181.35</ele>
        <time>2013-05-11T08:57:20Z</time>
      </trkpt>
      <trkpt lat="48.56735" lon="-3.55965">
        <ele>180.87</ele>
        <time>2013-05-11T08:57:35Z</time>
      </trkpt>
      <trkpt lat="48.56735" lon="-3.55786">
        <ele>180.87</ele>
        <time>2013-05-11T08:57:52Z</time>
      </trkpt>
      <trkpt lat="48.56728" lon="-3.55672">
        <ele>182.31</ele>
        <time>2013-05-11T08:58:04Z</time>
      </trkpt>
      <trkpt lat="48.56719" lon="-3.55545">
        <ele>181.83</ele>
        <time>2013-05-11T08:58:17Z</time>
      </trkpt>
      <trkpt lat="48.5671" lon="-3.55419">
        <ele>182.79</ele>
        <time>2013-05-11T08:58:30Z</time>
      </trkpt>
      <trkpt lat="48.56699" lon="-3.55282">
        <ele>184.23</ele>
        <time>2013-05-11T08:58:45Z</time>
      </trkpt>
      <trkpt lat="48.56679" lon="-3.55124">
        <ele>184.71</ele>
        <time>2013-05-11T08:59:02Z</time>
      </trkpt>
      <trkpt lat="48.56648" lon="-3.54969">
        <ele>185.67</ele>
        <time>2013-05-11T08:59:19Z</time>
      </trkpt>
      <trkpt lat="48.56639" lon="-3.54933">
        <ele>186.15</ele>
        <time>2013-05-11T08:59:23Z</time>
      </trkpt>
      <trkpt lat="48.56605" lon="-3.54797">
        <ele>186.15</ele>
        <time>2013-05-11T08:59:38Z</time>
      </trkpt>
      <trkpt lat="48.56564" lon="-3.54678">
        <ele>188.08</ele>
        <time>2013-05-11T08:59:52Z</time>
      </trkpt>
      <trkpt lat="48.56507" lon="-3.54552">
        <ele>189.04</ele>
        <time>2013-05-11T09:00:08Z</time>
      </trkpt>
      <trkpt lat="48.56458" lon="-3.54459">
        <ele>189.52</ele>
        <time>2013-05-11T09:00:21Z</time>
      </trkpt>
      <trkpt lat="48.56453" lon="-3.54445">
        <ele>190</ele>
        <time>2013-05-11T09:00:23Z</time>
      </trkpt>
      <trkpt lat="48.56451" lon="-3.54438">
        <ele>190</ele>
        <time>2013-05-11T09:00:24Z</time>
      </trkpt>
      <trkpt lat="48.5645" lon="-3.54433">
        <ele>190</ele>
        <time>2013-05-11T09:00:25Z</time>
      </trkpt>
      <trkpt lat="48.56449" lon="-3.5442">
        <ele>190.48</ele>
        <time>2013-05-11T09:00:28Z</time>
      </trkpt>
      <trkpt lat="48.56451" lon="-3.54415">
        <ele>190.48</ele>
        <time>2013-05-11T09:00:29Z</time>
      </trkpt>
      <trkpt lat="48.56455" lon="-3.54412">
        <ele>190.48</ele>
        <time>2013-05-11T09:00:30Z</time>
      </trkpt>
      <trkpt lat="48.5646" lon="-3.5441">
        <ele>190.96</ele>
        <time>2013-05-11T09:00:31Z</time>
      </trkpt>
      <trkpt lat="48.56465" lon="-3.54409">
        <ele>190.96</ele>
        <time>2013-05-11T09:00:32Z</time>
      </trkpt>
      <trkpt lat="48.5647" lon="-3.54407">
        <ele>191.44</ele>
        <time>2013-05-11T09:00:33Z</time>
      </trkpt>
      <trkpt lat="48.56475" lon="-3.54404">
        <ele>191.44</ele>
        <time>2013-05-11T09:00:34Z</time>
      </trkpt>
      <trkpt lat="48.5648" lon="-3.54402">
        <ele>191.44</ele>
        <time>2013-05-11T09:00:35Z</time>
      </trkpt>
      <trkpt lat="48.56484" lon="-3.54399">
        <ele>191.92</ele>
        <time>2013-05-11T09:00:36Z</time>
      </trkpt>
      <trkpt lat="48.5653" lon="-3.54374">
        <ele>193.36</ele>
        <time>2013-05-11T09:00:45Z</time>
      </trkpt>
      <trkpt lat="48.56604" lon="-3.5435">
        <ele>194.32</ele>
        <time>2013-05-11T09:00:58Z</time>
      </trkpt>
      <trkpt lat="48.5661" lon="-3.54348">
        <ele>193.84</ele>
        <time>2013-05-11T09:00:59Z</time>
      </trkpt>
      <trkpt lat="48.56615" lon="-3.54344">
        <ele>193.84</ele>
        <time>2013-05-11T09:01:00Z</time>
      </trkpt>
      <trkpt lat="48.56621" lon="-3.54339">
        <ele>193.36</ele>
        <time>2013-05-11T09:01:01Z</time>
      </trkpt>
      <trkpt lat="48.56625" lon="-3.54332">
        <ele>193.36</ele>
        <time>2013-05-11T09:01:02Z</time>
      </trkpt>
      <trkpt lat="48.56629" lon="-3.54324">
        <ele>192.88</ele>
        <time>2013-05-11T09:01:03Z</time>
      </trkpt>
      <trkpt lat="48.5663" lon="-3.54314">
        <ele>193.36</ele>
        <time>2013-05-11T09:01:04Z</time>
      </trkpt>
      <trkpt lat="48.5663" lon="-3.54305">
        <ele>192.88</ele>
        <time>2013-05-11T09:01:05Z</time>
      </trkpt>
      <trkpt lat="48.56629" lon="-3.54295">
        <ele>193.36</ele>
        <time>2013-05-11T09:01:06Z</time>
      </trkpt>
      <trkpt lat="48.56628" lon="-3.54287">
        <ele>193.36</ele>
        <time>2013-05-11T09:01:07Z</time>
      </trkpt>
      <trkpt lat="48.56621" lon="-3.54172">
        <ele>195.77</ele>
        <time>2013-05-11T09:01:20Z</time>
      </trkpt>
      <trkpt lat="48.5662" lon="-3.54167">
        <ele>196.25</ele>
        <time>2013-05-11T09:01:21Z</time>
      </trkpt>
      <trkpt lat="48.56618" lon="-3.54164">
        <ele>196.73</ele>
        <time>2013-05-11T09:01:22Z</time>
      </trkpt>
      <trkpt lat="48.56616" lon="-3.54159">
        <ele>196.73</ele>
        <time>2013-05-11T09:01:23Z</time>
      </trkpt>
      <trkpt lat="48.56614" lon="-3.54153">
        <ele>197.21</ele>
        <time>2013-05-11T09:01:24Z</time>
      </trkpt>
      <trkpt lat="48.56614" lon="-3.54146">
        <ele>197.69</ele>
        <time>2013-05-11T09:01:25Z</time>
      </trkpt>
      <trkpt lat="48.56613" lon="-3.54138">
        <ele>197.69</ele>
        <time>2013-05-11T09:01:26Z</time>
      </trkpt>
      <trkpt lat="48.56613" lon="-3.5413">
        <ele>198.17</ele>
        <time>2013-05-11T09:01:27Z</time>
      </trkpt>
      <trkpt lat="48.56612" lon="-3.54123">
        <ele>198.65</ele>
        <time>2013-05-11T09:01:28Z</time>
      </trkpt>
      <trkpt lat="48.56609" lon="-3.54094">
        <ele>200.09</ele>
        <time>2013-05-11T09:01:32Z</time>
      </trkpt>
      <trkpt lat="48.56609" lon="-3.54072">
        <ele>201.05</ele>
        <time>2013-05-11T09:01:35Z</time>
      </trkpt>
      <trkpt lat="48.56609" lon="-3.54039">
        <ele>202.49</ele>
        <time>2013-05-11T09:01:39Z</time>
      </trkpt>
      <trkpt lat="48.56608" lon="-3.54015">
        <ele>203.46</ele>
        <time>2013-05-11T09:01:42Z</time>
      </trkpt>
      <trkpt lat="48.56608" lon="-3.54008">
        <ele>203.94</ele>
        <time>2013-05-11T09:01:43Z</time>
      </trkpt>
      <trkpt lat="48.56602" lon="-3.53941">
        <ele>206.34</ele>
        <time>2013-05-11T09:01:52Z</time>
      </trkpt>
      <trkpt lat="48.56592" lon="-3.53842">
        <ele>209.22</ele>
        <time>2013-05-11T09:02:05Z</time>
      </trkpt>
      <trkpt lat="48.56589" lon="-3.53818">
        <ele>209.22</ele>
        <time>2013-05-11T09:02:08Z</time>
      </trkpt>
      <trkpt lat="48.56584" lon="-3.53774">
        <ele>208.74</ele>
        <time>2013-05-11T09:02:13Z</time>
      </trkpt>
      <trkpt lat="48.56583" lon="-3.53765">
        <ele>208.74</ele>
        <time>2013-05-11T09:02:14Z</time>
      </trkpt>
      <trkpt lat="48.56582" lon="-3.53755">
        <ele>208.74</ele>
        <time>2013-05-11T09:02:15Z</time>
      </trkpt>
      <trkpt lat="48.56572" lon="-3.53617">
        <ele>206.82</ele>
        <time>2013-05-11T09:02:27Z</time>
      </trkpt>
      <trkpt lat="48.5656" lon="-3.53493">
        <ele>203.46</ele>
        <time>2013-05-11T09:02:36Z</time>
      </trkpt>
      <trkpt lat="48.56541" lon="-3.53283">
        <ele>202.98</ele>
        <time>2013-05-11T09:02:51Z</time>
      </trkpt>
      <trkpt lat="48.56524" lon="-3.53092">
        <ele>203.46</ele>
        <time>2013-05-11T09:03:06Z</time>
      </trkpt>
      <trkpt lat="48.56498" lon="-3.52877">
        <ele>200.57</ele>
        <time>2013-05-11T09:03:23Z</time>
      </trkpt>
      <trkpt lat="48.56475" lon="-3.52669">
        <ele>197.69</ele>
        <time>2013-05-11T09:03:38Z</time>
      </trkpt>
      <trkpt lat="48.56466" lon="-3.52586">
        <ele>194.32</ele>
        <time>2013-05-11T09:03:43Z</time>
      </trkpt>
      <trkpt lat="48.56457" lon="-3.52516">
        <ele>190.96</ele>
        <time>2013-05-11T09:03:47Z</time>
      </trkpt>
      <trkpt lat="48.56448" lon="-3.52422">
        <ele>187.59</ele>
        <time>2013-05-11T09:03:52Z</time>
      </trkpt>
      <trkpt lat="48.56446" lon="-3.52404">
        <ele>187.59</ele>
        <time>2013-05-11T09:03:53Z</time>
      </trkpt>
      <trkpt lat="48.56429" lon="-3.52257">
        <ele>183.75</ele>
        <time>2013-05-11T09:04:01Z</time>
      </trkpt>
      <trkpt lat="48.56425" lon="-3.52224">
        <ele>182.79</ele>
        <time>2013-05-11T09:04:03Z</time>
      </trkpt>
      <trkpt lat="48.56409" lon="-3.52078">
        <ele>183.75</ele>
        <time>2013-05-11T09:04:12Z</time>
      </trkpt>
      <trkpt lat="48.56389" lon="-3.51878">
        <ele>183.27</ele>
        <time>2013-05-11T09:04:26Z</time>
      </trkpt>
      <trkpt lat="48.56371" lon="-3.5173">
        <ele>182.31</ele>
        <time>2013-05-11T09:04:37Z</time>
      </trkpt>
      <trkpt lat="48.56355" lon="-3.51569">
        <ele>182.79</ele>
        <time>2013-05-11T09:04:50Z</time>
      </trkpt>
      <trkpt lat="48.56333" lon="-3.51376">
        <ele>182.79</ele>
        <time>2013-05-11T09:05:06Z</time>
      </trkpt>
      <trkpt lat="48.56326" lon="-3.51311">
        <ele>181.35</ele>
        <time>2013-05-11T09:05:11Z</time>
      </trkpt>
      <trkpt lat="48.56319" lon="-3.51245">
        <ele>180.87</ele>
        <time>2013-05-11T09:05:16Z</time>
      </trkpt>
      <trkpt lat="48.56318" lon="-3.51233">
        <ele>180.38</ele>
        <time>2013-05-11T09:05:17Z</time>
      </trkpt>
      <trkpt lat="48.56308" lon="-3.51138">
        <ele>178.46</ele>
        <time>2013-05-11T09:05:24Z</time>
      </trkpt>
      <trkpt lat="48.56297" lon="-3.51041">
        <ele>175.1</ele>
        <time>2013-05-11T09:05:31Z</time>
      </trkpt>
      <trkpt lat="48.5628" lon="-3.50869">
        <ele>172.69</ele>
        <time>2013-05-11T09:05:44Z</time>
      </trkpt>
      <trkpt lat="48.56276" lon="-3.50833">
        <ele>173.66</ele>
        <time>2013-05-11T09:05:47Z</time>
      </trkpt>
      <trkpt lat="48.56258" lon="-3.50669">
        <ele>175.58</ele>
        <time>2013-05-11T09:06:01Z</time>
      </trkpt>
      <trkpt lat="48.56256" lon="-3.50611">
        <ele>177.98</ele>
        <time>2013-05-11T09:06:07Z</time>
      </trkpt>
      <trkpt lat="48.5625" lon="-3.50523">
        <ele>180.87</ele>
        <time>2013-05-11T09:06:17Z</time>
      </trkpt>
      <trkpt lat="48.56245" lon="-3.50465">
        <ele>184.23</ele>
        <time>2013-05-11T09:06:24Z</time>
      </trkpt>
      <trkpt lat="48.56244" lon="-3.50457">
        <ele>184.23</ele>
        <time>2013-05-11T09:06:25Z</time>
      </trkpt>
      <trkpt lat="48.56233" lon="-3.50363">
        <ele>187.11</ele>
        <time>2013-05-11T09:06:38Z</time>
      </trkpt>
      <trkpt lat="48.56232" lon="-3.50339">
        <ele>187.59</ele>
        <time>2013-05-11T09:06:41Z</time>
      </trkpt>
      <trkpt lat="48.56227" lon="-3.50287">
        <ele>188.56</ele>
        <time>2013-05-11T09:06:48Z</time>
      </trkpt>
      <trkpt lat="48.56219" lon="-3.50199">
        <ele>190</ele>
        <time>2013-05-11T09:06:59Z</time>
      </trkpt>
      <trkpt lat="48.56207" lon="-3.50084">
        <ele>191.92</ele>
        <time>2013-05-11T09:07:14Z</time>
      </trkpt>
      <trkpt lat="48.56194" lon="-3.49975">
        <ele>193.36</ele>
        <time>2013-05-11T09:07:28Z</time>
      </trkpt>
      <trkpt lat="48.56191" lon="-3.4996">
        <ele>192.88</ele>
        <time>2013-05-11T09:07:30Z</time>
      </trkpt>
      <trkpt lat="48.56184" lon="-3.49932">
        <ele>191.92</ele>
        <time>2013-05-11T09:07:39Z</time>
      </trkpt>
      <trkpt lat="48.56183" lon="-3.49931">
        <ele>191.92</ele>
        <time>2013-05-11T09:07:40Z</time>
      </trkpt>
      <trkpt lat="48.56182" lon="-3.49928">
        <ele>192.4</ele>
        <time>2013-05-11T09:07:41Z</time>
      </trkpt>
      <trkpt lat="48.56181" lon="-3.49925">
        <ele>192.4</ele>
        <time>2013-05-11T09:07:42Z</time>
      </trkpt>
      <trkpt lat="48.56181" lon="-3.4992">
        <ele>192.4</ele>
        <time>2013-05-11T09:07:43Z</time>
      </trkpt>
      <trkpt lat="48.56182" lon="-3.49914">
        <ele>192.4</ele>
        <time>2013-05-11T09:07:44Z</time>
      </trkpt>
      <trkpt lat="48.56182" lon="-3.49907">
        <ele>191.44</ele>
        <time>2013-05-11T09:07:45Z</time>
      </trkpt>
      <trkpt lat="48.56183" lon="-3.49892">
        <ele>191.92</ele>
        <time>2013-05-11T09:07:47Z</time>
      </trkpt>
      <trkpt lat="48.56183" lon="-3.49883">
        <ele>191.44</ele>
        <time>2013-05-11T09:07:48Z</time>
      </trkpt>
      <trkpt lat="48.56182" lon="-3.49874">
        <ele>191.44</ele>
        <time>2013-05-11T09:07:49Z</time>
      </trkpt>
      <trkpt lat="48.56175" lon="-3.49816">
        <ele>188.08</ele>
        <time>2013-05-11T09:07:56Z</time>
      </trkpt>
      <trkpt lat="48.56177" lon="-3.49814">
        <ele>187.11</ele>
        <time>2013-05-11T09:08:07Z</time>
      </trkpt>
      <trkpt lat="48.56177" lon="-3.49811">
        <ele>186.63</ele>
        <time>2013-05-11T09:08:27Z</time>
      </trkpt>
      <trkpt lat="48.56176" lon="-3.49806">
        <ele>187.11</ele>
        <time>2013-05-11T09:08:28Z</time>
      </trkpt>
      <trkpt lat="48.56176" lon="-3.498">
        <ele>186.63</ele>
        <time>2013-05-11T09:08:29Z</time>
      </trkpt>
      <trkpt lat="48.56174" lon="-3.49784">
        <ele>186.63</ele>
        <time>2013-05-11T09:08:31Z</time>
      </trkpt>
      <trkpt lat="48.56172" lon="-3.49775">
        <ele>186.15</ele>
        <time>2013-05-11T09:08:32Z</time>
      </trkpt>
      <trkpt lat="48.56161" lon="-3.49676">
        <ele>182.31</ele>
        <time>2013-05-11T09:08:40Z</time>
      </trkpt>
      <trkpt lat="48.56156" lon="-3.49616">
        <ele>178.94</ele>
        <time>2013-05-11T09:08:44Z</time>
      </trkpt>
      <trkpt lat="48.56145" lon="-3.49523">
        <ele>175.1</ele>
        <time>2013-05-11T09:08:49Z</time>
      </trkpt>
      <trkpt lat="48.56143" lon="-3.49504">
        <ele>175.1</ele>
        <time>2013-05-11T09:08:50Z</time>
      </trkpt>
      <trkpt lat="48.56134" lon="-3.4943">
        <ele>172.21</ele>
        <time>2013-05-11T09:08:54Z</time>
      </trkpt>
      <trkpt lat="48.56131" lon="-3.49395">
        <ele>170.77</ele>
        <time>2013-05-11T09:08:56Z</time>
      </trkpt>
      <trkpt lat="48.56126" lon="-3.49247">
        <ele>168.37</ele>
        <time>2013-05-11T09:09:06Z</time>
      </trkpt>
      <trkpt lat="48.56116" lon="-3.49091">
        <ele>169.33</ele>
        <time>2013-05-11T09:09:18Z</time>
      </trkpt>
      <trkpt lat="48.5611" lon="-3.48995">
        <ele>168.37</ele>
        <time>2013-05-11T09:09:26Z</time>
      </trkpt>
      <trkpt lat="48.56108" lon="-3.48983">
        <ele>168.85</ele>
        <time>2013-05-11T09:09:27Z</time>
      </trkpt>
      <trkpt lat="48.56091" lon="-3.48821">
        <ele>166.93</ele>
        <time>2013-05-11T09:09:40Z</time>
      </trkpt>
      <trkpt lat="48.56073" lon="-3.48638">
        <ele>163.56</ele>
        <time>2013-05-11T09:09:54Z</time>
      </trkpt>
      <trkpt lat="48.56055" lon="-3.48432">
        <ele>161.16</ele>
        <time>2013-05-11T09:10:09Z</time>
      </trkpt>
      <trkpt lat="48.56037" lon="-3.48244">
        <ele>157.31</ele>
        <time>2013-05-11T09:10:23Z</time>
      </trkpt>
      <trkpt lat="48.56024" lon="-3.4811">
        <ele>154.43</ele>
        <time>2013-05-11T09:10:32Z</time>
      </trkpt>
      <trkpt lat="48.5601" lon="-3.47929">
        <ele>152.99</ele>
        <time>2013-05-11T09:10:45Z</time>
      </trkpt>
      <trkpt lat="48.56002" lon="-3.4784">
        <ele>154.91</ele>
        <time>2013-05-11T09:10:53Z</time>
      </trkpt>
      <trkpt lat="48.56002" lon="-3.47821">
        <ele>155.87</ele>
        <time>2013-05-11T09:10:55Z</time>
      </trkpt>
      <trkpt lat="48.56001" lon="-3.47813">
        <ele>155.87</ele>
        <time>2013-05-11T09:10:56Z</time>
      </trkpt>
      <trkpt lat="48.55999" lon="-3.47798">
        <ele>157.31</ele>
        <time>2013-05-11T09:10:58Z</time>
      </trkpt>
      <trkpt lat="48.55996" lon="-3.47761">
        <ele>159.72</ele>
        <time>2013-05-11T09:11:03Z</time>
      </trkpt>
      <trkpt lat="48.55995" lon="-3.47747">
        <ele>160.2</ele>
        <time>2013-05-11T09:11:05Z</time>
      </trkpt>
      <trkpt lat="48.55991" lon="-3.47719">
        <ele>162.12</ele>
        <time>2013-05-11T09:11:09Z</time>
      </trkpt>
      <trkpt lat="48.5599" lon="-3.47704">
        <ele>163.08</ele>
        <time>2013-05-11T09:11:11Z</time>
      </trkpt>
      <trkpt lat="48.55985" lon="-3.47656">
        <ele>166.45</ele>
        <time>2013-05-11T09:11:19Z</time>
      </trkpt>
      <trkpt lat="48.55983" lon="-3.47639">
        <ele>167.41</ele>
        <time>2013-05-11T09:11:22Z</time>
      </trkpt>
      <trkpt lat="48.5598" lon="-3.47611">
        <ele>169.81</ele>
        <time>2013-05-11T09:11:27Z</time>
      </trkpt>
      <trkpt lat="48.55978" lon="-3.476">
        <ele>170.77</ele>
        <time>2013-05-11T09:11:29Z</time>
      </trkpt>
      <trkpt lat="48.55977" lon="-3.47595">
        <ele>170.77</ele>
        <time>2013-05-11T09:11:30Z</time>
      </trkpt>
      <trkpt lat="48.55976" lon="-3.47589">
        <ele>170.77</ele>
        <time>2013-05-11T09:11:31Z</time>
      </trkpt>
      <trkpt lat="48.55975" lon="-3.47584">
        <ele>171.25</ele>
        <time>2013-05-11T09:11:32Z</time>
      </trkpt>
      <trkpt lat="48.55974" lon="-3.47578">
        <ele>171.73</ele>
        <time>2013-05-11T09:11:33Z</time>
      </trkpt>
      <trkpt lat="48.55974" lon="-3.47573">
        <ele>171.73</ele>
        <time>2013-05-11T09:11:34Z</time>
      </trkpt>
      <trkpt lat="48.55973" lon="-3.47568">
        <ele>171.73</ele>
        <time>2013-05-11T09:11:35Z</time>
      </trkpt>
      <trkpt lat="48.55968" lon="-3.47513">
        <ele>175.1</ele>
        <time>2013-05-11T09:11:45Z</time>
      </trkpt>
      <trkpt lat="48.55967" lon="-3.47502">
        <ele>175.1</ele>
        <time>2013-05-11T09:11:47Z</time>
      </trkpt>
      <trkpt lat="48.5596" lon="-3.47401">
        <ele>177.5</ele>
        <time>2013-05-11T09:12:03Z</time>
      </trkpt>
      <trkpt lat="48.55952" lon="-3.4729">
        <ele>178.46</ele>
        <time>2013-05-11T09:12:18Z</time>
      </trkpt>
      <trkpt lat="48.55951" lon="-3.47282">
        <ele>177.5</ele>
        <time>2013-05-11T09:12:19Z</time>
      </trkpt>
      <trkpt lat="48.55949" lon="-3.47264">
        <ele>177.98</ele>
        <time>2013-05-11T09:12:21Z</time>
      </trkpt>
      <trkpt lat="48.55949" lon="-3.47254">
        <ele>177.5</ele>
        <time>2013-05-11T09:12:22Z</time>
      </trkpt>
      <trkpt lat="48.55944" lon="-3.47186">
        <ele>177.5</ele>
        <time>2013-05-11T09:12:30Z</time>
      </trkpt>
      <trkpt lat="48.55943" lon="-3.47177">
        <ele>178.46</ele>
        <time>2013-05-11T09:12:31Z</time>
      </trkpt>
      <trkpt lat="48.55942" lon="-3.4716">
        <ele>177.98</ele>
        <time>2013-05-11T09:12:33Z</time>
      </trkpt>
      <trkpt lat="48.55938" lon="-3.47101">
        <ele>178.46</ele>
        <time>2013-05-11T09:12:40Z</time>
      </trkpt>
      <trkpt lat="48.55936" lon="-3.47086">
        <ele>178.46</ele>
        <time>2013-05-11T09:12:42Z</time>
      </trkpt>
      <trkpt lat="48.55935" lon="-3.47079">
        <ele>179.42</ele>
        <time>2013-05-11T09:12:43Z</time>
      </trkpt>
      <trkpt lat="48.55934" lon="-3.47072">
        <ele>179.42</ele>
        <time>2013-05-11T09:12:44Z</time>
      </trkpt>
      <trkpt lat="48.55927" lon="-3.47002">
        <ele>181.83</ele>
        <time>2013-05-11T09:12:54Z</time>
      </trkpt>
      <trkpt lat="48.55927" lon="-3.46985">
        <ele>181.83</ele>
        <time>2013-05-11T09:12:57Z</time>
      </trkpt>
      <trkpt lat="48.55925" lon="-3.46978">
        <ele>182.31</ele>
        <time>2013-05-11T09:12:58Z</time>
      </trkpt>
      <trkpt lat="48.55925" lon="-3.46972">
        <ele>182.79</ele>
        <time>2013-05-11T09:12:59Z</time>
      </trkpt>
      <trkpt lat="48.55915" lon="-3.46891">
        <ele>186.63</ele>
        <time>2013-05-11T09:13:13Z</time>
      </trkpt>
      <trkpt lat="48.55909" lon="-3.46843">
        <ele>189.52</ele>
        <time>2013-05-11T09:13:22Z</time>
      </trkpt>
      <trkpt lat="48.55905" lon="-3.46786">
        <ele>193.36</ele>
        <time>2013-05-11T09:13:33Z</time>
      </trkpt>
      <trkpt lat="48.55903" lon="-3.46766">
        <ele>194.8</ele>
        <time>2013-05-11T09:13:37Z</time>
      </trkpt>
      <trkpt lat="48.55897" lon="-3.46719">
        <ele>198.17</ele>
        <time>2013-05-11T09:13:47Z</time>
      </trkpt>
      <trkpt lat="48.55895" lon="-3.4671">
        <ele>199.13</ele>
        <time>2013-05-11T09:13:49Z</time>
      </trkpt>
      <trkpt lat="48.55889" lon="-3.46665">
        <ele>202.49</ele>
        <time>2013-05-11T09:13:58Z</time>
      </trkpt>
      <trkpt lat="48.55884" lon="-3.46622">
        <ele>205.38</ele>
        <time>2013-05-11T09:14:07Z</time>
      </trkpt>
      <trkpt lat="48.55879" lon="-3.46566">
        <ele>208.74</ele>
        <time>2013-05-11T09:14:19Z</time>
      </trkpt>
      <trkpt lat="48.55876" lon="-3.46548">
        <ele>210.19</ele>
        <time>2013-05-11T09:14:23Z</time>
      </trkpt>
      <trkpt lat="48.55873" lon="-3.46513">
        <ele>213.07</ele>
        <time>2013-05-11T09:14:30Z</time>
      </trkpt>
      <trkpt lat="48.55865" lon="-3.46463">
        <ele>216.43</ele>
        <time>2013-05-11T09:14:42Z</time>
      </trkpt>
      <trkpt lat="48.55862" lon="-3.46442">
        <ele>217.4</ele>
        <time>2013-05-11T09:14:47Z</time>
      </trkpt>
      <trkpt lat="48.55857" lon="-3.46372">
        <ele>217.88</ele>
        <time>2013-05-11T09:14:59Z</time>
      </trkpt>
      <trkpt lat="48.55848" lon="-3.46262">
        <ele>216.43</ele>
        <time>2013-05-11T09:15:11Z</time>
      </trkpt>
      <trkpt lat="48.55846" lon="-3.46223">
        <ele>214.03</ele>
        <time>2013-05-11T09:15:14Z</time>
      </trkpt>
      <trkpt lat="48.55841" lon="-3.46165">
        <ele>210.67</ele>
        <time>2013-05-11T09:15:18Z</time>
      </trkpt>
      <trkpt lat="48.55834" lon="-3.461">
        <ele>207.3</ele>
        <time>2013-05-11T09:15:22Z</time>
      </trkpt>
      <trkpt lat="48.55828" lon="-3.4603">
        <ele>204.9</ele>
        <time>2013-05-11T09:15:26Z</time>
      </trkpt>
      <trkpt lat="48.55821" lon="-3.45957">
        <ele>200.57</ele>
        <time>2013-05-11T09:15:30Z</time>
      </trkpt>
      <trkpt lat="48.55819" lon="-3.45938">
        <ele>200.57</ele>
        <time>2013-05-11T09:15:31Z</time>
      </trkpt>
      <trkpt lat="48.55814" lon="-3.45882">
        <ele>197.21</ele>
        <time>2013-05-11T09:15:34Z</time>
      </trkpt>
      <trkpt lat="48.55811" lon="-3.45826">
        <ele>195.77</ele>
        <time>2013-05-11T09:15:37Z</time>
      </trkpt>
      <trkpt lat="48.55804" lon="-3.45741">
        <ele>192.4</ele>
        <time>2013-05-11T09:15:42Z</time>
      </trkpt>
      <trkpt lat="48.55803" lon="-3.45725">
        <ele>192.4</ele>
        <time>2013-05-11T09:15:43Z</time>
      </trkpt>
      <trkpt lat="48.55793" lon="-3.45613">
        <ele>191.44</ele>
        <time>2013-05-11T09:15:50Z</time>
      </trkpt>
      <trkpt lat="48.55773" lon="-3.45407">
        <ele>190.48</ele>
        <time>2013-05-11T09:16:03Z</time>
      </trkpt>
      <trkpt lat="48.55762" lon="-3.4526">
        <ele>193.84</ele>
        <time>2013-05-11T09:16:14Z</time>
      </trkpt>
      <trkpt lat="48.55749" lon="-3.45134">
        <ele>195.28</ele>
        <time>2013-05-11T09:16:26Z</time>
      </trkpt>
      <trkpt lat="48.55738" lon="-3.45001">
        <ele>197.21</ele>
        <time>2013-05-11T09:16:39Z</time>
      </trkpt>
      <trkpt lat="48.55722" lon="-3.44837">
        <ele>197.69</ele>
        <time>2013-05-11T09:16:54Z</time>
      </trkpt>
      <trkpt lat="48.55714" lon="-3.44724">
        <ele>196.73</ele>
        <time>2013-05-11T09:17:06Z</time>
      </trkpt>
      <trkpt lat="48.55714" lon="-3.44717">
        <ele>197.21</ele>
        <time>2013-05-11T09:17:07Z</time>
      </trkpt>
      <trkpt lat="48.55715" lon="-3.44711">
        <ele>197.21</ele>
        <time>2013-05-11T09:17:08Z</time>
      </trkpt>
      <trkpt lat="48.55716" lon="-3.44706">
        <ele>197.69</ele>
        <time>2013-05-11T09:17:09Z</time>
      </trkpt>
      <trkpt lat="48.55718" lon="-3.44703">
        <ele>197.69</ele>
        <time>2013-05-11T09:17:10Z</time>
      </trkpt>
      <trkpt lat="48.55721" lon="-3.44703">
        <ele>197.69</ele>
        <time>2013-05-11T09:17:11Z</time>
      </trkpt>
      <trkpt lat="48.55724" lon="-3.44707">
        <ele>197.69</ele>
        <time>2013-05-11T09:17:12Z</time>
      </trkpt>
      <trkpt lat="48.55726" lon="-3.44714">
        <ele>197.69</ele>
        <time>2013-05-11T09:17:13Z</time>
      </trkpt>
      <trkpt lat="48.55728" lon="-3.44722">
        <ele>198.65</ele>
        <time>2013-05-11T09:17:14Z</time>
      </trkpt>
      <trkpt lat="48.55764" lon="-3.44845">
        <ele>196.73</ele>
        <time>2013-05-11T09:17:27Z</time>
      </trkpt>
      <trkpt lat="48.55813" lon="-3.44955">
        <ele>193.36</ele>
        <time>2013-05-11T09:17:38Z</time>
      </trkpt>
      <trkpt lat="48.55818" lon="-3.44965">
        <ele>192.88</ele>
        <time>2013-05-11T09:17:39Z</time>
      </trkpt>
      <trkpt lat="48.55854" lon="-3.45023">
        <ele>190.48</ele>
        <time>2013-05-11T09:17:45Z</time>
      </trkpt>
      <trkpt lat="48.55892" lon="-3.45075">
        <ele>190</ele>
        <time>2013-05-11T09:17:51Z</time>
      </trkpt>
      <trkpt lat="48.559" lon="-3.45082">
        <ele>190</ele>
        <time>2013-05-11T09:17:52Z</time>
      </trkpt>
      <trkpt lat="48.55967" lon="-3.45138">
        <ele>186.63</ele>
        <time>2013-05-11T09:18:00Z</time>
      </trkpt>
      <trkpt lat="48.56001" lon="-3.45165">
        <ele>182.31</ele>
        <time>2013-05-11T09:18:04Z</time>
      </trkpt>
      <trkpt lat="48.56055" lon="-3.45196">
        <ele>178.94</ele>
        <time>2013-05-11T09:18:10Z</time>
      </trkpt>
      <trkpt lat="48.56122" lon="-3.45263">
        <ele>175.58</ele>
        <time>2013-05-11T09:18:18Z</time>
      </trkpt>
      <trkpt lat="48.56202" lon="-3.4537">
        <ele>174.62</ele>
        <time>2013-05-11T09:18:30Z</time>
      </trkpt>
      <trkpt lat="48.56206" lon="-3.45378">
        <ele>176.54</ele>
        <time>2013-05-11T09:18:31Z</time>
      </trkpt>
      <trkpt lat="48.5621" lon="-3.45386">
        <ele>176.54</ele>
        <time>2013-05-11T09:18:32Z</time>
      </trkpt>
      <trkpt lat="48.56236" lon="-3.45432">
        <ele>177.02</ele>
        <time>2013-05-11T09:18:38Z</time>
      </trkpt>
      <trkpt lat="48.56242" lon="-3.45438">
        <ele>176.54</ele>
        <time>2013-05-11T09:18:39Z</time>
      </trkpt>
      <trkpt lat="48.56249" lon="-3.45442">
        <ele>175.58</ele>
        <time>2013-05-11T09:18:40Z</time>
      </trkpt>
      <trkpt lat="48.56257" lon="-3.45446">
        <ele>175.58</ele>
        <time>2013-05-11T09:18:41Z</time>
      </trkpt>
      <trkpt lat="48.56265" lon="-3.45447">
        <ele>175.1</ele>
        <time>2013-05-11T09:18:42Z</time>
      </trkpt>
      <trkpt lat="48.56273" lon="-3.45446">
        <ele>174.14</ele>
        <time>2013-05-11T09:18:43Z</time>
      </trkpt>
      <trkpt lat="48.56282" lon="-3.45444">
        <ele>174.62</ele>
        <time>2013-05-11T09:18:44Z</time>
      </trkpt>
      <trkpt lat="48.56321" lon="-3.45436">
        <ele>174.62</ele>
        <time>2013-05-11T09:18:49Z</time>
      </trkpt>
      <trkpt lat="48.56329" lon="-3.45438">
        <ele>175.1</ele>
        <time>2013-05-11T09:18:50Z</time>
      </trkpt>
      <trkpt lat="48.56336" lon="-3.45441">
        <ele>175.1</ele>
        <time>2013-05-11T09:18:51Z</time>
      </trkpt>
      <trkpt lat="48.56355" lon="-3.45451">
        <ele>176.54</ele>
        <time>2013-05-11T09:18:54Z</time>
      </trkpt>
      <trkpt lat="48.56408" lon="-3.45478">
        <ele>177.98</ele>
        <time>2013-05-11T09:19:03Z</time>
      </trkpt>
      <trkpt lat="48.56414" lon="-3.45478">
        <ele>178.46</ele>
        <time>2013-05-11T09:19:04Z</time>
      </trkpt>
      <trkpt lat="48.56432" lon="-3.45479">
        <ele>179.42</ele>
        <time>2013-05-11T09:19:07Z</time>
      </trkpt>
      <trkpt lat="48.56439" lon="-3.45481">
        <ele>179.42</ele>
        <time>2013-05-11T09:19:08Z</time>
      </trkpt>
      <trkpt lat="48.56526" lon="-3.45504">
        <ele>179.42</ele>
        <time>2013-05-11T09:19:21Z</time>
      </trkpt>
      <trkpt lat="48.56533" lon="-3.45507">
        <ele>178.94</ele>
        <time>2013-05-11T09:19:22Z</time>
      </trkpt>
      <trkpt lat="48.56539" lon="-3.45513">
        <ele>178.94</ele>
        <time>2013-05-11T09:19:23Z</time>
      </trkpt>
      <trkpt lat="48.56546" lon="-3.4552">
        <ele>178.94</ele>
        <time>2013-05-11T09:19:24Z</time>
      </trkpt>
      <trkpt lat="48.56551" lon="-3.45528">
        <ele>178.94</ele>
        <time>2013-05-11T09:19:25Z</time>
      </trkpt>
      <trkpt lat="48.56557" lon="-3.45537">
        <ele>178.94</ele>
        <time>2013-05-11T09:19:26Z</time>
      </trkpt>
      <trkpt lat="48.56563" lon="-3.45547">
        <ele>178.94</ele>
        <time>2013-05-11T09:19:27Z</time>
      </trkpt>
      <trkpt lat="48.56611" lon="-3.45629">
        <ele>180.87</ele>
        <time>2013-05-11T09:19:38Z</time>
      </trkpt>
      <trkpt lat="48.56665" lon="-3.45692">
        <ele>184.23</ele>
        <time>2013-05-11T09:19:51Z</time>
      </trkpt>
      <trkpt lat="48.56734" lon="-3.45784">
        <ele>182.79</ele>
        <time>2013-05-11T09:20:06Z</time>
      </trkpt>
      <trkpt lat="48.56777" lon="-3.45832">
        <ele>183.75</ele>
        <time>2013-05-11T09:20:15Z</time>
      </trkpt>
      <trkpt lat="48.56849" lon="-3.45929">
        <ele>184.23</ele>
        <time>2013-05-11T09:20:30Z</time>
      </trkpt>
      <trkpt lat="48.56941" lon="-3.46023">
        <ele>183.27</ele>
        <time>2013-05-11T09:20:45Z</time>
      </trkpt>
      <trkpt lat="48.57035" lon="-3.46105">
        <ele>183.75</ele>
        <time>2013-05-11T09:21:00Z</time>
      </trkpt>
      <trkpt lat="48.5713" lon="-3.46173">
        <ele>184.71</ele>
        <time>2013-05-11T09:21:16Z</time>
      </trkpt>
      <trkpt lat="48.57244" lon="-3.46219">
        <ele>183.75</ele>
        <time>2013-05-11T09:21:33Z</time>
      </trkpt>
      <trkpt lat="48.57366" lon="-3.46247">
        <ele>185.19</ele>
        <time>2013-05-11T09:21:51Z</time>
      </trkpt>
      <trkpt lat="48.57467" lon="-3.4627">
        <ele>187.59</ele>
        <time>2013-05-11T09:22:07Z</time>
      </trkpt>
      <trkpt lat="48.57563" lon="-3.46292">
        <ele>187.11</ele>
        <time>2013-05-11T09:22:22Z</time>
      </trkpt>
      <trkpt lat="48.57693" lon="-3.46324">
        <ele>185.19</ele>
        <time>2013-05-11T09:22:40Z</time>
      </trkpt>
      <trkpt lat="48.57793" lon="-3.46333">
        <ele>184.71</ele>
        <time>2013-05-11T09:22:53Z</time>
      </trkpt>
      <trkpt lat="48.57801" lon="-3.46329">
        <ele>184.23</ele>
        <time>2013-05-11T09:22:54Z</time>
      </trkpt>
      <trkpt lat="48.57808" lon="-3.46325">
        <ele>184.23</ele>
        <time>2013-05-11T09:22:55Z</time>
      </trkpt>
      <trkpt lat="48.57821" lon="-3.46314">
        <ele>184.23</ele>
        <time>2013-05-11T09:22:57Z</time>
      </trkpt>
      <trkpt lat="48.57827" lon="-3.46308">
        <ele>183.75</ele>
        <time>2013-05-11T09:22:58Z</time>
      </trkpt>
      <trkpt lat="48.57833" lon="-3.46301">
        <ele>184.23</ele>
        <time>2013-05-11T09:22:59Z</time>
      </trkpt>
      <trkpt lat="48.57851" lon="-3.46272">
        <ele>181.35</ele>
        <time>2013-05-11T09:23:07Z</time>
      </trkpt>
      <trkpt lat="48.57851" lon="-3.46272">
        <ele>181.83</ele>
        <time>2013-05-11T09:23:33Z</time>
      </trkpt>
      <trkpt lat="48.57852" lon="-3.4627">
        <ele>181.83</ele>
        <time>2013-05-11T09:23:39Z</time>
      </trkpt>
      <trkpt lat="48.57874" lon="-3.46224">
        <ele>182.31</ele>
        <time>2013-05-11T09:23:47Z</time>
      </trkpt>
      <trkpt lat="48.57912" lon="-3.46143">
        <ele>178.94</ele>
        <time>2013-05-11T09:23:55Z</time>
      </trkpt>
      <trkpt lat="48.57917" lon="-3.46132">
        <ele>178.46</ele>
        <time>2013-05-11T09:23:56Z</time>
      </trkpt>
      <trkpt lat="48.57964" lon="-3.46039">
        <ele>175.1</ele>
        <time>2013-05-11T09:24:04Z</time>
      </trkpt>
      <trkpt lat="48.58028" lon="-3.45937">
        <ele>171.73</ele>
        <time>2013-05-11T09:24:13Z</time>
      </trkpt>
      <trkpt lat="48.58148" lon="-3.45782">
        <ele>170.29</ele>
        <time>2013-05-11T09:24:29Z</time>
      </trkpt>
      <trkpt lat="48.58202" lon="-3.45712">
        <ele>167.41</ele>
        <time>2013-05-11T09:24:37Z</time>
      </trkpt>
      <trkpt lat="48.58264" lon="-3.45637">
        <ele>164.52</ele>
        <time>2013-05-11T09:24:46Z</time>
      </trkpt>
      <trkpt lat="48.5835" lon="-3.45558">
        <ele>161.16</ele>
        <time>2013-05-11T09:24:56Z</time>
      </trkpt>
      <trkpt lat="48.58386" lon="-3.45526">
        <ele>159.24</ele>
        <time>2013-05-11T09:25:00Z</time>
      </trkpt>
      <trkpt lat="48.58412" lon="-3.45496">
        <ele>155.87</ele>
        <time>2013-05-11T09:25:03Z</time>
      </trkpt>
      <trkpt lat="48.58419" lon="-3.45485">
        <ele>155.87</ele>
        <time>2013-05-11T09:25:04Z</time>
      </trkpt>
      <trkpt lat="48.58474" lon="-3.45366">
        <ele>152.51</ele>
        <time>2013-05-11T09:25:13Z</time>
      </trkpt>
      <trkpt lat="48.58479" lon="-3.45352">
        <ele>152.51</ele>
        <time>2013-05-11T09:25:14Z</time>
      </trkpt>
      <trkpt lat="48.58511" lon="-3.45238">
        <ele>149.62</ele>
        <time>2013-05-11T09:25:22Z</time>
      </trkpt>
      <trkpt lat="48.58533" lon="-3.45161">
        <ele>147.7</ele>
        <time>2013-05-11T09:25:28Z</time>
      </trkpt>
      <trkpt lat="48.5857" lon="-3.45083">
        <ele>148.18</ele>
        <time>2013-05-11T09:25:35Z</time>
      </trkpt>
      <trkpt lat="48.58576" lon="-3.45074">
        <ele>148.18</ele>
        <time>2013-05-11T09:25:36Z</time>
      </trkpt>
      <trkpt lat="48.58591" lon="-3.45059">
        <ele>147.7</ele>
        <time>2013-05-11T09:25:38Z</time>
      </trkpt>
      <trkpt lat="48.58599" lon="-3.45052">
        <ele>148.18</ele>
        <time>2013-05-11T09:25:39Z</time>
      </trkpt>
      <trkpt lat="48.58607" lon="-3.45047">
        <ele>147.7</ele>
        <time>2013-05-11T09:25:40Z</time>
      </trkpt>
      <trkpt lat="48.58623" lon="-3.4504">
        <ele>147.7</ele>
        <time>2013-05-11T09:25:42Z</time>
      </trkpt>
      <trkpt lat="48.58631" lon="-3.45037">
        <ele>147.7</ele>
        <time>2013-05-11T09:25:43Z</time>
      </trkpt>
      <trkpt lat="48.58639" lon="-3.45036">
        <ele>147.22</ele>
        <time>2013-05-11T09:25:44Z</time>
      </trkpt>
      <trkpt lat="48.5876" lon="-3.45036">
        <ele>143.85</ele>
        <time>2013-05-11T09:25:58Z</time>
      </trkpt>
      <trkpt lat="48.5889" lon="-3.45037">
        <ele>140.97</ele>
        <time>2013-05-11T09:26:13Z</time>
      </trkpt>
      <trkpt lat="48.58951" lon="-3.45036">
        <ele>139.05</ele>
        <time>2013-05-11T09:26:20Z</time>
      </trkpt>
      <trkpt lat="48.59083" lon="-3.45058">
        <ele>137.13</ele>
        <time>2013-05-11T09:26:35Z</time>
      </trkpt>
      <trkpt lat="48.59131" lon="-3.4509">
        <ele>134.72</ele>
        <time>2013-05-11T09:26:41Z</time>
      </trkpt>
      <trkpt lat="48.59201" lon="-3.45139">
        <ele>134.24</ele>
        <time>2013-05-11T09:26:50Z</time>
      </trkpt>
      <trkpt lat="48.59307" lon="-3.45188">
        <ele>130.88</ele>
        <time>2013-05-11T09:27:03Z</time>
      </trkpt>
      <trkpt lat="48.59414" lon="-3.45177">
        <ele>128.47</ele>
        <time>2013-05-11T09:27:15Z</time>
      </trkpt>
      <trkpt lat="48.59522" lon="-3.45169">
        <ele>127.03</ele>
        <time>2013-05-11T09:27:28Z</time>
      </trkpt>
      <trkpt lat="48.59625" lon="-3.45192">
        <ele>128.47</ele>
        <time>2013-05-11T09:27:42Z</time>
      </trkpt>
      <trkpt lat="48.59724" lon="-3.45198">
        <ele>129.92</ele>
        <time>2013-05-11T09:27:56Z</time>
      </trkpt>
      <trkpt lat="48.59738" lon="-3.45202">
        <ele>130.4</ele>
        <time>2013-05-11T09:27:58Z</time>
      </trkpt>
      <trkpt lat="48.59745" lon="-3.45206">
        <ele>130.4</ele>
        <time>2013-05-11T09:27:59Z</time>
      </trkpt>
      <trkpt lat="48.59826" lon="-3.45287">
        <ele>131.36</ele>
        <time>2013-05-11T09:28:13Z</time>
      </trkpt>
      <trkpt lat="48.59909" lon="-3.45393">
        <ele>128.95</ele>
        <time>2013-05-11T09:28:27Z</time>
      </trkpt>
      <trkpt lat="48.59963" lon="-3.45462">
        <ele>125.59</ele>
        <time>2013-05-11T09:28:35Z</time>
      </trkpt>
      <trkpt lat="48.60056" lon="-3.45582">
        <ele>122.22</ele>
        <time>2013-05-11T09:28:49Z</time>
      </trkpt>
      <trkpt lat="48.60137" lon="-3.45687">
        <ele>121.74</ele>
        <time>2013-05-11T09:29:02Z</time>
      </trkpt>
      <trkpt lat="48.6022" lon="-3.45798">
        <ele>120.78</ele>
        <time>2013-05-11T09:29:16Z</time>
      </trkpt>
      <trkpt lat="48.60279" lon="-3.45886">
        <ele>118.86</ele>
        <time>2013-05-11T09:29:27Z</time>
      </trkpt>
      <trkpt lat="48.603" lon="-3.45955">
        <ele>118.38</ele>
        <time>2013-05-11T09:29:33Z</time>
      </trkpt>
      <trkpt lat="48.60303" lon="-3.46101">
        <ele>116.46</ele>
        <time>2013-05-11T09:29:45Z</time>
      </trkpt>
      <trkpt lat="48.60298" lon="-3.46194">
        <ele>115.5</ele>
        <time>2013-05-11T09:29:53Z</time>
      </trkpt>
      <trkpt lat="48.60299" lon="-3.46205">
        <ele>115.5</ele>
        <time>2013-05-11T09:29:54Z</time>
      </trkpt>
      <trkpt lat="48.60302" lon="-3.46216">
        <ele>115.5</ele>
        <time>2013-05-11T09:29:55Z</time>
      </trkpt>
      <trkpt lat="48.60305" lon="-3.46227">
        <ele>115.01</ele>
        <time>2013-05-11T09:29:56Z</time>
      </trkpt>
      <trkpt lat="48.6031" lon="-3.46238">
        <ele>114.53</ele>
        <time>2013-05-11T09:29:57Z</time>
      </trkpt>
      <trkpt lat="48.60316" lon="-3.46247">
        <ele>114.53</ele>
        <time>2013-05-11T09:29:58Z</time>
      </trkpt>
      <trkpt lat="48.60323" lon="-3.46256">
        <ele>114.53</ele>
        <time>2013-05-11T09:29:59Z</time>
      </trkpt>
      <trkpt lat="48.6033" lon="-3.46263">
        <ele>113.57</ele>
        <time>2013-05-11T09:30:00Z</time>
      </trkpt>
      <trkpt lat="48.60338" lon="-3.46268">
        <ele>113.57</ele>
        <time>2013-05-11T09:30:01Z</time>
      </trkpt>
      <trkpt lat="48.60345" lon="-3.46272">
        <ele>113.57</ele>
        <time>2013-05-11T09:30:02Z</time>
      </trkpt>
      <trkpt lat="48.60354" lon="-3.46276">
        <ele>114.05</ele>
        <time>2013-05-11T09:30:03Z</time>
      </trkpt>
      <trkpt lat="48.60456" lon="-3.46324">
        <ele>110.69</ele>
        <time>2013-05-11T09:30:15Z</time>
      </trkpt>
      <trkpt lat="48.60463" lon="-3.4633">
        <ele>110.69</ele>
        <time>2013-05-11T09:30:16Z</time>
      </trkpt>
      <trkpt lat="48.60508" lon="-3.46371">
        <ele>110.69</ele>
        <time>2013-05-11T09:30:23Z</time>
      </trkpt>
      <trkpt lat="48.60516" lon="-3.46374">
        <ele>110.69</ele>
        <time>2013-05-11T09:30:24Z</time>
      </trkpt>
      <trkpt lat="48.60522" lon="-3.46374">
        <ele>111.17</ele>
        <time>2013-05-11T09:30:25Z</time>
      </trkpt>
      <trkpt lat="48.60528" lon="-3.46373">
        <ele>111.65</ele>
        <time>2013-05-11T09:30:26Z</time>
      </trkpt>
      <trkpt lat="48.60533" lon="-3.4637">
        <ele>112.13</ele>
        <time>2013-05-11T09:30:27Z</time>
      </trkpt>
      <trkpt lat="48.60537" lon="-3.46367">
        <ele>112.61</ele>
        <time>2013-05-11T09:30:28Z</time>
      </trkpt>
      <trkpt lat="48.60541" lon="-3.46363">
        <ele>112.13</ele>
        <time>2013-05-11T09:30:29Z</time>
      </trkpt>
      <trkpt lat="48.60545" lon="-3.46359">
        <ele>112.61</ele>
        <time>2013-05-11T09:30:30Z</time>
      </trkpt>
      <trkpt lat="48.60549" lon="-3.46355">
        <ele>112.13</ele>
        <time>2013-05-11T09:30:31Z</time>
      </trkpt>
      <trkpt lat="48.60552" lon="-3.46349">
        <ele>112.61</ele>
        <time>2013-05-11T09:30:32Z</time>
      </trkpt>
      <trkpt lat="48.60559" lon="-3.46336">
        <ele>112.13</ele>
        <time>2013-05-11T09:30:34Z</time>
      </trkpt>
      <trkpt lat="48.60562" lon="-3.46329">
        <ele>111.65</ele>
        <time>2013-05-11T09:30:35Z</time>
      </trkpt>
      <trkpt lat="48.60566" lon="-3.46324">
        <ele>111.65</ele>
        <time>2013-05-11T09:30:36Z</time>
      </trkpt>
      <trkpt lat="48.60571" lon="-3.46319">
        <ele>111.65</ele>
        <time>2013-05-11T09:30:37Z</time>
      </trkpt>
      <trkpt lat="48.60577" lon="-3.46316">
        <ele>111.65</ele>
        <time>2013-05-11T09:30:38Z</time>
      </trkpt>
      <trkpt lat="48.60583" lon="-3.46315">
        <ele>111.65</ele>
        <time>2013-05-11T09:30:39Z</time>
      </trkpt>
      <trkpt lat="48.60589" lon="-3.46314">
        <ele>111.65</ele>
        <time>2013-05-11T09:30:40Z</time>
      </trkpt>
      <trkpt lat="48.60627" lon="-3.46316">
        <ele>112.13</ele>
        <time>2013-05-11T09:30:49Z</time>
      </trkpt>
      <trkpt lat="48.6063" lon="-3.46321">
        <ele>112.61</ele>
        <time>2013-05-11T09:30:50Z</time>
      </trkpt>
      <trkpt lat="48.60633" lon="-3.46326">
        <ele>112.13</ele>
        <time>2013-05-11T09:30:51Z</time>
      </trkpt>
      <trkpt lat="48.60636" lon="-3.46332">
        <ele>112.61</ele>
        <time>2013-05-11T09:30:52Z</time>
      </trkpt>
      <trkpt lat="48.60639" lon="-3.46339">
        <ele>111.65</ele>
        <time>2013-05-11T09:30:53Z</time>
      </trkpt>
      <trkpt lat="48.60641" lon="-3.46346">
        <ele>112.61</ele>
        <time>2013-05-11T09:30:54Z</time>
      </trkpt>
      <trkpt lat="48.60643" lon="-3.46354">
        <ele>113.09</ele>
        <time>2013-05-11T09:30:55Z</time>
      </trkpt>
      <trkpt lat="48.60658" lon="-3.46464">
        <ele>115.01</ele>
        <time>2013-05-11T09:31:09Z</time>
      </trkpt>
      <trkpt lat="48.6067" lon="-3.46597">
        <ele>116.94</ele>
        <time>2013-05-11T09:31:26Z</time>
      </trkpt>
      <trkpt lat="48.60682" lon="-3.46704">
        <ele>117.9</ele>
        <time>2013-05-11T09:31:39Z</time>
      </trkpt>
      <trkpt lat="48.60682" lon="-3.46713">
        <ele>115.98</ele>
        <time>2013-05-11T09:31:40Z</time>
      </trkpt>
      <trkpt lat="48.60683" lon="-3.46722">
        <ele>118.38</ele>
        <time>2013-05-11T09:31:41Z</time>
      </trkpt>
      <trkpt lat="48.60684" lon="-3.46731">
        <ele>117.9</ele>
        <time>2013-05-11T09:31:42Z</time>
      </trkpt>
      <trkpt lat="48.60685" lon="-3.4674">
        <ele>116.94</ele>
        <time>2013-05-11T09:31:43Z</time>
      </trkpt>
      <trkpt lat="48.60707" lon="-3.46883">
        <ele>115.98</ele>
        <time>2013-05-11T09:31:57Z</time>
      </trkpt>
      <trkpt lat="48.60711" lon="-3.46891">
        <ele>115.01</ele>
        <time>2013-05-11T09:31:58Z</time>
      </trkpt>
      <trkpt lat="48.60716" lon="-3.46899">
        <ele>115.5</ele>
        <time>2013-05-11T09:31:59Z</time>
      </trkpt>
      <trkpt lat="48.60721" lon="-3.46907">
        <ele>115.01</ele>
        <time>2013-05-11T09:32:00Z</time>
      </trkpt>
      <trkpt lat="48.60799" lon="-3.46974">
        <ele>112.13</ele>
        <time>2013-05-11T09:32:12Z</time>
      </trkpt>
      <trkpt lat="48.60889" lon="-3.47042">
        <ele>108.77</ele>
        <time>2013-05-11T09:32:23Z</time>
      </trkpt>
      <trkpt lat="48.60981" lon="-3.47112">
        <ele>106.84</ele>
        <time>2013-05-11T09:32:35Z</time>
      </trkpt>
      <trkpt lat="48.60987" lon="-3.47115">
        <ele>106.36</ele>
        <time>2013-05-11T09:32:36Z</time>
      </trkpt>
      <trkpt lat="48.60992" lon="-3.47119">
        <ele>106.84</ele>
        <time>2013-05-11T09:32:37Z</time>
      </trkpt>
      <trkpt lat="48.61013" lon="-3.47134">
        <ele>108.77</ele>
        <time>2013-05-11T09:32:41Z</time>
      </trkpt>
      <trkpt lat="48.61032" lon="-3.47147">
        <ele>109.73</ele>
        <time>2013-05-11T09:32:45Z</time>
      </trkpt>
      <trkpt lat="48.61091" lon="-3.47192">
        <ele>113.09</ele>
        <time>2013-05-11T09:32:57Z</time>
      </trkpt>
      <trkpt lat="48.61108" lon="-3.47205">
        <ele>113.09</ele>
        <time>2013-05-11T09:33:01Z</time>
      </trkpt>
      <trkpt lat="48.61113" lon="-3.47209">
        <ele>113.57</ele>
        <time>2013-05-11T09:33:02Z</time>
      </trkpt>
      <trkpt lat="48.61117" lon="-3.47212">
        <ele>113.57</ele>
        <time>2013-05-11T09:33:03Z</time>
      </trkpt>
      <trkpt lat="48.61121" lon="-3.47215">
        <ele>114.05</ele>
        <time>2013-05-11T09:33:04Z</time>
      </trkpt>
      <trkpt lat="48.61126" lon="-3.47219">
        <ele>114.05</ele>
        <time>2013-05-11T09:33:05Z</time>
      </trkpt>
      <trkpt lat="48.61161" lon="-3.47244">
        <ele>115.5</ele>
        <time>2013-05-11T09:33:13Z</time>
      </trkpt>
      <trkpt lat="48.61211" lon="-3.4726">
        <ele>118.86</ele>
        <time>2013-05-11T09:33:24Z</time>
      </trkpt>
      <trkpt lat="48.61215" lon="-3.47261">
        <ele>118.86</ele>
        <time>2013-05-11T09:33:25Z</time>
      </trkpt>
      <trkpt lat="48.61229" lon="-3.47265">
        <ele>118.86</ele>
        <time>2013-05-11T09:33:28Z</time>
      </trkpt>
      <trkpt lat="48.6126" lon="-3.47266">
        <ele>118.86</ele>
        <time>2013-05-11T09:33:34Z</time>
      </trkpt>
      <trkpt lat="48.61265" lon="-3.47265">
        <ele>118.86</ele>
        <time>2013-05-11T09:33:35Z</time>
      </trkpt>
      <trkpt lat="48.61299" lon="-3.47248">
        <ele>118.86</ele>
        <time>2013-05-11T09:33:41Z</time>
      </trkpt>
      <trkpt lat="48.61304" lon="-3.47242">
        <ele>117.9</ele>
        <time>2013-05-11T09:33:42Z</time>
      </trkpt>
      <trkpt lat="48.61316" lon="-3.47228">
        <ele>117.42</ele>
        <time>2013-05-11T09:33:44Z</time>
      </trkpt>
      <trkpt lat="48.61365" lon="-3.47149">
        <ele>114.05</ele>
        <time>2013-05-11T09:33:52Z</time>
      </trkpt>
      <trkpt lat="48.61392" lon="-3.47109">
        <ele>112.61</ele>
        <time>2013-05-11T09:33:56Z</time>
      </trkpt>
      <trkpt lat="48.6145" lon="-3.47053">
        <ele>109.73</ele>
        <time>2013-05-11T09:34:03Z</time>
      </trkpt>
      <trkpt lat="48.61511" lon="-3.47003">
        <ele>107.32</ele>
        <time>2013-05-11T09:34:10Z</time>
      </trkpt>
      <trkpt lat="48.61581" lon="-3.4694">
        <ele>109.25</ele>
        <time>2013-05-11T09:34:21Z</time>
      </trkpt>
      <trkpt lat="48.61586" lon="-3.46935">
        <ele>109.73</ele>
        <time>2013-05-11T09:34:22Z</time>
      </trkpt>
      <trkpt lat="48.61678" lon="-3.46844">
        <ele>112.13</ele>
        <time>2013-05-11T09:34:39Z</time>
      </trkpt>
      <trkpt lat="48.6177" lon="-3.46793">
        <ele>114.53</ele>
        <time>2013-05-11T09:34:54Z</time>
      </trkpt>
      <trkpt lat="48.61795" lon="-3.46792">
        <ele>115.01</ele>
        <time>2013-05-11T09:34:58Z</time>
      </trkpt>
      <trkpt lat="48.61879" lon="-3.46817">
        <ele>118.86</ele>
        <time>2013-05-11T09:35:12Z</time>
      </trkpt>
      <trkpt lat="48.6194" lon="-3.46807">
        <ele>121.74</ele>
        <time>2013-05-11T09:35:23Z</time>
      </trkpt>
      <trkpt lat="48.61976" lon="-3.46801">
        <ele>122.22</ele>
        <time>2013-05-11T09:35:29Z</time>
      </trkpt>
      <trkpt lat="48.62081" lon="-3.46787">
        <ele>122.71</ele>
        <time>2013-05-11T09:35:45Z</time>
      </trkpt>
      <trkpt lat="48.62187" lon="-3.46743">
        <ele>124.15</ele>
        <time>2013-05-11T09:36:01Z</time>
      </trkpt>
      <trkpt lat="48.6222" lon="-3.46735">
        <ele>125.59</ele>
        <time>2013-05-11T09:36:06Z</time>
      </trkpt>
      <trkpt lat="48.62337" lon="-3.46704">
        <ele>128.47</ele>
        <time>2013-05-11T09:36:24Z</time>
      </trkpt>
      <trkpt lat="48.62434" lon="-3.46654">
        <ele>129.92</ele>
        <time>2013-05-11T09:36:40Z</time>
      </trkpt>
      <trkpt lat="48.62527" lon="-3.46637">
        <ele>129.92</ele>
        <time>2013-05-11T09:36:53Z</time>
      </trkpt>
      <trkpt lat="48.62663" lon="-3.46614">
        <ele>128.95</ele>
        <time>2013-05-11T09:37:10Z</time>
      </trkpt>
      <trkpt lat="48.62806" lon="-3.46593">
        <ele>127.03</ele>
        <time>2013-05-11T09:37:27Z</time>
      </trkpt>
      <trkpt lat="48.62938" lon="-3.46546">
        <ele>125.59</ele>
        <time>2013-05-11T09:37:43Z</time>
      </trkpt>
      <trkpt lat="48.63056" lon="-3.46439">
        <ele>123.19</ele>
        <time>2013-05-11T09:37:59Z</time>
      </trkpt>
      <trkpt lat="48.63199" lon="-3.46288">
        <ele>121.74</ele>
        <time>2013-05-11T09:38:18Z</time>
      </trkpt>
      <trkpt lat="48.63322" lon="-3.46158">
        <ele>119.34</ele>
        <time>2013-05-11T09:38:34Z</time>
      </trkpt>
      <trkpt lat="48.63471" lon="-3.46">
        <ele>116.94</ele>
        <time>2013-05-11T09:38:53Z</time>
      </trkpt>
      <trkpt lat="48.63601" lon="-3.45863">
        <ele>114.05</ele>
        <time>2013-05-11T09:39:10Z</time>
      </trkpt>
      <trkpt lat="48.63716" lon="-3.45732">
        <ele>111.17</ele>
        <time>2013-05-11T09:39:26Z</time>
      </trkpt>
      <trkpt lat="48.63834" lon="-3.45558">
        <ele>110.21</ele>
        <time>2013-05-11T09:39:44Z</time>
      </trkpt>
      <trkpt lat="48.63954" lon="-3.45382">
        <ele>108.77</ele>
        <time>2013-05-11T09:40:02Z</time>
      </trkpt>
      <trkpt lat="48.64065" lon="-3.45218">
        <ele>105.88</ele>
        <time>2013-05-11T09:40:18Z</time>
      </trkpt>
      <trkpt lat="48.64166" lon="-3.45068">
        <ele>106.36</ele>
        <time>2013-05-11T09:40:34Z</time>
      </trkpt>
      <trkpt lat="48.64285" lon="-3.44891">
        <ele>108.29</ele>
        <time>2013-05-11T09:40:55Z</time>
      </trkpt>
      <trkpt lat="48.64383" lon="-3.44748">
        <ele>109.25</ele>
        <time>2013-05-11T09:41:11Z</time>
      </trkpt>
      <trkpt lat="48.64491" lon="-3.44638">
        <ele>107.32</ele>
        <time>2013-05-11T09:41:26Z</time>
      </trkpt>
      <trkpt lat="48.64618" lon="-3.44584">
        <ele>105.88</ele>
        <time>2013-05-11T09:41:40Z</time>
      </trkpt>
      <trkpt lat="48.64744" lon="-3.4459">
        <ele>103.96</ele>
        <time>2013-05-11T09:41:53Z</time>
      </trkpt>
      <trkpt lat="48.6487" lon="-3.44623">
        <ele>103.96</ele>
        <time>2013-05-11T09:42:08Z</time>
      </trkpt>
      <trkpt lat="48.6499" lon="-3.44635">
        <ele>103</ele>
        <time>2013-05-11T09:42:24Z</time>
      </trkpt>
      <trkpt lat="48.65119" lon="-3.44618">
        <ele>104.44</ele>
        <time>2013-05-11T09:42:41Z</time>
      </trkpt>
      <trkpt lat="48.65265" lon="-3.44577">
        <ele>103.48</ele>
        <time>2013-05-11T09:43:01Z</time>
      </trkpt>
      <trkpt lat="48.65387" lon="-3.44524">
        <ele>103</ele>
        <time>2013-05-11T09:43:17Z</time>
      </trkpt>
      <trkpt lat="48.65515" lon="-3.4447">
        <ele>101.56</ele>
        <time>2013-05-11T09:43:34Z</time>
      </trkpt>
      <trkpt lat="48.65656" lon="-3.44415">
        <ele>98.67</ele>
        <time>2013-05-11T09:43:51Z</time>
      </trkpt>
      <trkpt lat="48.65805" lon="-3.4436">
        <ele>96.27</ele>
        <time>2013-05-11T09:44:07Z</time>
      </trkpt>
      <trkpt lat="48.65946" lon="-3.44345">
        <ele>94.83</ele>
        <time>2013-05-11T09:44:21Z</time>
      </trkpt>
      <trkpt lat="48.66067" lon="-3.44369">
        <ele>91.46</ele>
        <time>2013-05-11T09:44:34Z</time>
      </trkpt>
      <trkpt lat="48.66192" lon="-3.444">
        <ele>92.9</ele>
        <time>2013-05-11T09:44:50Z</time>
      </trkpt>
      <trkpt lat="48.66309" lon="-3.44429">
        <ele>95.31</ele>
        <time>2013-05-11T09:45:07Z</time>
      </trkpt>
      <trkpt lat="48.66406" lon="-3.44446">
        <ele>96.75</ele>
        <time>2013-05-11T09:45:22Z</time>
      </trkpt>
      <trkpt lat="48.66527" lon="-3.4444">
        <ele>97.23</ele>
        <time>2013-05-11T09:45:40Z</time>
      </trkpt>
      <trkpt lat="48.66662" lon="-3.44445">
        <ele>96.75</ele>
        <time>2013-05-11T09:45:59Z</time>
      </trkpt>
      <trkpt lat="48.6679" lon="-3.44459">
        <ele>96.27</ele>
        <time>2013-05-11T09:46:16Z</time>
      </trkpt>
      <trkpt lat="48.66929" lon="-3.44475">
        <ele>94.35</ele>
        <time>2013-05-11T09:46:33Z</time>
      </trkpt>
      <trkpt lat="48.67056" lon="-3.44453">
        <ele>91.94</ele>
        <time>2013-05-11T09:46:48Z</time>
      </trkpt>
      <trkpt lat="48.67181" lon="-3.44437">
        <ele>92.42</ele>
        <time>2013-05-11T09:47:03Z</time>
      </trkpt>
      <trkpt lat="48.67302" lon="-3.44456">
        <ele>93.39</ele>
        <time>2013-05-11T09:47:19Z</time>
      </trkpt>
      <trkpt lat="48.67427" lon="-3.44494">
        <ele>93.87</ele>
        <time>2013-05-11T09:47:36Z</time>
      </trkpt>
      <trkpt lat="48.67524" lon="-3.44506">
        <ele>94.83</ele>
        <time>2013-05-11T09:47:49Z</time>
      </trkpt>
      <trkpt lat="48.67633" lon="-3.44491">
        <ele>93.39</ele>
        <time>2013-05-11T09:48:04Z</time>
      </trkpt>
      <trkpt lat="48.67751" lon="-3.44436">
        <ele>92.42</ele>
        <time>2013-05-11T09:48:20Z</time>
      </trkpt>
      <trkpt lat="48.67885" lon="-3.44369">
        <ele>92.42</ele>
        <time>2013-05-11T09:48:38Z</time>
      </trkpt>
      <trkpt lat="48.67979" lon="-3.44378">
        <ele>92.42</ele>
        <time>2013-05-11T09:48:50Z</time>
      </trkpt>
      <trkpt lat="48.68094" lon="-3.44414">
        <ele>89.54</ele>
        <time>2013-05-11T09:49:04Z</time>
      </trkpt>
      <trkpt lat="48.68225" lon="-3.44448">
        <ele>90.5</ele>
        <time>2013-05-11T09:49:20Z</time>
      </trkpt>
      <trkpt lat="48.68232" lon="-3.4445">
        <ele>90.98</ele>
        <time>2013-05-11T09:49:21Z</time>
      </trkpt>
      <trkpt lat="48.68254" lon="-3.44458">
        <ele>88.58</ele>
        <time>2013-05-11T09:49:24Z</time>
      </trkpt>
      <trkpt lat="48.68384" lon="-3.44498">
        <ele>89.54</ele>
        <time>2013-05-11T09:49:42Z</time>
      </trkpt>
      <trkpt lat="48.68517" lon="-3.44514">
        <ele>88.58</ele>
        <time>2013-05-11T09:50:00Z</time>
      </trkpt>
      <trkpt lat="48.68635" lon="-3.44553">
        <ele>87.62</ele>
        <time>2013-05-11T09:50:16Z</time>
      </trkpt>
      <trkpt lat="48.68761" lon="-3.44579">
        <ele>87.62</ele>
        <time>2013-05-11T09:50:32Z</time>
      </trkpt>
      <trkpt lat="48.68864" lon="-3.44576">
        <ele>86.66</ele>
        <time>2013-05-11T09:50:46Z</time>
      </trkpt>
      <trkpt lat="48.68959" lon="-3.44555">
        <ele>88.1</ele>
        <time>2013-05-11T09:50:59Z</time>
      </trkpt>
      <trkpt lat="48.69042" lon="-3.44538">
        <ele>90.5</ele>
        <time>2013-05-11T09:51:11Z</time>
      </trkpt>
      <trkpt lat="48.69117" lon="-3.44518">
        <ele>91.46</ele>
        <time>2013-05-11T09:51:22Z</time>
      </trkpt>
      <trkpt lat="48.69247" lon="-3.44475">
        <ele>91.46</ele>
        <time>2013-05-11T09:51:39Z</time>
      </trkpt>
      <trkpt lat="48.69287" lon="-3.44466">
        <ele>92.9</ele>
        <time>2013-05-11T09:51:44Z</time>
      </trkpt>
      <trkpt lat="48.69294" lon="-3.44466">
        <ele>93.39</ele>
        <time>2013-05-11T09:51:45Z</time>
      </trkpt>
      <trkpt lat="48.69316" lon="-3.44469">
        <ele>93.39</ele>
        <time>2013-05-11T09:51:48Z</time>
      </trkpt>
      <trkpt lat="48.6935" lon="-3.44482">
        <ele>94.35</ele>
        <time>2013-05-11T09:51:53Z</time>
      </trkpt>
      <trkpt lat="48.69424" lon="-3.44515">
        <ele>94.35</ele>
        <time>2013-05-11T09:52:04Z</time>
      </trkpt>
      <trkpt lat="48.69473" lon="-3.4454">
        <ele>93.39</ele>
        <time>2013-05-11T09:52:11Z</time>
      </trkpt>
      <trkpt lat="48.69488" lon="-3.44551">
        <ele>92.42</ele>
        <time>2013-05-11T09:52:13Z</time>
      </trkpt>
      <trkpt lat="48.69525" lon="-3.44582">
        <ele>90.5</ele>
        <time>2013-05-11T09:52:18Z</time>
      </trkpt>
      <trkpt lat="48.6959" lon="-3.44633">
        <ele>87.62</ele>
        <time>2013-05-11T09:52:26Z</time>
      </trkpt>
      <trkpt lat="48.69723" lon="-3.44715">
        <ele>84.73</ele>
        <time>2013-05-11T09:52:42Z</time>
      </trkpt>
      <trkpt lat="48.69805" lon="-3.44743">
        <ele>82.81</ele>
        <time>2013-05-11T09:52:52Z</time>
      </trkpt>
      <trkpt lat="48.69957" lon="-3.44782">
        <ele>80.89</ele>
        <time>2013-05-11T09:53:10Z</time>
      </trkpt>
      <trkpt lat="48.70081" lon="-3.44796">
        <ele>78</ele>
        <time>2013-05-11T09:53:25Z</time>
      </trkpt>
      <trkpt lat="48.70186" lon="-3.44817">
        <ele>77.04</ele>
        <time>2013-05-11T09:53:39Z</time>
      </trkpt>
      <trkpt lat="48.70289" lon="-3.44822">
        <ele>78.48</ele>
        <time>2013-05-11T09:53:53Z</time>
      </trkpt>
      <trkpt lat="48.70332" lon="-3.44825">
        <ele>78</ele>
        <time>2013-05-11T09:53:59Z</time>
      </trkpt>
      <trkpt lat="48.70339" lon="-3.44828">
        <ele>78</ele>
        <time>2013-05-11T09:54:00Z</time>
      </trkpt>
      <trkpt lat="48.70346" lon="-3.44832">
        <ele>77.52</ele>
        <time>2013-05-11T09:54:01Z</time>
      </trkpt>
      <trkpt lat="48.70388" lon="-3.44848">
        <ele>78</ele>
        <time>2013-05-11T09:54:07Z</time>
      </trkpt>
      <trkpt lat="48.70404" lon="-3.44848">
        <ele>78.48</ele>
        <time>2013-05-11T09:54:09Z</time>
      </trkpt>
      <trkpt lat="48.70411" lon="-3.44848">
        <ele>78.48</ele>
        <time>2013-05-11T09:54:10Z</time>
      </trkpt>
      <trkpt lat="48.70419" lon="-3.44846">
        <ele>78.48</ele>
        <time>2013-05-11T09:54:11Z</time>
      </trkpt>
      <trkpt lat="48.70509" lon="-3.44814">
        <ele>79.93</ele>
        <time>2013-05-11T09:54:24Z</time>
      </trkpt>
      <trkpt lat="48.70598" lon="-3.44808">
        <ele>80.89</ele>
        <time>2013-05-11T09:54:36Z</time>
      </trkpt>
      <trkpt lat="48.70628" lon="-3.44801">
        <ele>78.48</ele>
        <time>2013-05-11T09:54:40Z</time>
      </trkpt>
      <trkpt lat="48.70679" lon="-3.44799">
        <ele>78.48</ele>
        <time>2013-05-11T09:54:46Z</time>
      </trkpt>
      <trkpt lat="48.70716" lon="-3.44805">
        <ele>74.16</ele>
        <time>2013-05-11T09:54:50Z</time>
      </trkpt>
      <trkpt lat="48.70747" lon="-3.44815">
        <ele>71.27</ele>
        <time>2013-05-11T09:54:53Z</time>
      </trkpt>
      <trkpt lat="48.70789" lon="-3.44836">
        <ele>66.95</ele>
        <time>2013-05-11T09:54:57Z</time>
      </trkpt>
      <trkpt lat="48.70799" lon="-3.44841">
        <ele>67.43</ele>
        <time>2013-05-11T09:54:58Z</time>
      </trkpt>
      <trkpt lat="48.70904" lon="-3.44911">
        <ele>65.51</ele>
        <time>2013-05-11T09:55:10Z</time>
      </trkpt>
      <trkpt lat="48.71009" lon="-3.44984">
        <ele>63.1</ele>
        <time>2013-05-11T09:55:23Z</time>
      </trkpt>
      <trkpt lat="48.71026" lon="-3.44988">
        <ele>62.62</ele>
        <time>2013-05-11T09:55:25Z</time>
      </trkpt>
      <trkpt lat="48.71159" lon="-3.44998">
        <ele>62.62</ele>
        <time>2013-05-11T09:55:41Z</time>
      </trkpt>
      <trkpt lat="48.71272" lon="-3.45048">
        <ele>59.74</ele>
        <time>2013-05-11T09:55:56Z</time>
      </trkpt>
      <trkpt lat="48.71336" lon="-3.45083">
        <ele>59.74</ele>
        <time>2013-05-11T09:56:05Z</time>
      </trkpt>
      <trkpt lat="48.71467" lon="-3.4517">
        <ele>59.26</ele>
        <time>2013-05-11T09:56:23Z</time>
      </trkpt>
      <trkpt lat="48.71524" lon="-3.4521">
        <ele>61.66</ele>
        <time>2013-05-11T09:56:31Z</time>
      </trkpt>
      <trkpt lat="48.7157" lon="-3.45247">
        <ele>60.22</ele>
        <time>2013-05-11T09:56:38Z</time>
      </trkpt>
      <trkpt lat="48.71575" lon="-3.45254">
        <ele>60.22</ele>
        <time>2013-05-11T09:56:39Z</time>
      </trkpt>
      <trkpt lat="48.7158" lon="-3.45263">
        <ele>60.22</ele>
        <time>2013-05-11T09:56:40Z</time>
      </trkpt>
      <trkpt lat="48.71584" lon="-3.45273">
        <ele>60.22</ele>
        <time>2013-05-11T09:56:41Z</time>
      </trkpt>
      <trkpt lat="48.71588" lon="-3.45283">
        <ele>60.22</ele>
        <time>2013-05-11T09:56:42Z</time>
      </trkpt>
      <trkpt lat="48.71638" lon="-3.45417">
        <ele>57.34</ele>
        <time>2013-05-11T09:56:55Z</time>
      </trkpt>
      <trkpt lat="48.71699" lon="-3.45574">
        <ele>54.45</ele>
        <time>2013-05-11T09:57:10Z</time>
      </trkpt>
      <trkpt lat="48.7172" lon="-3.45612">
        <ele>51.57</ele>
        <time>2013-05-11T09:57:14Z</time>
      </trkpt>
      <trkpt lat="48.71727" lon="-3.45621">
        <ele>51.09</ele>
        <time>2013-05-11T09:57:15Z</time>
      </trkpt>
      <trkpt lat="48.71734" lon="-3.45629">
        <ele>51.09</ele>
        <time>2013-05-11T09:57:16Z</time>
      </trkpt>
      <trkpt lat="48.71765" lon="-3.4566">
        <ele>49.65</ele>
        <time>2013-05-11T09:57:20Z</time>
      </trkpt>
      <trkpt lat="48.71819" lon="-3.45715">
        <ele>47.24</ele>
        <time>2013-05-11T09:57:27Z</time>
      </trkpt>
      <trkpt lat="48.71881" lon="-3.45776">
        <ele>43.4</ele>
        <time>2013-05-11T09:57:35Z</time>
      </trkpt>
      <trkpt lat="48.71889" lon="-3.45784">
        <ele>42.92</ele>
        <time>2013-05-11T09:57:36Z</time>
      </trkpt>
      <trkpt lat="48.71919" lon="-3.45818">
        <ele>41.95</ele>
        <time>2013-05-11T09:57:40Z</time>
      </trkpt>
      <trkpt lat="48.71926" lon="-3.45828">
        <ele>41.95</ele>
        <time>2013-05-11T09:57:41Z</time>
      </trkpt>
      <trkpt lat="48.71931" lon="-3.4584">
        <ele>41.47</ele>
        <time>2013-05-11T09:57:42Z</time>
      </trkpt>
      <trkpt lat="48.71935" lon="-3.45852">
        <ele>41.95</ele>
        <time>2013-05-11T09:57:43Z</time>
      </trkpt>
      <trkpt lat="48.71938" lon="-3.45865">
        <ele>41.47</ele>
        <time>2013-05-11T09:57:44Z</time>
      </trkpt>
      <trkpt lat="48.71941" lon="-3.45878">
        <ele>40.99</ele>
        <time>2013-05-11T09:57:45Z</time>
      </trkpt>
      <trkpt lat="48.71963" lon="-3.45968">
        <ele>37.63</ele>
        <time>2013-05-11T09:57:52Z</time>
      </trkpt>
      <trkpt lat="48.71968" lon="-3.45978">
        <ele>37.15</ele>
        <time>2013-05-11T09:57:53Z</time>
      </trkpt>
      <trkpt lat="48.71974" lon="-3.45987">
        <ele>36.19</ele>
        <time>2013-05-11T09:57:54Z</time>
      </trkpt>
      <trkpt lat="48.71981" lon="-3.45995">
        <ele>35.23</ele>
        <time>2013-05-11T09:57:55Z</time>
      </trkpt>
      <trkpt lat="48.71989" lon="-3.46003">
        <ele>35.23</ele>
        <time>2013-05-11T09:57:56Z</time>
      </trkpt>
      <trkpt lat="48.71997" lon="-3.4601">
        <ele>35.23</ele>
        <time>2013-05-11T09:57:57Z</time>
      </trkpt>
      <trkpt lat="48.72006" lon="-3.46015">
        <ele>34.74</ele>
        <time>2013-05-11T09:57:58Z</time>
      </trkpt>
      <trkpt lat="48.72015" lon="-3.46018">
        <ele>34.74</ele>
        <time>2013-05-11T09:57:59Z</time>
      </trkpt>
      <trkpt lat="48.72025" lon="-3.46019">
        <ele>34.74</ele>
        <time>2013-05-11T09:58:00Z</time>
      </trkpt>
      <trkpt lat="48.72036" lon="-3.46019">
        <ele>33.78</ele>
        <time>2013-05-11T09:58:01Z</time>
      </trkpt>
      <trkpt lat="48.72046" lon="-3.46017">
        <ele>33.3</ele>
        <time>2013-05-11T09:58:02Z</time>
      </trkpt>
      <trkpt lat="48.72056" lon="-3.46014">
        <ele>33.3</ele>
        <time>2013-05-11T09:58:03Z</time>
      </trkpt>
      <trkpt lat="48.72066" lon="-3.46009">
        <ele>32.82</ele>
        <time>2013-05-11T09:58:04Z</time>
      </trkpt>
      <trkpt lat="48.72075" lon="-3.46003">
        <ele>33.3</ele>
        <time>2013-05-11T09:58:05Z</time>
      </trkpt>
      <trkpt lat="48.72085" lon="-3.45996">
        <ele>31.38</ele>
        <time>2013-05-11T09:58:06Z</time>
      </trkpt>
      <trkpt lat="48.72095" lon="-3.45988">
        <ele>32.34</ele>
        <time>2013-05-11T09:58:07Z</time>
      </trkpt>
      <trkpt lat="48.72144" lon="-3.45955">
        <ele>29.94</ele>
        <time>2013-05-11T09:58:12Z</time>
      </trkpt>
      <trkpt lat="48.72155" lon="-3.45952">
        <ele>28.98</ele>
        <time>2013-05-11T09:58:13Z</time>
      </trkpt>
      <trkpt lat="48.72166" lon="-3.45952">
        <ele>28.5</ele>
        <time>2013-05-11T09:58:14Z</time>
      </trkpt>
      <trkpt lat="48.72178" lon="-3.45954">
        <ele>28.98</ele>
        <time>2013-05-11T09:58:15Z</time>
      </trkpt>
      <trkpt lat="48.72189" lon="-3.45959">
        <ele>28.5</ele>
        <time>2013-05-11T09:58:16Z</time>
      </trkpt>
      <trkpt lat="48.72199" lon="-3.45964">
        <ele>28.5</ele>
        <time>2013-05-11T09:58:17Z</time>
      </trkpt>
      <trkpt lat="48.72292" lon="-3.46006">
        <ele>25.61</ele>
        <time>2013-05-11T09:58:26Z</time>
      </trkpt>
      <trkpt lat="48.72302" lon="-3.46008">
        <ele>25.13</ele>
        <time>2013-05-11T09:58:27Z</time>
      </trkpt>
      <trkpt lat="48.72312" lon="-3.46009">
        <ele>23.69</ele>
        <time>2013-05-11T09:58:28Z</time>
      </trkpt>
      <trkpt lat="48.72323" lon="-3.46009">
        <ele>23.21</ele>
        <time>2013-05-11T09:58:29Z</time>
      </trkpt>
      <trkpt lat="48.72333" lon="-3.46007">
        <ele>22.73</ele>
        <time>2013-05-11T09:58:30Z</time>
      </trkpt>
      <trkpt lat="48.72343" lon="-3.46005">
        <ele>22.73</ele>
        <time>2013-05-11T09:58:31Z</time>
      </trkpt>
      <trkpt lat="48.7239" lon="-3.45991">
        <ele>20.32</ele>
        <time>2013-05-11T09:58:36Z</time>
      </trkpt>
      <trkpt lat="48.72408" lon="-3.4599">
        <ele>19.84</ele>
        <time>2013-05-11T09:58:38Z</time>
      </trkpt>
      <trkpt lat="48.72417" lon="-3.45992">
        <ele>19.36</ele>
        <time>2013-05-11T09:58:39Z</time>
      </trkpt>
      <trkpt lat="48.72426" lon="-3.45996">
        <ele>18.88</ele>
        <time>2013-05-11T09:58:40Z</time>
      </trkpt>
      <trkpt lat="48.72515" lon="-3.46031">
        <ele>15.52</ele>
        <time>2013-05-11T09:58:50Z</time>
      </trkpt>
      <trkpt lat="48.72524" lon="-3.46033">
        <ele>15.52</ele>
        <time>2013-05-11T09:58:51Z</time>
      </trkpt>
      <trkpt lat="48.7255" lon="-3.46035">
        <ele>13.12</ele>
        <time>2013-05-11T09:58:54Z</time>
      </trkpt>
      <trkpt lat="48.72636" lon="-3.46014">
        <ele>8.31</ele>
        <time>2013-05-11T09:59:03Z</time>
      </trkpt>
      <trkpt lat="48.72726" lon="-3.45994">
        <ele>5.42</ele>
        <time>2013-05-11T09:59:12Z</time>
      </trkpt>
      <trkpt lat="48.72761" lon="-3.45981">
        <ele>4.46</ele>
        <time>2013-05-11T09:59:17Z</time>
      </trkpt>
      <trkpt lat="48.72775" lon="-3.45971">
        <ele>3.02</ele>
        <time>2013-05-11T09:59:20Z</time>
      </trkpt>
      <trkpt lat="48.7278" lon="-3.45971">
        <ele>3.98</ele>
        <time>2013-05-11T09:59:21Z</time>
      </trkpt>
      <trkpt lat="48.72793" lon="-3.45973">
        <ele>3.5</ele>
        <time>2013-05-11T09:59:23Z</time>
      </trkpt>
      <trkpt lat="48.7287" lon="-3.45958">
        <ele>4.94</ele>
        <time>2013-05-11T09:59:35Z</time>
      </trkpt>
      <trkpt lat="48.72875" lon="-3.4596">
        <ele>5.42</ele>
        <time>2013-05-11T09:59:36Z</time>
      </trkpt>
      <trkpt lat="48.7288" lon="-3.45964">
        <ele>6.39</ele>
        <time>2013-05-11T09:59:37Z</time>
      </trkpt>
      <trkpt lat="48.72884" lon="-3.4597">
        <ele>5.42</ele>
        <time>2013-05-11T09:59:38Z</time>
      </trkpt>
      <trkpt lat="48.72887" lon="-3.45976">
        <ele>5.91</ele>
        <time>2013-05-11T09:59:39Z</time>
      </trkpt>
      <trkpt lat="48.72897" lon="-3.45992">
        <ele>5.42</ele>
        <time>2013-05-11T09:59:42Z</time>
      </trkpt>
      <trkpt lat="48.729" lon="-3.45996">
        <ele>5.42</ele>
        <time>2013-05-11T09:59:43Z</time>
      </trkpt>
      <trkpt lat="48.7291" lon="-3.46003">
        <ele>4.94</ele>
        <time>2013-05-11T09:59:45Z</time>
      </trkpt>
      <trkpt lat="48.7292" lon="-3.46013">
        <ele>5.42</ele>
        <time>2013-05-11T09:59:47Z</time>
      </trkpt>
      <trkpt lat="48.72925" lon="-3.46017">
        <ele>4.94</ele>
        <time>2013-05-11T09:59:48Z</time>
      </trkpt>
      <trkpt lat="48.72931" lon="-3.4602">
        <ele>4.46</ele>
        <time>2013-05-11T09:59:49Z</time>
      </trkpt>
      <trkpt lat="48.72995" lon="-3.46051">
        <ele>4.94</ele>
        <time>2013-05-11T09:59:59Z</time>
      </trkpt>
      <trkpt lat="48.73002" lon="-3.46051">
        <ele>4.94</ele>
        <time>2013-05-11T10:00:00Z</time>
      </trkpt>
      <trkpt lat="48.73008" lon="-3.46049">
        <ele>4.94</ele>
        <time>2013-05-11T10:00:01Z</time>
      </trkpt>
      <trkpt lat="48.73038" lon="-3.46035">
        <ele>4.94</ele>
        <time>2013-05-11T10:00:06Z</time>
      </trkpt>
      <trkpt lat="48.73044" lon="-3.46031">
        <ele>4.94</ele>
        <time>2013-05-11T10:00:07Z</time>
      </trkpt>
      <trkpt lat="48.73048" lon="-3.46025">
        <ele>5.42</ele>
        <time>2013-05-11T10:00:08Z</time>
      </trkpt>
      <trkpt lat="48.73052" lon="-3.46018">
        <ele>4.46</ele>
        <time>2013-05-11T10:00:09Z</time>
      </trkpt>
      <trkpt lat="48.73056" lon="-3.46012">
        <ele>4.94</ele>
        <time>2013-05-11T10:00:10Z</time>
      </trkpt>
      <trkpt lat="48.73064" lon="-3.46001">
        <ele>4.94</ele>
        <time>2013-05-11T10:00:12Z</time>
      </trkpt>
      <trkpt lat="48.73068" lon="-3.45997">
        <ele>4.94</ele>
        <time>2013-05-11T10:00:13Z</time>
      </trkpt>
      <trkpt lat="48.73071" lon="-3.45994">
        <ele>4.94</ele>
        <time>2013-05-11T10:00:14Z</time>
      </trkpt>
      <trkpt lat="48.73075" lon="-3.45992">
        <ele>3.98</ele>
        <time>2013-05-11T10:00:15Z</time>
      </trkpt>
      <trkpt lat="48.73077" lon="-3.45991">
        <ele>3.98</ele>
        <time>2013-05-11T10:00:16Z</time>
      </trkpt>
      <trkpt lat="48.73078" lon="-3.45991">
        <ele>3.5</ele>
        <time>2013-05-11T10:00:17Z</time>
      </trkpt>
      <trkpt lat="48.73092" lon="-3.45987">
        <ele>3.5</ele>
        <time>2013-05-11T10:00:24Z</time>
      </trkpt>
      <trkpt lat="48.73096" lon="-3.45989">
        <ele>3.98</ele>
        <time>2013-05-11T10:00:25Z</time>
      </trkpt>
      <trkpt lat="48.73101" lon="-3.45993">
        <ele>3.5</ele>
        <time>2013-05-11T10:00:26Z</time>
      </trkpt>
      <trkpt lat="48.73116" lon="-3.46011">
        <ele>2.54</ele>
        <time>2013-05-11T10:00:30Z</time>
      </trkpt>
      <trkpt lat="48.73119" lon="-3.46016">
        <ele>3.02</ele>
        <time>2013-05-11T10:00:31Z</time>
      </trkpt>
      <trkpt lat="48.73159" lon="-3.46074">
        <ele>3.02</ele>
        <time>2013-05-11T10:00:41Z</time>
      </trkpt>
      <trkpt lat="48.73201" lon="-3.46135">
        <ele>5.42</ele>
        <time>2013-05-11T10:00:52Z</time>
      </trkpt>
      <trkpt lat="48.73217" lon="-3.46163">
        <ele>5.42</ele>
        <time>2013-05-11T10:00:57Z</time>
      </trkpt>
      <trkpt lat="48.73229" lon="-3.46175">
        <ele>4.46</ele>
        <time>2013-05-11T10:01:01Z</time>
      </trkpt>
      <trkpt lat="48.73233" lon="-3.46173">
        <ele>3.98</ele>
        <time>2013-05-11T10:01:02Z</time>
      </trkpt>
      <trkpt lat="48.73236" lon="-3.46169">
        <ele>4.46</ele>
        <time>2013-05-11T10:01:03Z</time>
      </trkpt>
      <trkpt lat="48.73238" lon="-3.46162">
        <ele>4.46</ele>
        <time>2013-05-11T10:01:04Z</time>
      </trkpt>
      <trkpt lat="48.7324" lon="-3.46155">
        <ele>4.94</ele>
        <time>2013-05-11T10:01:05Z</time>
      </trkpt>
      <trkpt lat="48.73244" lon="-3.46142">
        <ele>5.42</ele>
        <time>2013-05-11T10:01:07Z</time>
      </trkpt>
      <trkpt lat="48.73246" lon="-3.46135">
        <ele>5.91</ele>
        <time>2013-05-11T10:01:08Z</time>
      </trkpt>
      <trkpt lat="48.73251" lon="-3.46122">
        <ele>6.87</ele>
        <time>2013-05-11T10:01:10Z</time>
      </trkpt>
      <trkpt lat="48.73254" lon="-3.46116">
        <ele>6.87</ele>
        <time>2013-05-11T10:01:11Z</time>
      </trkpt>
      <trkpt lat="48.7326" lon="-3.46103">
        <ele>7.83</ele>
        <time>2013-05-11T10:01:13Z</time>
      </trkpt>
      <trkpt lat="48.73262" lon="-3.46094">
        <ele>8.31</ele>
        <time>2013-05-11T10:01:14Z</time>
      </trkpt>
      <trkpt lat="48.73268" lon="-3.46071">
        <ele>9.27</ele>
        <time>2013-05-11T10:01:17Z</time>
      </trkpt>
      <trkpt lat="48.7327" lon="-3.46064">
        <ele>9.27</ele>
        <time>2013-05-11T10:01:18Z</time>
      </trkpt>
      <trkpt lat="48.73299" lon="-3.45993">
        <ele>12.15</ele>
        <time>2013-05-11T10:01:30Z</time>
      </trkpt>
      <trkpt lat="48.73311" lon="-3.4597">
        <ele>11.67</ele>
        <time>2013-05-11T10:01:34Z</time>
      </trkpt>
      <trkpt lat="48.73316" lon="-3.45963">
        <ele>11.19</ele>
        <time>2013-05-11T10:01:35Z</time>
      </trkpt>
      <trkpt lat="48.73322" lon="-3.45956">
        <ele>10.71</ele>
        <time>2013-05-11T10:01:36Z</time>
      </trkpt>
      <trkpt lat="48.73328" lon="-3.4595">
        <ele>10.71</ele>
        <time>2013-05-11T10:01:37Z</time>
      </trkpt>
      <trkpt lat="48.73334" lon="-3.45946">
        <ele>9.75</ele>
        <time>2013-05-11T10:01:38Z</time>
      </trkpt>
      <trkpt lat="48.73394" lon="-3.45918">
        <ele>7.83</ele>
        <time>2013-05-11T10:01:45Z</time>
      </trkpt>
      <trkpt lat="48.73449" lon="-3.45895">
        <ele>9.27</ele>
        <time>2013-05-11T10:01:53Z</time>
      </trkpt>
      <trkpt lat="48.73453" lon="-3.45889">
        <ele>8.79</ele>
        <time>2013-05-11T10:01:54Z</time>
      </trkpt>
      <trkpt lat="48.73455" lon="-3.45883">
        <ele>9.27</ele>
        <time>2013-05-11T10:01:55Z</time>
      </trkpt>
      <trkpt lat="48.73458" lon="-3.45876">
        <ele>9.27</ele>
        <time>2013-05-11T10:01:56Z</time>
      </trkpt>
      <trkpt lat="48.7346" lon="-3.45868">
        <ele>9.27</ele>
        <time>2013-05-11T10:01:57Z</time>
      </trkpt>
      <trkpt lat="48.73462" lon="-3.4586">
        <ele>10.23</ele>
        <time>2013-05-11T10:01:58Z</time>
      </trkpt>
      <trkpt lat="48.73465" lon="-3.45842">
        <ele>10.23</ele>
        <time>2013-05-11T10:02:00Z</time>
      </trkpt>
      <trkpt lat="48.73466" lon="-3.45832">
        <ele>9.75</ele>
        <time>2013-05-11T10:02:01Z</time>
      </trkpt>
      <trkpt lat="48.73465" lon="-3.45822">
        <ele>10.23</ele>
        <time>2013-05-11T10:02:02Z</time>
      </trkpt>
      <trkpt lat="48.73464" lon="-3.45812">
        <ele>10.23</ele>
        <time>2013-05-11T10:02:03Z</time>
      </trkpt>
      <trkpt lat="48.73463" lon="-3.45802">
        <ele>10.23</ele>
        <time>2013-05-11T10:02:04Z</time>
      </trkpt>
      <trkpt lat="48.73461" lon="-3.45793">
        <ele>10.23</ele>
        <time>2013-05-11T10:02:05Z</time>
      </trkpt>
      <trkpt lat="48.73458" lon="-3.45785">
        <ele>9.75</ele>
        <time>2013-05-11T10:02:06Z</time>
      </trkpt>
      <trkpt lat="48.73454" lon="-3.45777">
        <ele>10.23</ele>
        <time>2013-05-11T10:02:07Z</time>
      </trkpt>
      <trkpt lat="48.7344" lon="-3.45743">
        <ele>10.23</ele>
        <time>2013-05-11T10:02:11Z</time>
      </trkpt>
      <trkpt lat="48.73437" lon="-3.45735">
        <ele>10.71</ele>
        <time>2013-05-11T10:02:12Z</time>
      </trkpt>
      <trkpt lat="48.73436" lon="-3.45726">
        <ele>10.71</ele>
        <time>2013-05-11T10:02:13Z</time>
      </trkpt>
      <trkpt lat="48.73436" lon="-3.45717">
        <ele>10.71</ele>
        <time>2013-05-11T10:02:14Z</time>
      </trkpt>
      <trkpt lat="48.73438" lon="-3.45708">
        <ele>10.23</ele>
        <time>2013-05-11T10:02:15Z</time>
      </trkpt>
      <trkpt lat="48.73441" lon="-3.457">
        <ele>11.19</ele>
        <time>2013-05-11T10:02:16Z</time>
      </trkpt>
      <trkpt lat="48.73445" lon="-3.45692">
        <ele>10.71</ele>
        <time>2013-05-11T10:02:17Z</time>
      </trkpt>
      <trkpt lat="48.73463" lon="-3.45661">
        <ele>10.71</ele>
        <time>2013-05-11T10:02:21Z</time>
      </trkpt>
      <trkpt lat="48.73467" lon="-3.45652">
        <ele>10.23</ele>
        <time>2013-05-11T10:02:22Z</time>
      </trkpt>
      <trkpt lat="48.73471" lon="-3.45642">
        <ele>9.27</ele>
        <time>2013-05-11T10:02:23Z</time>
      </trkpt>
      <trkpt lat="48.73493" lon="-3.45553">
        <ele>10.71</ele>
        <time>2013-05-11T10:02:32Z</time>
      </trkpt>
      <trkpt lat="48.73496" lon="-3.45546">
        <ele>11.19</ele>
        <time>2013-05-11T10:02:33Z</time>
      </trkpt>
      <trkpt lat="48.73501" lon="-3.45536">
        <ele>11.67</ele>
        <time>2013-05-11T10:02:35Z</time>
      </trkpt>
      <trkpt lat="48.73504" lon="-3.45532">
        <ele>11.67</ele>
        <time>2013-05-11T10:02:36Z</time>
      </trkpt>
      <trkpt lat="48.73508" lon="-3.4553">
        <ele>11.67</ele>
        <time>2013-05-11T10:02:37Z</time>
      </trkpt>
      <trkpt lat="48.73542" lon="-3.45525">
        <ele>12.15</ele>
        <time>2013-05-11T10:02:43Z</time>
      </trkpt>
      <trkpt lat="48.73562" lon="-3.45516">
        <ele>13.6</ele>
        <time>2013-05-11T10:02:47Z</time>
      </trkpt>
      <trkpt lat="48.73567" lon="-3.45514">
        <ele>13.6</ele>
        <time>2013-05-11T10:02:48Z</time>
      </trkpt>
      <trkpt lat="48.73571" lon="-3.45512">
        <ele>14.08</ele>
        <time>2013-05-11T10:02:49Z</time>
      </trkpt>
      <trkpt lat="48.73576" lon="-3.4551">
        <ele>14.08</ele>
        <time>2013-05-11T10:02:50Z</time>
      </trkpt>
      <trkpt lat="48.7358" lon="-3.45508">
        <ele>15.52</ele>
        <time>2013-05-11T10:02:51Z</time>
      </trkpt>
      <trkpt lat="48.7359" lon="-3.45505">
        <ele>15.52</ele>
        <time>2013-05-11T10:02:53Z</time>
      </trkpt>
      <trkpt lat="48.73605" lon="-3.45501">
        <ele>15.52</ele>
        <time>2013-05-11T10:02:56Z</time>
      </trkpt>
      <trkpt lat="48.7361" lon="-3.45501">
        <ele>16</ele>
        <time>2013-05-11T10:02:57Z</time>
      </trkpt>
      <trkpt lat="48.73615" lon="-3.45502">
        <ele>16.48</ele>
        <time>2013-05-11T10:02:58Z</time>
      </trkpt>
      <trkpt lat="48.7362" lon="-3.45503">
        <ele>16.48</ele>
        <time>2013-05-11T10:02:59Z</time>
      </trkpt>
      <trkpt lat="48.73624" lon="-3.45505">
        <ele>16.48</ele>
        <time>2013-05-11T10:03:00Z</time>
      </trkpt>
      <trkpt lat="48.73629" lon="-3.45507">
        <ele>16.96</ele>
        <time>2013-05-11T10:03:01Z</time>
      </trkpt>
      <trkpt lat="48.73673" lon="-3.4552">
        <ele>19.36</ele>
        <time>2013-05-11T10:03:11Z</time>
      </trkpt>
      <trkpt lat="48.73678" lon="-3.45521">
        <ele>19.84</ele>
        <time>2013-05-11T10:03:12Z</time>
      </trkpt>
      <trkpt lat="48.73682" lon="-3.45521">
        <ele>20.32</ele>
        <time>2013-05-11T10:03:13Z</time>
      </trkpt>
      <trkpt lat="48.73687" lon="-3.45521">
        <ele>20.81</ele>
        <time>2013-05-11T10:03:14Z</time>
      </trkpt>
      <trkpt lat="48.73692" lon="-3.45521">
        <ele>20.81</ele>
        <time>2013-05-11T10:03:15Z</time>
      </trkpt>
      <trkpt lat="48.73696" lon="-3.45521">
        <ele>20.32</ele>
        <time>2013-05-11T10:03:16Z</time>
      </trkpt>
      <trkpt lat="48.737" lon="-3.4552">
        <ele>20.32</ele>
        <time>2013-05-11T10:03:17Z</time>
      </trkpt>
      <trkpt lat="48.73744" lon="-3.45508">
        <ele>23.69</ele>
        <time>2013-05-11T10:03:27Z</time>
      </trkpt>
      <trkpt lat="48.73748" lon="-3.45508">
        <ele>24.17</ele>
        <time>2013-05-11T10:03:28Z</time>
      </trkpt>
      <trkpt lat="48.73752" lon="-3.45507">
        <ele>24.65</ele>
        <time>2013-05-11T10:03:29Z</time>
      </trkpt>
      <trkpt lat="48.73768" lon="-3.45506">
        <ele>25.61</ele>
        <time>2013-05-11T10:03:33Z</time>
      </trkpt>
      <trkpt lat="48.73781" lon="-3.45501">
        <ele>26.09</ele>
        <time>2013-05-11T10:03:36Z</time>
      </trkpt>
      <trkpt lat="48.73785" lon="-3.455">
        <ele>27.05</ele>
        <time>2013-05-11T10:03:37Z</time>
      </trkpt>
      <trkpt lat="48.73793" lon="-3.45499">
        <ele>27.05</ele>
        <time>2013-05-11T10:03:39Z</time>
      </trkpt>
      <trkpt lat="48.73818" lon="-3.45495">
        <ele>28.5</ele>
        <time>2013-05-11T10:03:45Z</time>
      </trkpt>
      <trkpt lat="48.73822" lon="-3.45495">
        <ele>28.98</ele>
        <time>2013-05-11T10:03:46Z</time>
      </trkpt>
      <trkpt lat="48.73845" lon="-3.45491">
        <ele>30.42</ele>
        <time>2013-05-11T10:03:51Z</time>
      </trkpt>
      <trkpt lat="48.73907" lon="-3.45496">
        <ele>33.3</ele>
        <time>2013-05-11T10:04:05Z</time>
      </trkpt>
      <trkpt lat="48.73928" lon="-3.45505">
        <ele>33.78</ele>
        <time>2013-05-11T10:04:10Z</time>
      </trkpt>
      <trkpt lat="48.73973" lon="-3.4553">
        <ele>36.19</ele>
        <time>2013-05-11T10:04:22Z</time>
      </trkpt>
      <trkpt lat="48.7404" lon="-3.45548">
        <ele>39.55</ele>
        <time>2013-05-11T10:04:38Z</time>
      </trkpt>
      <trkpt lat="48.74092" lon="-3.45574">
        <ele>42.92</ele>
        <time>2013-05-11T10:04:51Z</time>
      </trkpt>
      <trkpt lat="48.74108" lon="-3.45581">
        <ele>43.4</ele>
        <time>2013-05-11T10:04:55Z</time>
      </trkpt>
      <trkpt lat="48.74121" lon="-3.45581">
        <ele>44.36</ele>
        <time>2013-05-11T10:04:58Z</time>
      </trkpt>
      <trkpt lat="48.74165" lon="-3.45579">
        <ele>47.24</ele>
        <time>2013-05-11T10:05:08Z</time>
      </trkpt>
      <trkpt lat="48.7424" lon="-3.45573">
        <ele>50.61</ele>
        <time>2013-05-11T10:05:25Z</time>
      </trkpt>
      <trkpt lat="48.74248" lon="-3.45572">
        <ele>51.09</ele>
        <time>2013-05-11T10:05:27Z</time>
      </trkpt>
      <trkpt lat="48.74294" lon="-3.45546">
        <ele>54.45</ele>
        <time>2013-05-11T10:05:38Z</time>
      </trkpt>
      <trkpt lat="48.74352" lon="-3.45498">
        <ele>57.82</ele>
        <time>2013-05-11T10:05:53Z</time>
      </trkpt>
      <trkpt lat="48.74393" lon="-3.45448">
        <ele>61.18</ele>
        <time>2013-05-11T10:06:05Z</time>
      </trkpt>
      <trkpt lat="48.74401" lon="-3.45422">
        <ele>62.14</ele>
        <time>2013-05-11T10:06:10Z</time>
      </trkpt>
      <trkpt lat="48.74401" lon="-3.45385">
        <ele>63.1</ele>
        <time>2013-05-11T10:06:16Z</time>
      </trkpt>
      <trkpt lat="48.74401" lon="-3.45371">
        <ele>64.07</ele>
        <time>2013-05-11T10:06:18Z</time>
      </trkpt>
      <trkpt lat="48.74401" lon="-3.45364">
        <ele>64.07</ele>
        <time>2013-05-11T10:06:19Z</time>
      </trkpt>
      <trkpt lat="48.744" lon="-3.45342">
        <ele>65.51</ele>
        <time>2013-05-11T10:06:22Z</time>
      </trkpt>
      <trkpt lat="48.74398" lon="-3.45282">
        <ele>65.99</ele>
        <time>2013-05-11T10:06:30Z</time>
      </trkpt>
      <trkpt lat="48.74399" lon="-3.45275">
        <ele>65.51</ele>
        <time>2013-05-11T10:06:31Z</time>
      </trkpt>
      <trkpt lat="48.744" lon="-3.45268">
        <ele>66.47</ele>
        <time>2013-05-11T10:06:32Z</time>
      </trkpt>
      <trkpt lat="48.74402" lon="-3.45262">
        <ele>65.99</ele>
        <time>2013-05-11T10:06:33Z</time>
      </trkpt>
      <trkpt lat="48.74405" lon="-3.45257">
        <ele>66.47</ele>
        <time>2013-05-11T10:06:34Z</time>
      </trkpt>
      <trkpt lat="48.74409" lon="-3.45255">
        <ele>66.95</ele>
        <time>2013-05-11T10:06:35Z</time>
      </trkpt>
      <trkpt lat="48.74414" lon="-3.45257">
        <ele>67.43</ele>
        <time>2013-05-11T10:06:36Z</time>
      </trkpt>
      <trkpt lat="48.74419" lon="-3.4526">
        <ele>66.47</ele>
        <time>2013-05-11T10:06:37Z</time>
      </trkpt>
      <trkpt lat="48.74424" lon="-3.45264">
        <ele>66.47</ele>
        <time>2013-05-11T10:06:38Z</time>
      </trkpt>
      <trkpt lat="48.74429" lon="-3.45269">
        <ele>66.95</ele>
        <time>2013-05-11T10:06:39Z</time>
      </trkpt>
      <trkpt lat="48.74434" lon="-3.45274">
        <ele>66.47</ele>
        <time>2013-05-11T10:06:40Z</time>
      </trkpt>
      <trkpt lat="48.7446" lon="-3.45306">
        <ele>65.03</ele>
        <time>2013-05-11T10:06:45Z</time>
      </trkpt>
      <trkpt lat="48.74498" lon="-3.45355">
        <ele>62.14</ele>
        <time>2013-05-11T10:06:51Z</time>
      </trkpt>
      <trkpt lat="48.74529" lon="-3.45396">
        <ele>59.26</ele>
        <time>2013-05-11T10:06:55Z</time>
      </trkpt>
      <trkpt lat="48.74548" lon="-3.45432">
        <ele>57.82</ele>
        <time>2013-05-11T10:06:58Z</time>
      </trkpt>
      <trkpt lat="48.74552" lon="-3.45444">
        <ele>57.82</ele>
        <time>2013-05-11T10:06:59Z</time>
      </trkpt>
      <trkpt lat="48.74572" lon="-3.45484">
        <ele>59.26</ele>
        <time>2013-05-11T10:07:04Z</time>
      </trkpt>
      <trkpt lat="48.74576" lon="-3.45489">
        <ele>59.74</ele>
        <time>2013-05-11T10:07:05Z</time>
      </trkpt>
      <trkpt lat="48.74579" lon="-3.45493">
        <ele>59.74</ele>
        <time>2013-05-11T10:07:06Z</time>
      </trkpt>
      <trkpt lat="48.74582" lon="-3.45497">
        <ele>60.22</ele>
        <time>2013-05-11T10:07:07Z</time>
      </trkpt>
      <trkpt lat="48.74585" lon="-3.45502">
        <ele>60.22</ele>
        <time>2013-05-11T10:07:08Z</time>
      </trkpt>
      <trkpt lat="48.74588" lon="-3.45506">
        <ele>60.7</ele>
        <time>2013-05-11T10:07:09Z</time>
      </trkpt>
      <trkpt lat="48.74596" lon="-3.45514">
        <ele>62.14</ele>
        <time>2013-05-11T10:07:12Z</time>
      </trkpt>
      <trkpt lat="48.74599" lon="-3.45514">
        <ele>61.66</ele>
        <time>2013-05-11T10:07:13Z</time>
      </trkpt>
      <trkpt lat="48.74602" lon="-3.45511">
        <ele>61.66</ele>
        <time>2013-05-11T10:07:14Z</time>
      </trkpt>
      <trkpt lat="48.74605" lon="-3.45506">
        <ele>61.66</ele>
        <time>2013-05-11T10:07:15Z</time>
      </trkpt>
      <trkpt lat="48.74607" lon="-3.455">
        <ele>62.14</ele>
        <time>2013-05-11T10:07:16Z</time>
      </trkpt>
      <trkpt lat="48.74608" lon="-3.45495">
        <ele>63.1</ele>
        <time>2013-05-11T10:07:17Z</time>
      </trkpt>
      <trkpt lat="48.7461" lon="-3.4549">
        <ele>63.1</ele>
        <time>2013-05-11T10:07:18Z</time>
      </trkpt>
      <trkpt lat="48.74621" lon="-3.4547">
        <ele>65.03</ele>
        <time>2013-05-11T10:07:23Z</time>
      </trkpt>
      <trkpt lat="48.74625" lon="-3.45469">
        <ele>65.51</ele>
        <time>2013-05-11T10:07:24Z</time>
      </trkpt>
      <trkpt lat="48.74629" lon="-3.45471">
        <ele>65.51</ele>
        <time>2013-05-11T10:07:25Z</time>
      </trkpt>
      <trkpt lat="48.74632" lon="-3.45474">
        <ele>65.99</ele>
        <time>2013-05-11T10:07:26Z</time>
      </trkpt>
      <trkpt lat="48.74635" lon="-3.45479">
        <ele>65.99</ele>
        <time>2013-05-11T10:07:27Z</time>
      </trkpt>
      <trkpt lat="48.74637" lon="-3.45483">
        <ele>66.47</ele>
        <time>2013-05-11T10:07:28Z</time>
      </trkpt>
      <trkpt lat="48.74639" lon="-3.45487">
        <ele>66.95</ele>
        <time>2013-05-11T10:07:29Z</time>
      </trkpt>
      <trkpt lat="48.74643" lon="-3.4549">
        <ele>66.95</ele>
        <time>2013-05-11T10:07:30Z</time>
      </trkpt>
      <trkpt lat="48.74646" lon="-3.45492">
        <ele>67.43</ele>
        <time>2013-05-11T10:07:31Z</time>
      </trkpt>
      <trkpt lat="48.74649" lon="-3.45495">
        <ele>67.43</ele>
        <time>2013-05-11T10:07:32Z</time>
      </trkpt>
      <trkpt lat="48.74652" lon="-3.45497">
        <ele>67.91</ele>
        <time>2013-05-11T10:07:33Z</time>
      </trkpt>
      <trkpt lat="48.74681" lon="-3.45525">
        <ele>69.83</ele>
        <time>2013-05-11T10:07:44Z</time>
      </trkpt>
      <trkpt lat="48.74684" lon="-3.45528">
        <ele>69.35</ele>
        <time>2013-05-11T10:07:46Z</time>
      </trkpt>
      <trkpt lat="48.74687" lon="-3.45528">
        <ele>69.83</ele>
        <time>2013-05-11T10:07:47Z</time>
      </trkpt>
      <trkpt lat="48.7469" lon="-3.45527">
        <ele>69.35</ele>
        <time>2013-05-11T10:07:48Z</time>
      </trkpt>
      <trkpt lat="48.74691" lon="-3.45524">
        <ele>70.31</ele>
        <time>2013-05-11T10:07:49Z</time>
      </trkpt>
      <trkpt lat="48.74693" lon="-3.45521">
        <ele>69.83</ele>
        <time>2013-05-11T10:07:50Z</time>
      </trkpt>
      <trkpt lat="48.74693" lon="-3.45517">
        <ele>69.83</ele>
        <time>2013-05-11T10:07:51Z</time>
      </trkpt>
      <trkpt lat="48.74694" lon="-3.45513">
        <ele>70.31</ele>
        <time>2013-05-11T10:07:52Z</time>
      </trkpt>
      <trkpt lat="48.74694" lon="-3.45509">
        <ele>70.31</ele>
        <time>2013-05-11T10:07:53Z</time>
      </trkpt>
      <trkpt lat="48.74694" lon="-3.45506">
        <ele>70.31</ele>
        <time>2013-05-11T10:07:54Z</time>
      </trkpt>
      <trkpt lat="48.74693" lon="-3.45504">
        <ele>70.31</ele>
        <time>2013-05-11T10:07:55Z</time>
      </trkpt>
      <trkpt lat="48.74694" lon="-3.45501">
        <ele>70.31</ele>
        <time>2013-05-11T10:08:06Z</time>
      </trkpt>
      <trkpt lat="48.74695" lon="-3.45501">
        <ele>70.31</ele>
        <time>2013-05-11T10:08:07Z</time>
      </trkpt>
      <trkpt lat="48.74697" lon="-3.45499">
        <ele>70.31</ele>
        <time>2013-05-11T10:08:08Z</time>
      </trkpt>
      <trkpt lat="48.74698" lon="-3.45498">
        <ele>70.31</ele>
        <time>2013-05-11T10:08:09Z</time>
      </trkpt>
      <trkpt lat="48.74702" lon="-3.45495">
        <ele>70.31</ele>
        <time>2013-05-11T10:08:27Z</time>
      </trkpt>
      <trkpt lat="48.74702" lon="-3.45497">
        <ele>70.79</ele>
        <time>2013-05-11T10:08:49Z</time>
      </trkpt>
      <trkpt lat="48.74704" lon="-3.45496">
        <ele>71.27</ele>
        <time>2013-05-11T10:09:12Z</time>
      </trkpt>
    </trkseg>
  </trk>
</gpx>